CV7757 / LX-VCC 7700 Squawk Report (6th of September, 2020)

Aircraft B748 Reg No. LX-VCC Age 10 years old
Model 747 Jet engines 4 First flight 22-07-10
Registered 23-03-12 Rollout 14-04-10 Delivered 23-03-12
Construction No. 35807 Line No. 1424 Series 8R7F
ADSHEX 4D0102 Airline name Cargolux Owner N/A
Airfield based Luxembourg-Findel~Luxembourg (Lux.)~LX First tracked N/A

Flight history for LX-VCC

Route Flight No Date Playback
Schiphol (AMS) - Glasgow (GLA) KL1477 2020-10-20 15:01:00
???? N/A 2020-10-20 05:28:00
Luxembourg (LUX) - King Fahd Intl (DMM) - Hong Kong Intl (HKG) N/A 2020-10-19 17:16:00
John F Kennedy Intl (JFK) - Luxembourg (LUX) N/A 2020-10-18 21:39:00
Hong Kong Intl (HKG) - Ted Stevens Anchorage Intl (ANC) CV7586 2020-10-18 03:21:00
Luxembourg (LUX) - Dubai World Central - Al Maktoum International (DWC) - Hong Kong Intl (HKG) N/A 2020-10-17 14:01:00
Xinzheng (CGO) - Luxembourg (LUX) CV9734 2020-10-16 14:49:00
Luxembourg (LUX) - Xinzheng (CGO) CV9724 2020-10-16 06:52:00
Suvarnabhumi International (BKK) - Hong Kong Intl (HKG) - Budapest Ferenc Liszt (BUD) - Luxembourg (LUX) CV7333 2020-10-15 08:45:00
Hong Kong Intl (HKG) - Ashgabat (ASB) - Luxembourg (LUX) N/A 2020-10-15 05:02:00
Suvarnabhumi International (BKK) - Hong Kong Intl (HKG) CV6322 2020-10-14 12:12:00
Luxembourg (LUX) - Hamad International Airport (DOH) - Suvarnabhumi International (BKK) - Hong Kong Intl (HKG) CV7322 2020-10-13 19:03:00
???? N/A 2020-10-13 12:39:00
Hong Kong Intl (HKG) - John F Kennedy Intl (JFK) CV4357 2020-10-12 20:57:00
Hong Kong Intl (HKG) - John F Kennedy Intl (JFK) CV4357 2020-10-12 16:41:00
Luxembourg (LUX) - Muscat International (MCT) - Hong Kong Intl (HKG) CV7326 2020-10-11 18:08:00
Hong Kong Intl (HKG) - Ashgabat (ASB) - Luxembourg (LUX) CV7309 2020-10-10 15:17:00
Luxembourg (LUX) - Changi Intl (SIN) - Hong Kong Intl (HKG) N/A 2020-10-10 01:06:00
Taoyuan Intl (TPE) - Suvarnabhumi International (BKK) - Luxembourg (LUX) CV7973 2020-10-08 17:38:00
Taoyuan Intl (TPE) - Suvarnabhumi International (BKK) - Luxembourg (LUX) CV7973 2020-10-08 15:38:00
Time Lat Lon Altitude Heading Speed Vertical Rate
2020-09-06 14:45:07 GMT 55.500603 -4.569197 25 302 149 -1024
2020-09-06 14:45:03 GMT 55.499039 -4.564570 100 302 150 -896
2020-09-06 14:44:53 GMT 55.494324 -4.550920 300 301 151 -960
2020-09-06 14:44:44 GMT 55.491898 -4.543877 425 302 149 -1088
2020-09-06 14:44:39 GMT 55.490406 -4.539585 475 302 149 -1024
2020-09-06 14:44:33 GMT 55.488174 -4.533148 575 302 149 -896
2020-09-06 14:44:30 GMT 55.487228 -4.530445 625 302 150 -896
2020-09-06 14:44:23 GMT 55.484573 -4.522705 725 302 150 -832
2020-09-06 14:44:18 GMT 55.482880 -4.517711 800 301 151 -960
2020-09-06 14:44:12 GMT 55.480583 -4.511089 900 301 151 -896
2020-09-06 14:44:07 GMT 55.478817 -4.505854 975 302 151 -960
2020-09-06 14:44:03 GMT 55.477139 -4.501133 1,050 303 150 -960
2020-09-06 14:44:00 GMT 55.476208 -4.498558 1,075 302 151 -960
2020-09-06 14:43:50 GMT 55.472580 -4.487998 1,250 302 152 -960
2020-09-06 14:43:42 GMT 55.469505 -4.479246 1,375 302 152 -1024
2020-09-06 14:43:39 GMT 55.468689 -4.476929 1,425 302 152 -1024
2020-09-06 14:43:34 GMT 55.466675 -4.471103 1,525 302 151 -1024
2020-09-06 14:43:30 GMT 55.465034 -4.466457 1,575 302 150 -1024
2020-09-06 14:43:22 GMT 55.461311 -4.455729 1,750 302 149 -960
2020-09-06 14:43:15 GMT 55.459358 -4.450150 1,850 302 150 -1088
2020-09-06 14:43:12 GMT 55.458797 -4.448433 1,875 302 150 -1088
2020-09-06 14:43:09 GMT 55.457680 -4.445171 1,925 302 150 -1024
2020-09-06 14:43:02 GMT 55.454773 -4.436646 2,050 302 150 -960
2020-09-06 14:42:56 GMT 55.453072 -4.431696 2,150 302 151 -1152
2020-09-06 14:42:52 GMT 55.451584 -4.427490 2,225 302 149 -1152
2020-09-06 14:42:48 GMT 55.449875 -4.422746 2,325 302 148 -1088
2020-09-06 14:42:44 GMT 55.448605 -4.418993 2,375 302 147 -896
2020-09-06 14:42:38 GMT 55.446304 -4.412342 2,450 302 148 -832
2020-09-06 14:42:32 GMT 55.442551 -4.401606 2,625 302 148 -1088
2020-09-06 14:42:27 GMT 55.442551 -4.401606 2,625 302 148 -1088
2020-09-06 14:42:22 GMT 55.440552 -4.395946 2,725 302 148 -960
2020-09-06 14:42:17 GMT 55.438889 -4.391219 2,800 302 148 -1024
2020-09-06 14:42:12 GMT 55.436920 -4.385484 2,875 302 148 -960
2020-09-06 14:42:08 GMT 55.435383 -4.380965 2,950 302 148 -1024
2020-09-06 14:42:01 GMT 55.433212 -4.374659 3,050 302 147 -960
2020-09-06 14:41:57 GMT 55.431793 -4.370701 3,125 302 148 -1024
2020-09-06 14:41:51 GMT 55.429703 -4.364735 3,225 302 148 -1088
2020-09-06 14:41:47 GMT 55.428120 -4.360241 3,300 302 149 -1024
2020-09-06 14:41:44 GMT 55.426941 -4.356725 3,350 302 149 -1024
2020-09-06 14:41:41 GMT 55.425980 -4.354060 3,400 302 149 -960
2020-09-06 14:41:38 GMT 55.425018 -4.351232 3,450 302 148 -896
2020-09-06 14:41:35 GMT 55.423885 -4.347923 3,500 302 148 -896
2020-09-06 14:41:31 GMT 55.422256 -4.343345 3,550 302 147 -896
2020-09-06 14:41:27 GMT 55.420898 -4.339438 3,600 302 147 -896
2020-09-06 14:41:23 GMT 55.419662 -4.335884 3,675 302 147 -896
2020-09-06 14:41:20 GMT 55.418762 -4.333191 3,700 302 147 -832
2020-09-06 14:41:16 GMT 55.417236 -4.328694 3,750 302 147 -768
2020-09-06 14:41:13 GMT 55.416248 -4.325867 3,800 302 146 -832
2020-09-06 14:41:10 GMT 55.414898 -4.321955 3,850 302 146 -896
2020-09-06 14:41:06 GMT 55.413757 -4.318758 3,900 302 146 -768
2020-09-06 14:41:03 GMT 55.412571 -4.315380 3,950 302 146 -896
2020-09-06 14:41:00 GMT 55.411640 -4.312716 3,975 302 146 -768
2020-09-06 14:40:57 GMT 55.410324 -4.309064 4,075 302 146 -896
2020-09-06 14:40:53 GMT 55.408985 -4.305142 4,100 302 146 -896
2020-09-06 14:40:50 GMT 55.407730 -4.301647 4,150 302 147 -832
2020-09-06 14:40:46 GMT 55.406658 -4.298484 4,175 302 147 -704
2020-09-06 14:40:43 GMT 55.404381 -4.291909 4,225 301 148 -448
2020-09-06 14:40:37 GMT 55.403046 -4.287899 4,275 301 150 -448
2020-09-06 14:40:33 GMT 55.401855 -4.284506 4,275 302 150 -448
2020-09-06 14:40:29 GMT 55.400665 -4.281033 4,325 302 151 -448
2020-09-06 14:40:26 GMT 55.399384 -4.277478 4,350 303 152 -448
2020-09-06 14:40:22 GMT 55.397964 -4.273439 4,350 303 152 -448
2020-09-06 14:40:18 GMT 55.394943 -4.264796 4,400 302 153 -448
2020-09-06 14:40:15 GMT 55.394943 -4.264796 4,425 301 153 -448
2020-09-06 14:40:12 GMT 55.392929 -4.258979 4,450 301 153 -320
2020-09-06 14:40:09 GMT 55.392929 -4.258979 4,475 302 154 -256
2020-09-06 14:40:06 GMT 55.391922 -4.256071 4,475 302 154 -256
2020-09-06 14:40:03 GMT 55.390785 -4.252874 4,475 304 153 -192
2020-09-06 14:39:56 GMT 55.387897 -4.245716 4,500 310 154 -192
2020-09-06 14:39:53 GMT 55.386364 -4.242637 4,525 318 155 -256
2020-09-06 14:39:46 GMT 55.382500 -4.237393 4,575 333 157 -640
2020-09-06 14:39:42 GMT 55.380157 -4.235310 4,625 338 161 -512
2020-09-06 14:39:36 GMT 55.376122 -4.232316 4,650 338 161 -512
2020-09-06 14:39:33 GMT 55.373562 -4.230485 4,700 339 162 -576
2020-09-06 14:39:27 GMT 55.369652 -4.227822 4,750 339 161 -576
2020-09-06 14:39:24 GMT 55.367294 -4.226182 4,775 339 160 -448
2020-09-06 14:39:18 GMT 55.363087 -4.223244 4,825 338 161 -448
2020-09-06 14:39:12 GMT 55.359596 -4.220748 5,025 337 164 -896
2020-09-06 14:39:08 GMT 55.356617 -4.218584 4,925 339 160 -704
2020-09-06 14:39:05 GMT 55.354294 -4.216973 4,925 339 160 -704
2020-09-06 14:39:00 GMT 55.350891 -4.214589 5,000 339 159 -704
2020-09-06 14:38:56 GMT 55.346001 -4.211259 5,100 339 159 -704
2020-09-06 14:38:50 GMT 55.343906 -4.209761 5,125 339 159 -704
2020-09-06 14:38:47 GMT 55.342300 -4.208652 5,175 338 159 -704
2020-09-06 14:38:44 GMT 55.339622 -4.206765 5,200 339 160 -704
2020-09-06 14:38:40 GMT 55.334473 -4.203078 5,300 338 161 -896
2020-09-06 14:38:36 GMT 55.334473 -4.203078 5,375 337 165 -960
2020-09-06 14:38:32 GMT 55.331635 -4.200978 5,375 337 164 -896
2020-09-06 14:38:28 GMT 55.328934 -4.198878 5,425 337 167 -896
2020-09-06 14:38:25 GMT 55.326736 -4.197262 5,450 338 167 -768
2020-09-06 14:38:22 GMT 55.324726 -4.195695 5,625 348 170 -896
2020-09-06 14:38:17 GMT 55.320957 -4.193032 5,575 341 167 -704
2020-09-06 14:38:14 GMT 55.319096 -4.192033 5,600 344 168 -768
2020-09-06 14:38:11 GMT 55.316849 -4.190961 5,650 353 170 -960
2020-09-06 14:38:07 GMT 55.313278 -4.190234 5,750 3 172 -832
2020-09-06 14:38:04 GMT 55.311230 -4.190535 5,775 9 172 -640
2020-09-06 14:38:00 GMT 55.307037 -4.192449 5,775 22 171 0
2020-09-06 14:37:55 GMT 55.304352 -4.194919 5,775 27 171 0
2020-09-06 14:37:51 GMT 55.299404 -4.201605 5,800 39 174 -128
2020-09-06 14:37:48 GMT 55.299404 -4.201605 5,800 40 174 -64
2020-09-06 14:37:45 GMT 55.297989 -4.203644 5,800 40 173 -64
2020-09-06 14:37:42 GMT 55.296204 -4.206310 5,800 40 173 64
2020-09-06 14:37:39 GMT 55.294556 -4.208733 5,800 39 174 64
2020-09-06 14:37:35 GMT 55.292049 -4.212341 5,800 39 175 64
2020-09-06 14:37:32 GMT 55.290512 -4.214672 5,775 39 177 64
2020-09-06 14:37:29 GMT 55.287907 -4.218417 5,775 40 178 0
2020-09-06 14:37:25 GMT 55.285625 -4.221913 5,775 40 178 -64
2020-09-06 14:37:21 GMT 55.283340 -4.225293 5,800 40 181 -64
2020-09-06 14:37:17 GMT 55.279991 -4.230152 5,800 39 183 -64
2020-09-06 14:37:14 GMT 55.278732 -4.231984 5,800 39 183 0
2020-09-06 14:37:11 GMT 55.276733 -4.234897 5,800 39 183 0
2020-09-06 14:37:05 GMT 55.273224 -4.239996 5,800 39 182 -128
2020-09-06 14:37:02 GMT 55.270798 -4.243469 5,825 39 183 -64
2020-09-06 14:36:56 GMT 55.263931 -4.253405 5,825 39 183 0
2020-09-06 14:36:51 GMT 55.263931 -4.253405 5,825 40 183 64
2020-09-06 14:36:46 GMT 55.260269 -4.259222 5,800 46 186 128
2020-09-06 14:36:42 GMT 55.257935 -4.263826 5,800 54 188 0
2020-09-06 14:36:34 GMT 55.255051 -4.273197 5,800 73 191 128
2020-09-06 14:36:31 GMT 55.254272 -4.278448 5,800 83 193 64
2020-09-06 14:36:24 GMT 55.254017 -4.288913 5,800 92 195 -128
2020-09-06 14:36:21 GMT 55.254318 -4.293473 5,800 101 196 -64
2020-09-06 14:36:17 GMT 55.255234 -4.301309 5,800 102 198 64
2020-09-06 14:36:13 GMT 55.255829 -4.305975 5,800 102 198 0
2020-09-06 14:36:10 GMT 55.256622 -4.312134 5,800 102 198 0
2020-09-06 14:36:04 GMT 55.257786 -4.321372 5,800 102 199 -64
2020-09-06 14:36:01 GMT 55.258347 -4.325544 5,800 102 199 -64
2020-09-06 14:35:58 GMT 55.259045 -4.330860 5,800 102 200 0
2020-09-06 14:35:54 GMT 55.259811 -4.336934 5,800 102 201 0
2020-09-06 14:35:51 GMT 55.260406 -4.341458 5,800 102 200 0
2020-09-06 14:35:44 GMT 55.261837 -4.352750 5,800 102 201 128
2020-09-06 14:35:41 GMT 55.262486 -4.357744 5,800 102 203 128
2020-09-06 14:35:34 GMT 55.263931 -4.368923 5,800 102 214 -64
2020-09-06 14:35:31 GMT 55.264675 -4.374556 5,800 102 212 -64
2020-09-06 14:35:23 GMT 55.266266 -4.387342 5,800 102 219 -64
2020-09-06 14:35:20 GMT 55.266769 -4.391285 5,800 102 219 64
2020-09-06 14:35:13 GMT 55.268463 -4.404629 5,800 102 219 -64
2020-09-06 14:35:08 GMT 55.269653 -4.413919 5,800 102 219 0
2020-09-06 14:35:03 GMT 55.270660 -4.421755 5,800 102 220 64
2020-09-06 14:35:00 GMT 55.271240 -4.426242 5,800 102 221 0
2020-09-06 14:34:53 GMT 55.272903 -4.439769 5,800 102 221 0
2020-09-06 14:34:50 GMT 55.273499 -4.444131 5,800 102 221 64
2020-09-06 14:34:46 GMT 55.274597 -4.452856 5,800 102 221 64
2020-09-06 14:34:43 GMT 55.275105 -4.456870 5,800 102 223 -192
2020-09-06 14:34:40 GMT 55.275661 -4.461282 5,800 102 222 0
2020-09-06 14:34:37 GMT 55.276451 -4.467357 5,800 102 223 -128
2020-09-06 14:34:34 GMT 55.277103 -4.472351 5,800 102 223 -128
2020-09-06 14:34:31 GMT 55.277985 -4.479352 5,800 102 223 -128
2020-09-06 14:34:27 GMT 55.278641 -4.484669 5,800 102 225 128
2020-09-06 14:34:23 GMT 55.279617 -4.492409 5,775 102 228 192
2020-09-06 14:34:20 GMT 55.280315 -4.498069 5,775 102 230 192
2020-09-06 14:34:17 GMT 55.281013 -4.503479 5,775 102 237 -192
2020-09-06 14:34:14 GMT 55.281601 -4.508353 5,800 102 240 -192
2020-09-06 14:34:10 GMT 55.282551 -4.516380 5,800 101 243 0
2020-09-06 14:34:05 GMT 55.283855 -4.527199 5,800 101 243 -64
2020-09-06 14:34:01 GMT 55.284622 -4.533718 5,800 101 243 -64
2020-09-06 14:33:58 GMT 55.285393 -4.539850 5,800 101 243 64
2020-09-06 14:33:54 GMT 55.286182 -4.546592 5,800 101 242 64
2020-09-06 14:33:51 GMT 55.287254 -4.555664 5,800 101 243 0
2020-09-06 14:33:48 GMT 55.287670 -4.559076 5,800 101 243 -64
2020-09-06 14:33:43 GMT 55.288742 -4.567982 5,800 102 243 -64
2020-09-06 14:33:40 GMT 55.289520 -4.574352 5,800 101 243 0
2020-09-06 14:33:34 GMT 55.290894 -4.585903 5,800 101 243 0
2020-09-06 14:33:30 GMT 55.291901 -4.594305 5,825 101 242 -128
2020-09-06 14:33:22 GMT 55.293686 -4.609249 5,875 101 240 -1024
2020-09-06 14:33:19 GMT 55.294189 -4.613426 5,900 101 240 -1216
2020-09-06 14:33:14 GMT 55.295517 -4.624436 6,025 101 241 -1344
2020-09-06 14:33:10 GMT 55.296387 -4.631949 6,125 101 243 -1280
2020-09-06 14:33:03 GMT 55.298035 -4.645440 6,275 101 245 -1216
2020-09-06 14:33:00 GMT 55.298706 -4.651295 6,300 101 245 -1216
2020-09-06 14:32:57 GMT 55.299496 -4.657704 6,400 101 247 -1216
2020-09-06 14:32:53 GMT 55.301147 -4.671451 6,525 102 248 -1344
2020-09-06 14:32:49 GMT 55.301147 -4.671451 6,550 102 248 -1344
2020-09-06 14:32:44 GMT 55.302567 -4.682922 6,700 101 249 -1664
2020-09-06 14:32:40 GMT 55.303593 -4.691578 6,825 101 250 -1728
2020-09-06 14:32:37 GMT 55.304199 -4.696572 6,925 101 250 -1792
2020-09-06 14:32:34 GMT 55.305038 -4.703683 7,000 101 251 -1856
2020-09-06 14:32:29 GMT 55.306046 -4.711842 7,075 102 251 -1984
2020-09-06 14:32:26 GMT 55.306805 -4.718212 7,275 102 251 -1984
2020-09-06 14:32:23 GMT 55.307556 -4.724202 7,350 102 251 -1984
2020-09-06 14:32:19 GMT 55.309410 -4.738686 7,600 102 253 -1728
2020-09-06 14:32:16 GMT 55.310108 -4.744096 7,600 102 253 -1728
2020-09-06 14:32:13 GMT 55.311089 -4.751504 7,725 102 254 -1536
2020-09-06 14:32:09 GMT 55.311089 -4.751504 7,750 102 254 -1472
2020-09-06 14:32:06 GMT 55.312134 -4.759584 7,825 102 257 -1344
2020-09-06 14:32:03 GMT 55.312683 -4.763866 7,875 102 258 -1280
2020-09-06 14:31:59 GMT 55.313740 -4.772061 7,950 102 261 -1216
2020-09-06 14:31:56 GMT 55.314697 -4.779295 8,050 102 264 -1216
2020-09-06 14:31:53 GMT 55.315464 -4.785295 8,075 102 265 -1280
2020-09-06 14:31:50 GMT 55.316025 -4.789958 8,125 102 267 -1344
2020-09-06 14:31:46 GMT 55.318069 -4.805936 8,250 102 270 -1408
2020-09-06 14:31:43 GMT 55.319229 -4.815405 8,400 102 272 -1408
2020-09-06 14:31:38 GMT 55.319229 -4.815405 8,400 102 274 -1344
2020-09-06 14:31:35 GMT 55.320145 -4.822594 8,475 102 278 -1216
2020-09-06 14:31:32 GMT 55.320911 -4.828741 8,525 102 279 -1088
2020-09-06 14:31:29 GMT 55.321888 -4.836564 8,600 102 283 -896
2020-09-06 14:31:26 GMT 55.322960 -4.845304 8,625 102 286 -896
2020-09-06 14:31:23 GMT 55.323704 -4.850963 8,675 102 287 -896
2020-09-06 14:31:18 GMT 55.324867 -4.860285 8,750 102 289 -960
2020-09-06 14:31:15 GMT 55.325893 -4.868358 8,800 102 291 -1024
2020-09-06 14:31:12 GMT 55.326645 -4.874375 8,850 102 293 -1024
2020-09-06 14:31:09 GMT 55.327789 -4.883423 8,900 102 296 -896
2020-09-06 14:31:03 GMT 55.329849 -4.899822 9,025 102 297 -960
2020-09-06 14:30:58 GMT 55.330811 -4.907657 9,050 102 298 -1088
2020-09-06 14:30:55 GMT 55.331898 -4.916132 9,175 102 300 -1152
2020-09-06 14:30:52 GMT 55.332642 -4.922117 9,200 102 300 -1152
2020-09-06 14:30:48 GMT 55.333878 -4.931892 9,275 102 301 -1088
2020-09-06 14:30:45 GMT 55.335754 -4.946190 9,325 102 302 -1088
2020-09-06 14:30:42 GMT 55.337036 -4.956288 9,425 102 304 -1152
2020-09-06 14:30:38 GMT 55.337036 -4.956288 9,450 102 304 -1216
2020-09-06 14:30:34 GMT 55.338181 -4.964905 9,525 102 304 -1216
2020-09-06 14:30:30 GMT 55.339554 -4.975514 9,625 102 305 -1344
2020-09-06 14:30:27 GMT 55.340416 -4.982050 9,700 102 305 -1344
2020-09-06 14:30:23 GMT 55.341858 -4.993203 9,800 102 305 -1408
2020-09-06 14:30:20 GMT 55.342667 -4.999183 9,900 103 305 -1408
2020-09-06 14:30:17 GMT 55.344513 -5.013428 10,150 103 304 -1728
2020-09-06 14:30:14 GMT 55.344513 -5.013428 10,000 103 306 -1472
2020-09-06 14:30:10 GMT 55.346001 -5.024497 10,125 103 304 -1728
2020-09-06 14:30:07 GMT 55.347015 -5.031738 10,200 103 304 -1792
2020-09-06 14:30:04 GMT 55.347816 -5.037731 10,300 103 303 -1792
2020-09-06 14:30:00 GMT 55.349258 -5.048056 10,400 103 303 -1728
2020-09-06 14:29:57 GMT 55.350330 -5.055708 10,500 103 303 -1664
2020-09-06 14:29:54 GMT 55.351227 -5.061870 10,575 103 303 -1600
2020-09-06 14:29:50 GMT 55.352646 -5.072129 10,650 103 326 -768
2020-09-06 14:29:47 GMT 55.353607 -5.079076 10,750 103 304 -1536
2020-09-06 14:29:44 GMT 55.355919 -5.095659 10,900 103 305 -1664
2020-09-06 14:29:40 GMT 55.355919 -5.095659 10,950 103 305 -1600
2020-09-06 14:29:37 GMT 55.356903 -5.102907 11,000 103 306 -1600
2020-09-06 14:29:33 GMT 55.358059 -5.111139 11,125 103 308 -1536
2020-09-06 14:29:30 GMT 55.359455 -5.121127 11,225 104 309 -1472
2020-09-06 14:29:27 GMT 55.360336 -5.127142 11,650 103 314 -1216
2020-09-06 14:29:24 GMT 55.361252 -5.133766 11,350 103 311 -1344
2020-09-06 14:29:21 GMT 55.362713 -5.144015 11,425 103 311 -1344
2020-09-06 14:29:17 GMT 55.363785 -5.151672 11,450 103 312 -1344
2020-09-06 14:29:14 GMT 55.364761 -5.158830 11,550 103 314 -1216
2020-09-06 14:29:11 GMT 55.366066 -5.168568 11,650 103 317 -1024
2020-09-06 14:29:07 GMT 55.367138 -5.176308 11,650 103 318 -1024
2020-09-06 14:29:03 GMT 55.368393 -5.185713 11,725 103 323 -832
2020-09-06 14:29:00 GMT 55.369602 -5.194619 11,775 103 324 -832
2020-09-06 14:28:57 GMT 55.370636 -5.202349 11,825 103 327 -768
2020-09-06 14:28:53 GMT 55.371872 -5.211397 11,875 103 331 -832
2020-09-06 14:28:50 GMT 55.372833 -5.218748 11,900 103 333 -832
2020-09-06 14:28:47 GMT 55.374207 -5.228846 11,925 103 335 -832
2020-09-06 14:28:42 GMT 55.375610 -5.239480 12,025 103 340 -896
2020-09-06 14:28:39 GMT 55.377937 -5.256792 12,125 103 346 -960
2020-09-06 14:28:33 GMT 55.378922 -5.264228 12,175 103 349 -960
2020-09-06 14:28:30 GMT 55.380264 -5.274103 12,225 103 352 -960
2020-09-06 14:28:27 GMT 55.381439 -5.283051 12,275 103 354 -1024
2020-09-06 14:28:24 GMT 55.382545 -5.291415 12,325 103 357 -1088
2020-09-06 14:28:20 GMT 55.383942 -5.301819 12,375 103 358 -1024
2020-09-06 14:28:17 GMT 55.384964 -5.309224 12,425 103 360 -1024
2020-09-06 14:28:14 GMT 55.386383 -5.319806 12,500 103 364 -1088
2020-09-06 14:28:10 GMT 55.387852 -5.330700 12,550 103 366 -1024
2020-09-06 14:28:07 GMT 55.390926 -5.354087 12,675 103 372 -896
2020-09-06 14:28:02 GMT 55.390926 -5.354087 12,675 102 373 -896
2020-09-06 14:27:59 GMT 55.392014 -5.362378 12,725 102 375 -960
2020-09-06 14:27:56 GMT 55.393021 -5.370150 12,750 103 377 -960
2020-09-06 14:27:52 GMT 55.394791 -5.383634 12,850 103 381 -960
2020-09-06 14:27:49 GMT 55.395813 -5.391208 12,875 103 383 -960
2020-09-06 14:27:46 GMT 55.397209 -5.401861 12,950 103 387 -1024
2020-09-06 14:27:43 GMT 55.398285 -5.409797 13,025 103 390 -1216
2020-09-06 14:27:40 GMT 55.399910 -5.422086 13,075 103 392 -1280
2020-09-06 14:27:37 GMT 55.401031 -5.430477 13,150 103 394 -1408
2020-09-06 14:27:31 GMT 55.403122 -5.446389 13,275 102 396 -1664
2020-09-06 14:27:28 GMT 55.404877 -5.459640 13,400 103 398 -2048
2020-09-06 14:27:25 GMT 55.405773 -5.466531 13,575 103 398 -2176
2020-09-06 14:27:22 GMT 55.408474 -5.486422 13,675 103 401 -2304
2020-09-06 14:27:15 GMT 55.410095 -5.497849 13,800 103 402 -2048
2020-09-06 14:27:12 GMT 55.411377 -5.507059 13,950 103 403 -1920
2020-09-06 14:27:09 GMT 55.412849 -5.517883 14,075 102 410 -2112
2020-09-06 14:27:06 GMT 55.414108 -5.527205 14,100 103 406 -1728
2020-09-06 14:27:03 GMT 55.416992 -5.549094 14,300 102 408 -1920
2020-09-06 14:26:59 GMT 55.416992 -5.549094 15,075 102 409 -2048
2020-09-06 14:26:56 GMT 55.418392 -5.560497 14,450 102 410 -2112
2020-09-06 14:26:53 GMT 55.419693 -5.570318 14,575 103 413 -2240
2020-09-06 14:26:49 GMT 55.421417 -5.582719 14,775 105 416 -2304
2020-09-06 14:26:46 GMT 55.423645 -5.596403 14,900 107 419 -2304
2020-09-06 14:26:40 GMT 55.427078 -5.614821 15,125 109 421 -2432
2020-09-06 14:26:37 GMT 55.428631 -5.622586 15,175 110 422 -2496
2020-09-06 14:26:34 GMT 55.430679 -5.631908 15,250 110 423 -2496
2020-09-06 14:26:30 GMT 55.434174 -5.646892 15,525 113 425 -2496
2020-09-06 14:26:27 GMT 55.436279 -5.655132 15,600 114 426 -2496
2020-09-06 14:26:24 GMT 55.438705 -5.664260 15,675 115 427 -2432
2020-09-06 14:26:21 GMT 55.441200 -5.672940 15,875 117 429 -2496
2020-09-06 14:26:18 GMT 55.444382 -5.683427 16,075 120 431 -2560
2020-09-06 14:26:15 GMT 55.446762 -5.690668 16,125 120 431 -2624
2020-09-06 14:26:11 GMT 55.453632 -5.710058 16,400 123 433 -2560
2020-09-06 14:26:05 GMT 55.457821 -5.720873 16,550 124 434 -2432
2020-09-06 14:26:02 GMT 55.461124 -5.729284 16,700 124 435 -2176
2020-09-06 14:25:59 GMT 55.464523 -5.738026 16,775 124 435 -2048
2020-09-06 14:25:55 GMT 55.468781 -5.748846 16,875 124 437 -1600
2020-09-06 14:25:52 GMT 55.472305 -5.757918 17,075 124 442 -1088
2020-09-06 14:25:48 GMT 55.477982 -5.772317 17,075 124 442 -1088
2020-09-06 14:25:45 GMT 55.483891 -5.787477 17,150 124 445 -1152
2020-09-06 14:25:42 GMT 55.488453 -5.799150 17,225 124 447 -1280
2020-09-06 14:25:38 GMT 55.488453 -5.799150 17,225 124 447 -1280
2020-09-06 14:25:35 GMT 55.492550 -5.809622 17,300 124 449 -1472
2020-09-06 14:25:32 GMT 55.495762 -5.817690 17,375 124 449 -1600
2020-09-06 14:25:28 GMT 55.500504 -5.829745 17,700 124 452 -1792
2020-09-06 14:25:25 GMT 55.504395 -5.839733 17,600 124 452 -1728
2020-09-06 14:25:22 GMT 55.507492 -5.847645 17,675 124 452 -1792
2020-09-06 14:25:18 GMT 55.512222 -5.859791 17,800 124 453 -1792
2020-09-06 14:25:15 GMT 55.516289 -5.870132 17,825 124 454 -1792
2020-09-06 14:25:12 GMT 55.519363 -5.878018 17,975 124 454 -1728
2020-09-06 14:25:08 GMT 55.527882 -5.899658 18,125 124 455 -1792
2020-09-06 14:25:05 GMT 55.527882 -5.899658 18,200 124 457 -1792
2020-09-06 14:25:02 GMT 55.531677 -5.909479 18,275 124 457 -1856
2020-09-06 14:24:58 GMT 55.540100 -5.930953 18,475 124 457 -1792
2020-09-06 14:24:52 GMT 55.543941 -5.940771 18,625 124 458 -1856
2020-09-06 14:24:48 GMT 55.548134 -5.951500 18,725 124 459 -1856
2020-09-06 14:24:45 GMT 55.552917 -5.963828 18,775 124 459 -1920
2020-09-06 14:24:42 GMT 55.555435 -5.970320 18,875 124 459 -1920
2020-09-06 14:24:38 GMT 55.564316 -5.993208 19,075 124 461 -1792
2020-09-06 14:24:35 GMT 55.564316 -5.993208 19,125 124 461 -1728
2020-09-06 14:24:32 GMT 55.567886 -6.002530 19,375 124 464 -1792
2020-09-06 14:24:27 GMT 55.574661 -6.020008 19,375 124 464 -1792
2020-09-06 14:24:24 GMT 55.577087 -6.026251 19,425 124 465 -1792
2020-09-06 14:24:20 GMT 55.583046 -6.041536 19,575 124 467 -1856
2020-09-06 14:24:17 GMT 55.589516 -6.058187 19,700 124 467 -1920
2020-09-06 14:24:14 GMT 55.589516 -6.058187 19,750 124 469 -1920
2020-09-06 14:24:11 GMT 55.593521 -6.068659 19,850 124 469 -1920
2020-09-06 14:24:08 GMT 55.597103 -6.077757 19,950 124 470 -1920
2020-09-06 14:24:05 GMT 55.604462 -6.096811 20,075 124 471 -1792
2020-09-06 14:23:59 GMT 55.608231 -6.106682 20,175 124 472 -1792
2020-09-06 14:23:56 GMT 55.611816 -6.115952 20,300 124 474 -1792
2020-09-06 14:23:50 GMT 55.618515 -6.133118 20,450 124 474 -1792
2020-09-06 14:23:47 GMT 55.622086 -6.142439 20,550 124 475 -1856
2020-09-06 14:23:44 GMT 55.626526 -6.153975 20,725 124 475 -1856
2020-09-06 14:23:40 GMT 55.635139 -6.176462 20,800 124 477 -1856
2020-09-06 14:23:37 GMT 55.635139 -6.176462 20,875 124 477 -1856
2020-09-06 14:23:34 GMT 55.638611 -6.185552 20,950 124 477 -1856
2020-09-06 14:23:30 GMT 55.643463 -6.198120 21,125 124 479 -1792
2020-09-06 14:23:27 GMT 55.651337 -6.218433 21,250 124 480 -1856
2020-09-06 14:23:24 GMT 55.651337 -6.218433 21,350 124 480 -1856
2020-09-06 14:23:21 GMT 55.654831 -6.227531 21,425 124 480 -1856
2020-09-06 14:23:17 GMT 55.660042 -6.241179 21,500 124 481 -1856
2020-09-06 14:23:14 GMT 55.662918 -6.248724 21,575 124 482 -1920
2020-09-06 14:23:11 GMT 55.667168 -6.259804 22,475 124 494 -1920
2020-09-06 14:23:07 GMT 55.671776 -6.271906 21,850 124 485 -1920
2020-09-06 14:23:04 GMT 55.676331 -6.283680 21,900 124 485 -1920
2020-09-06 14:23:01 GMT 55.679596 -6.292248 22,050 124 485 -1920
2020-09-06 14:22:57 GMT 55.685322 -6.307011 22,075 124 487 -1856
2020-09-06 14:22:54 GMT 55.688873 -6.316223 22,200 124 488 -1792
2020-09-06 14:22:51 GMT 55.692398 -6.325464 22,350 124 489 -1856
2020-09-06 14:22:47 GMT 55.697613 -6.339025 22,450 124 490 -1920
2020-09-06 14:22:44 GMT 55.705627 -6.359919 22,825 124 494 -1920
2020-09-06 14:22:37 GMT 55.711670 -6.375649 22,800 124 494 -1920
2020-09-06 14:22:34 GMT 55.714973 -6.384344 22,825 124 494 -1920
2020-09-06 14:22:30 GMT 55.719360 -6.395708 22,975 124 495 -1856
2020-09-06 14:22:26 GMT 55.724396 -6.408775 23,125 124 498 -1856
2020-09-06 14:22:23 GMT 55.728802 -6.420221 23,200 124 499 -1920
2020-09-06 14:22:20 GMT 55.731766 -6.428001 23,275 124 500 -1856
2020-09-06 14:22:16 GMT 55.741882 -6.454468 23,450 124 502 -1920
2020-09-06 14:22:13 GMT 55.741882 -6.454468 23,500 124 503 -1920
2020-09-06 14:22:10 GMT 55.745819 -6.464705 23,775 124 506 -1920
2020-09-06 14:22:07 GMT 55.749561 -6.474552 23,725 124 504 -1920
2020-09-06 14:22:04 GMT 55.753521 -6.484852 23,750 124 506 -1920
2020-09-06 14:22:01 GMT 55.757950 -6.496499 23,975 124 507 -1984
2020-09-06 14:21:58 GMT 55.761108 -6.504822 24,000 124 507 -1984
2020-09-06 14:21:55 GMT 55.766098 -6.517889 24,125 124 508 -1920
2020-09-06 14:21:52 GMT 55.768478 -6.524048 24,175 124 509 -1920
2020-09-06 14:21:48 GMT 55.774002 -6.538582 24,300 123 510 -1856
2020-09-06 14:21:45 GMT 55.782383 -6.560726 24,450 123 510 -1920
2020-09-06 14:21:42 GMT 55.786606 -6.571822 24,600 124 511 -1920
2020-09-06 14:21:35 GMT 55.792557 -6.587469 24,700 124 511 -1920
2020-09-06 14:21:32 GMT 55.795074 -6.594044 24,775 124 511 -1920
2020-09-06 14:21:26 GMT 55.803497 -6.616266 25,025 123 512 -1984
2020-09-06 14:21:22 GMT 55.808395 -6.629167 25,150 123 513 -1984
2020-09-06 14:21:15 GMT 55.817596 -6.653637 25,425 123 513 -1920
2020-09-06 14:21:12 GMT 55.821945 -6.665206 25,475 123 513 -1920
2020-09-06 14:21:07 GMT 55.827896 -6.680936 25,625 123 514 -1920
2020-09-06 14:21:04 GMT 55.833572 -6.696084 25,775 123 515 -1920
2020-09-06 14:21:01 GMT 55.843739 -6.723118 25,925 123 515 -1920
2020-09-06 14:20:55 GMT 55.843739 -6.723118 26,025 123 516 -1920
2020-09-06 14:20:52 GMT 55.848114 -6.734791 26,100 123 516 -1984
2020-09-06 14:20:49 GMT 55.852352 -6.746035 26,425 123 518 -1920
2020-09-06 14:20:45 GMT 55.856865 -6.758051 26,425 123 518 -1920
2020-09-06 14:20:42 GMT 55.862045 -6.771823 26,475 123 518 -1920
2020-09-06 14:20:34 GMT 55.875580 -6.807919 26,775 123 519 -1984
2020-09-06 14:20:31 GMT 55.875580 -6.807919 26,800 123 519 -1984
2020-09-06 14:20:27 GMT 55.881073 -6.822510 26,950 123 520 -2048
2020-09-06 14:20:24 GMT 55.885170 -6.833496 27,050 123 520 -2048
2020-09-06 14:20:21 GMT 55.889313 -6.844482 27,150 123 520 -2048
2020-09-06 14:20:16 GMT 55.895737 -6.861628 27,375 123 522 -1920
2020-09-06 14:20:13 GMT 55.900394 -6.874094 27,425 123 522 -1920
2020-09-06 14:20:10 GMT 55.902924 -6.880854 27,475 123 524 -1920
2020-09-06 14:20:07 GMT 55.907639 -6.893422 27,575 123 524 -1856
2020-09-06 14:20:04 GMT 55.911659 -6.904135 27,675 123 525 -1920
2020-09-06 14:20:01 GMT 55.920135 -6.926797 27,800 123 526 -1920
2020-09-06 14:19:58 GMT 55.920135 -6.926797 27,875 123 527 -1984
2020-09-06 14:19:55 GMT 55.923935 -6.936951 27,950 123 527 -1984
2020-09-06 14:19:52 GMT 55.931488 -6.957176 28,150 123 529 -1984
2020-09-06 14:19:46 GMT 55.940289 -6.980782 28,350 123 532 -1920
2020-09-06 14:19:43 GMT 55.940289 -6.980782 28,425 123 532 -1920
2020-09-06 14:19:40 GMT 55.944626 -6.992465 28,450 123 533 -1920
2020-09-06 14:19:37 GMT 55.948154 -7.001982 28,725 123 536 -1920
2020-09-06 14:19:33 GMT 55.954861 -7.019920 28,900 123 538 -1920
2020-09-06 14:19:30 GMT 55.962120 -7.039404 28,875 123 538 -1920
2020-09-06 14:19:27 GMT 55.962120 -7.039404 28,975 123 538 -1920
2020-09-06 14:19:24 GMT 55.966278 -7.050476 29,000 123 539 -1920
2020-09-06 14:19:21 GMT 55.971771 -7.065208 29,125 123 540 -1920
2020-09-06 14:19:17 GMT 55.976074 -7.076693 29,225 123 541 -1920
2020-09-06 14:19:14 GMT 55.979645 -7.086348 29,300 123 542 -1920
2020-09-06 14:19:11 GMT 55.984497 -7.099415 29,425 123 543 -1984
2020-09-06 14:19:08 GMT 55.988754 -7.110901 29,500 123 543 -1984
2020-09-06 14:19:05 GMT 55.992939 -7.122145 29,550 123 544 -1984
2020-09-06 14:19:02 GMT 55.997223 -7.133732 29,700 123 546 -1984
2020-09-06 14:18:59 GMT 56.000015 -7.141199 29,775 123 546 -2048
2020-09-06 14:18:56 GMT 56.004902 -7.154417 29,875 123 547 -2048
2020-09-06 14:18:53 GMT 56.008392 -7.163858 29,975 123 549 -2048
2020-09-06 14:18:50 GMT 56.013702 -7.178151 30,125 123 551 -2048
2020-09-06 14:18:47 GMT 56.017776 -7.189137 30,200 123 552 -1984
2020-09-06 14:18:44 GMT 56.022125 -7.200872 30,300 123 553 -1984
2020-09-06 14:18:41 GMT 56.026920 -7.213812 30,400 123 555 -1920
2020-09-06 14:18:37 GMT 56.031857 -7.227201 30,550 123 557 -1984
2020-09-06 14:18:34 GMT 56.036278 -7.239046 30,625 123 558 -1984
2020-09-06 14:18:31 GMT 56.040527 -7.250560 30,725 123 559 -1984
2020-09-06 14:18:28 GMT 56.044800 -7.262135 30,825 123 560 -1984
2020-09-06 14:18:24 GMT 56.051651 -7.280606 30,900 123 561 -1984
2020-09-06 14:18:21 GMT 56.054398 -7.288014 31,050 123 563 -1792
2020-09-06 14:18:18 GMT 56.065887 -7.319059 31,175 123 564 -1856
2020-09-06 14:18:14 GMT 56.065887 -7.319059 31,275 123 565 -2048
2020-09-06 14:18:11 GMT 56.068726 -7.326851 31,350 123 566 -2176
2020-09-06 14:18:08 GMT 56.073074 -7.338534 31,475 123 567 -2432
2020-09-06 14:18:05 GMT 56.077240 -7.349854 31,550 123 567 -2560
2020-09-06 14:18:02 GMT 56.082870 -7.365085 31,775 123 567 -2816
2020-09-06 14:17:58 GMT 56.087906 -7.378817 31,950 123 567 -2816
2020-09-06 14:17:55 GMT 56.091522 -7.388555 32,100 123 568 -2752
2020-09-06 14:17:52 GMT 56.097107 -7.403870 32,225 123 568 -2752
2020-09-06 14:17:49 GMT 56.100723 -7.413608 32,325 123 568 -2752
2020-09-06 14:17:46 GMT 56.104752 -7.424594 32,425 123 568 -2752
2020-09-06 14:17:43 GMT 56.112808 -7.446566 32,700 123 568 -2816
2020-09-06 14:17:37 GMT 56.117977 -7.460661 32,875 123 568 -2816
2020-09-06 14:17:33 GMT 56.128418 -7.489347 33,125 123 568 -2688
2020-09-06 14:17:30 GMT 56.128418 -7.489347 33,250 123 568 -2624
2020-09-06 14:17:27 GMT 56.133179 -7.502330 33,400 123 568 -2688
2020-09-06 14:17:24 GMT 56.136749 -7.512152 33,500 123 567 -2688
2020-09-06 14:17:21 GMT 56.141068 -7.523918 33,550 123 567 -2752
2020-09-06 14:17:17 GMT 56.146049 -7.537651 33,725 123 566 -2816
2020-09-06 14:17:14 GMT 56.151077 -7.551384 34,025 123 566 -2752
2020-09-06 14:17:10 GMT 56.157806 -7.569747 34,200 123 565 -2752
2020-09-06 14:17:07 GMT 56.164902 -7.589321 34,350 123 565 -2752
2020-09-06 14:17:01 GMT 56.168884 -7.600292 34,475 123 565 -2752
2020-09-06 14:16:56 GMT 56.176586 -7.621422 34,700 123 565 -2752
2020-09-06 14:16:53 GMT 56.180283 -7.631669 34,900 122 564 -2752
2020-09-06 14:16:50 GMT 56.184269 -7.642622 35,000 122 564 -2752
2020-09-06 14:16:47 GMT 56.188923 -7.655582 35,175 122 564 -2816
2020-09-06 14:16:44 GMT 56.193859 -7.669315 35,450 122 564 -2880
2020-09-06 14:16:41 GMT 56.198235 -7.681417 35,500 122 564 -2880
2020-09-06 14:16:37 GMT 56.202656 -7.693605 36,875 122 563 -2816
2020-09-06 14:16:34 GMT 56.208572 -7.710072 36,100 122 563 -2688
2020-09-06 14:16:27 GMT 56.216675 -7.732377 36,100 122 563 -2496
2020-09-06 14:16:23 GMT 56.223743 -7.751970 36,200 122 563 -2368
2020-09-06 14:16:20 GMT 56.226562 -7.759760 36,300 122 563 -2240
2020-09-06 14:16:17 GMT 56.235195 -7.783642 36,600 122 563 -1792
2020-09-06 14:16:14 GMT 56.240021 -7.796964 36,600 122 563 -1792
2020-09-06 14:16:11 GMT 56.240021 -7.796964 36,675 122 563 -1536
2020-09-06 14:16:08 GMT 56.243683 -7.807201 36,750 122 564 -1408
2020-09-06 14:16:05 GMT 56.249767 -7.824068 36,800 122 564 -1216
2020-09-06 14:16:01 GMT 56.254578 -7.837413 36,875 122 564 -1024
2020-09-06 14:15:57 GMT 56.259521 -7.851146 36,925 122 564 -768
2020-09-06 14:15:53 GMT 56.265736 -7.868443 36,975 122 564 -448
2020-09-06 14:15:50 GMT 56.269409 -7.878612 37,000 122 564 -192
2020-09-06 14:15:47 GMT 56.274353 -7.892345 37,000 122 563 -64
2020-09-06 14:15:43 GMT 56.280441 -7.909241 37,000 122 564 -64
2020-09-06 14:15:40 GMT 56.287766 -7.929632 37,000 122 564 0
2020-09-06 14:15:37 GMT 56.287766 -7.929632 37,000 122 564 0
2020-09-06 14:15:34 GMT 56.293259 -7.944946 37,000 122 564 0
2020-09-06 14:15:30 GMT 56.303146 -7.972495 37,000 122 564 0
2020-09-06 14:15:26 GMT 56.308777 -7.988226 37,000 122 564 0
2020-09-06 14:15:23 GMT 56.308777 -7.988226 37,000 122 564 0
2020-09-06 14:15:20 GMT 56.311569 -7.996049 37,000 122 564 0
2020-09-06 14:15:17 GMT 56.317223 -8.011780 37,000 122 565 64
2020-09-06 14:15:14 GMT 56.319920 -8.019333 37,000 122 565 0
2020-09-06 14:15:10 GMT 56.330750 -8.049649 37,000 122 565 0
2020-09-06 14:15:07 GMT 56.330750 -8.049649 37,000 122 565 0
2020-09-06 14:15:03 GMT 56.337387 -8.068126 37,000 122 564 0
2020-09-06 14:14:59 GMT 56.341461 -8.079612 37,000 122 564 0
2020-09-06 14:14:56 GMT 56.346222 -8.092976 37,000 122 564 0
2020-09-06 14:14:52 GMT 56.351437 -8.107567 37,000 122 564 0
2020-09-06 14:14:49 GMT 56.355652 -8.119396 37,000 122 564 0
2020-09-06 14:14:46 GMT 56.360142 -8.132029 37,000 122 564 0
2020-09-06 14:14:42 GMT 56.365913 -8.148251 37,000 122 564 0
2020-09-06 14:14:38 GMT 56.370392 -8.160844 37,000 122 563 64
2020-09-06 14:14:35 GMT 56.374619 -8.172712 37,000 122 563 0
2020-09-06 14:14:32 GMT 56.381058 -8.190890 37,000 122 563 64
2020-09-06 14:14:28 GMT 56.385979 -8.204727 37,000 122 563 0
2020-09-06 14:14:25 GMT 56.389755 -8.215360 37,000 122 563 0
2020-09-06 14:14:22 GMT 56.398037 -8.238716 37,000 122 563 -64
2020-09-06 14:14:16 GMT 56.402924 -8.252535 37,000 122 563 0
2020-09-06 14:14:12 GMT 56.407578 -8.265581 37,000 122 563 64
2020-09-06 14:14:09 GMT 56.417496 -8.293596 37,000 122 563 0
2020-09-06 14:14:05 GMT 56.417496 -8.293596 37,000 122 564 0
2020-09-06 14:14:01 GMT 56.429947 -8.328802 37,000 122 563 0
2020-09-06 14:13:56 GMT 56.429947 -8.328802 37,000 122 563 0
2020-09-06 14:13:53 GMT 56.433975 -8.340340 37,000 122 563 0
2020-09-06 14:13:50 GMT 56.443050 -8.366003 37,000 122 563 64
2020-09-06 14:13:47 GMT 56.443050 -8.366003 37,000 122 563 0
2020-09-06 14:13:44 GMT 56.446964 -8.377075 37,000 122 563 0
2020-09-06 14:13:39 GMT 56.457458 -8.406788 37,000 122 563 0
2020-09-06 14:13:36 GMT 56.457458 -8.406788 37,000 122 562 0
2020-09-06 14:13:33 GMT 56.461487 -8.418274 37,000 122 562 -64
2020-09-06 14:13:30 GMT 56.467632 -8.435698 37,000 122 563 0
2020-09-06 14:13:26 GMT 56.471123 -8.445568 37,000 122 563 -64
2020-09-06 14:13:22 GMT 56.476524 -8.461018 37,000 122 563 -64
2020-09-06 14:13:19 GMT 56.481537 -8.475286 37,000 122 563 -64
2020-09-06 14:13:15 GMT 56.488495 -8.495178 37,000 122 563 0
2020-09-06 14:13:12 GMT 56.492397 -8.506250 37,000 122 563 0
2020-09-06 14:13:09 GMT 56.496002 -8.516568 37,000 122 563 0
2020-09-06 14:13:06 GMT 56.499332 -8.526077 37,000 122 563 0
2020-09-06 14:13:03 GMT 56.503242 -8.537235 37,000 122 563 0
2020-09-06 14:12:59 GMT 56.510056 -8.556685 37,000 122 564 0
2020-09-06 14:12:55 GMT 56.514183 -8.568563 37,000 122 564 0
2020-09-06 14:12:51 GMT 56.524471 -8.598003 37,000 122 564 0
2020-09-06 14:12:48 GMT 56.524471 -8.598003 37,000 122 564 0
2020-09-06 14:12:42 GMT 56.532524 -8.621092 37,000 122 563 0
2020-09-06 14:12:39 GMT 56.537521 -8.635420 37,000 122 564 0
2020-09-06 14:12:36 GMT 56.541275 -8.646157 37,000 122 564 0
2020-09-06 14:12:33 GMT 56.545578 -8.658558 37,000 122 564 0
2020-09-06 14:12:30 GMT 56.549469 -8.669711 37,000 122 564 0
2020-09-06 14:12:26 GMT 56.555283 -8.686440 37,000 122 564 0
2020-09-06 14:12:22 GMT 56.560959 -8.702753 37,000 122 563 0
2020-09-06 14:12:16 GMT 56.569256 -8.726664 37,000 122 564 0
2020-09-06 14:12:12 GMT 56.573677 -8.739452 37,000 122 563 0
2020-09-06 14:12:09 GMT 56.578400 -8.753024 37,000 122 563 0
2020-09-06 14:12:05 GMT 56.583641 -8.768120 37,000 122 563 0
2020-09-06 14:12:00 GMT 56.591125 -8.789728 37,000 122 564 0
2020-09-06 14:11:56 GMT 56.596802 -8.806057 37,000 122 564 0
2020-09-06 14:11:53 GMT 56.601238 -8.818832 37,000 122 563 0
2020-09-06 14:11:50 GMT 56.605637 -8.831635 37,000 122 563 0
2020-09-06 14:11:47 GMT 56.614883 -8.858414 37,000 122 563 0
2020-09-06 14:11:43 GMT 56.614883 -8.858414 37,000 122 563 0
2020-09-06 14:11:39 GMT 56.620556 -8.874827 37,000 121 563 0
2020-09-06 14:11:34 GMT 56.627563 -8.895149 37,000 122 563 0
2020-09-06 14:11:31 GMT 56.633080 -8.911153 37,000 122 563 0
2020-09-06 14:11:25 GMT 56.639145 -8.928795 37,000 121 563 0
2020-09-06 14:11:22 GMT 56.642715 -8.939150 37,000 121 563 0
2020-09-06 14:11:19 GMT 56.648067 -8.954743 37,000 121 563 0
2020-09-06 14:11:14 GMT 56.654537 -8.973615 37,000 121 563 0
2020-09-06 14:11:11 GMT 56.665386 -9.005245 37,000 121 563 -64
2020-09-06 14:11:07 GMT 56.665386 -9.005245 37,000 121 563 -64
2020-09-06 14:11:03 GMT 56.669949 -9.018446 37,000 121 563 0
2020-09-06 14:11:00 GMT 56.674301 -9.031277 37,000 121 563 0
2020-09-06 14:10:55 GMT 56.682129 -9.054108 37,000 121 563 -64
2020-09-06 14:10:52 GMT 56.685013 -9.062519 37,000 121 563 -64
2020-09-06 14:10:49 GMT 56.690247 -9.077719 37,025 121 563 -64
2020-09-06 14:10:46 GMT 56.692978 -9.085779 37,000 121 563 0
2020-09-06 14:10:42 GMT 56.698715 -9.102616 37,000 121 562 0
2020-09-06 14:10:38 GMT 56.704208 -9.118652 37,000 121 563 64
2020-09-06 14:10:33 GMT 56.710121 -9.135929 37,000 121 562 64
2020-09-06 14:10:30 GMT 56.715199 -9.150725 37,000 121 563 0
2020-09-06 14:10:24 GMT 56.730091 -9.194493 37,000 121 563 64
2020-09-06 14:10:19 GMT 56.730091 -9.194493 37,000 121 563 64
2020-09-06 14:10:15 GMT 56.734772 -9.208174 37,000 121 563 0
2020-09-06 14:10:11 GMT 56.740494 -9.225082 37,000 121 563 0
2020-09-06 14:10:06 GMT 56.747726 -9.246368 37,000 121 563 -64
2020-09-06 14:10:01 GMT 56.753742 -9.264044 37,000 121 563 0
2020-09-06 14:09:55 GMT 56.762924 -9.291086 37,000 121 563 0
2020-09-06 14:09:51 GMT 56.767845 -9.305509 37,000 121 563 0
2020-09-06 14:09:45 GMT 56.777390 -9.333772 37,000 121 563 0
2020-09-06 14:09:41 GMT 56.781628 -9.346264 37,000 121 563 0
2020-09-06 14:09:35 GMT 56.795013 -9.385757 37,000 121 563 0
2020-09-06 14:09:31 GMT 56.795013 -9.385757 37,000 121 563 0
2020-09-06 14:09:28 GMT 56.800644 -9.402237 37,000 121 563 0
2020-09-06 14:09:24 GMT 56.804855 -9.414768 37,000 121 563 0
2020-09-06 14:09:21 GMT 56.808792 -9.426527 37,000 121 563 0
2020-09-06 14:09:15 GMT 56.817673 -9.452791 37,000 121 564 0
2020-09-06 14:09:11 GMT 56.822433 -9.466867 37,000 121 564 0
2020-09-06 14:09:07 GMT 56.828037 -9.483505 37,000 121 564 0
2020-09-06 14:09:00 GMT 56.837723 -9.512186 37,000 121 564 0
2020-09-06 14:08:57 GMT 56.841934 -9.524717 37,000 121 564 0
2020-09-06 14:08:50 GMT 56.851177 -9.552258 37,000 121 564 0
2020-09-06 14:08:47 GMT 56.859650 -9.577332 37,000 121 564 0
2020-09-06 14:08:40 GMT 56.865189 -9.593988 37,000 121 564 0
2020-09-06 14:08:37 GMT 56.869144 -9.605772 37,000 121 565 0
2020-09-06 14:08:34 GMT 56.873520 -9.618702 37,000 121 565 0
2020-09-06 14:08:31 GMT 56.877617 -9.630934 37,000 121 565 0
2020-09-06 14:08:27 GMT 56.883316 -9.647970 37,000 121 565 0
2020-09-06 14:08:20 GMT 56.892700 -9.676031 37,000 121 565 -64
2020-09-06 14:08:15 GMT 56.898834 -9.694319 37,000 121 565 0
2020-09-06 14:08:10 GMT 56.905361 -9.713863 37,000 121 565 -64
2020-09-06 14:08:06 GMT 56.915649 -9.744873 37,000 121 566 64
2020-09-06 14:08:00 GMT 56.919205 -9.755430 37,000 121 566 64
2020-09-06 14:07:57 GMT 56.923798 -9.769326 37,000 121 565 0
2020-09-06 14:07:54 GMT 56.927708 -9.781110 37,000 121 565 0
2020-09-06 14:07:50 GMT 56.932297 -9.794998 37,000 121 565 0
2020-09-06 14:07:44 GMT 56.940948 -9.821091 37,000 121 565 0
2020-09-06 14:07:40 GMT 56.946762 -9.838686 37,000 121 565 0
2020-09-06 14:07:36 GMT 56.951633 -9.853319 37,000 121 565 0
2020-09-06 14:07:30 GMT 56.959534 -9.877481 37,000 120 565 0
2020-09-06 14:07:26 GMT 56.964706 -9.893532 37,000 120 565 0
2020-09-06 14:07:20 GMT 56.973267 -9.920826 37,000 119 564 0
2020-09-06 14:07:17 GMT 56.977844 -9.935805 37,000 119 564 0
2020-09-06 14:07:10 GMT 56.985897 -9.962473 37,000 118 564 0
2020-09-06 14:07:06 GMT 56.990601 -9.978421 37,000 118 563 0
2020-09-06 14:07:00 GMT 56.997910 -10.003672 37,000 117 564 0
2020-09-06 14:06:56 GMT 57.002422 -10.019708 37,000 117 563 0
2020-09-06 14:06:49 GMT 57.010197 -10.047706 37,000 116 563 0
2020-09-06 14:06:46 GMT 57.014015 -10.061793 37,000 116 563 0
2020-09-06 14:06:40 GMT 57.021278 -10.089259 37,000 115 562 0
2020-09-06 14:06:36 GMT 57.025726 -10.106392 37,000 114 562 0
2020-09-06 14:06:29 GMT 57.032776 -10.134544 37,000 114 562 0
2020-09-06 14:06:25 GMT 57.036987 -10.151367 37,000 115 562 0
2020-09-06 14:06:19 GMT 57.043671 -10.177116 37,000 115 562 0
2020-09-06 14:06:16 GMT 57.047485 -10.191769 37,000 116 563 0
2020-09-06 14:06:09 GMT 57.055206 -10.220375 37,000 116 563 0
2020-09-06 14:06:05 GMT 57.059776 -10.236954 37,000 117 563 0
2020-09-06 14:05:59 GMT 57.066994 -10.262914 37,000 117 564 0
2020-09-06 14:05:55 GMT 57.072437 -10.281874 37,000 117 563 64
2020-09-06 14:05:49 GMT 57.079422 -10.305948 37,000 118 564 0
2020-09-06 14:05:39 GMT 57.092148 -10.348177 37,000 119 565 0
2020-09-06 14:05:29 GMT 57.105446 -10.390497 37,000 120 566 0
2020-09-06 14:05:18 GMT 57.119083 -10.432493 37,000 121 565 0
2020-09-06 14:05:08 GMT 57.133163 -10.474005 37,000 122 566 -64
2020-09-06 14:04:59 GMT 57.147034 -10.513058 37,000 123 567 0
2020-09-06 14:04:48 GMT 57.162098 -10.554760 37,000 123 567 0
2020-09-06 14:04:38 GMT 57.176670 -10.595339 37,000 123 567 0
2020-09-06 14:04:28 GMT 57.190960 -10.635120 37,000 123 567 0
2020-09-06 14:04:18 GMT 57.205719 -10.676136 37,000 123 568 0
2020-09-06 14:04:08 GMT 57.220001 -10.716047 37,000 123 568 0
2020-09-06 14:03:58 GMT 57.234238 -10.755959 37,000 123 568 0
2020-09-06 14:03:48 GMT 57.249252 -10.797930 37,000 123 568 0
2020-09-06 14:03:32 GMT 57.272736 -10.863848 37,000 123 568 0
2020-09-06 14:03:28 GMT 57.277920 -10.878414 37,000 123 568 0
2020-09-06 14:03:17 GMT 57.293144 -10.921296 37,000 123 569 0
2020-09-06 14:03:07 GMT 57.307667 -10.962229 37,000 123 569 0
2020-09-06 14:02:57 GMT 57.321716 -11.001949 37,000 123 568 0
2020-09-06 14:02:47 GMT 57.336502 -11.043749 37,000 123 568 0
2020-09-06 14:02:37 GMT 57.350693 -11.084003 37,000 123 569 0
2020-09-06 14:02:27 GMT 57.365479 -11.125889 37,000 123 568 0
2020-09-06 14:02:17 GMT 57.379623 -11.166229 37,000 123 568 0
2020-09-06 14:02:07 GMT 57.394089 -11.207342 37,000 123 568 0
2020-09-06 14:01:57 GMT 57.409058 -11.250177 37,000 122 569 0
2020-09-06 14:01:47 GMT 57.422928 -11.289825 37,000 122 569 0
2020-09-06 14:01:36 GMT 57.437595 -11.331866 37,000 122 569 0
2020-09-06 14:01:27 GMT 57.451401 -11.371450 37,000 122 569 0
2020-09-06 14:01:16 GMT 57.466507 -11.414795 37,000 122 569 0
2020-09-06 14:01:06 GMT 57.480701 -11.455639 37,000 122 568 0
2020-09-06 14:00:56 GMT 57.494480 -11.495332 37,000 122 568 0
2020-09-06 14:00:46 GMT 57.508774 -11.536708 37,000 122 568 0
2020-09-06 14:00:36 GMT 57.523064 -11.578084 37,000 122 568 0
2020-09-06 14:00:26 GMT 57.537460 -11.619844 37,000 122 567 0
2020-09-06 14:00:16 GMT 57.551880 -11.661644 37,000 122 567 0
2020-09-06 14:00:06 GMT 57.565987 -11.702654 37,000 122 567 0
2020-09-06 13:59:55 GMT 57.581177 -11.746960 37,000 122 567 0
2020-09-06 13:59:46 GMT 57.594223 -11.785069 37,000 122 567 0
2020-09-06 13:59:35 GMT 57.608860 -11.827845 37,000 122 567 0
2020-09-06 13:59:24 GMT 57.624161 -11.872616 37,000 122 567 0
2020-09-06 13:59:15 GMT 57.636883 -11.910066 37,000 122 567 0
2020-09-06 13:59:05 GMT 57.651169 -11.952095 37,000 122 566 0
2020-09-06 13:58:55 GMT 57.665726 -11.994925 37,000 122 566 0
2020-09-06 13:58:45 GMT 57.679550 -12.035694 37,000 122 566 0
2020-09-06 13:58:35 GMT 57.693352 -12.076455 37,000 122 566 0
2020-09-06 13:58:25 GMT 57.707565 -12.118521 37,000 122 566 0
2020-09-06 13:58:14 GMT 57.721893 -12.161007 37,000 122 566 -64
2020-09-06 13:58:05 GMT 57.735527 -12.201508 37,000 122 565 0
2020-09-06 13:57:55 GMT 57.749405 -12.242757 37,000 122 565 0
2020-09-06 13:57:45 GMT 57.763412 -12.284575 37,000 122 566 0
2020-09-06 13:57:34 GMT 57.777287 -12.325928 37,000 122 566 0
2020-09-06 13:57:24 GMT 57.791950 -12.369873 37,000 122 566 0
2020-09-06 13:57:14 GMT 57.805206 -12.409589 37,000 122 566 0
2020-09-06 13:57:04 GMT 57.819553 -12.452728 37,000 121 565 0
2020-09-06 13:56:54 GMT 57.833359 -12.494202 37,000 121 565 0
2020-09-06 13:56:44 GMT 57.847504 -12.536907 37,000 121 565 0
2020-09-06 13:56:33 GMT 57.861557 -12.579257 37,000 121 564 0
2020-09-06 13:56:24 GMT 57.874859 -12.619537 37,000 121 564 0
2020-09-06 13:56:13 GMT 57.889847 -12.664844 37,000 121 564 0
2020-09-06 13:56:03 GMT 57.903397 -12.706043 37,000 121 564 0
2020-09-06 13:55:53 GMT 57.916431 -12.745514 37,000 121 563 0
2020-09-06 13:55:43 GMT 57.930313 -12.787997 37,000 121 564 0
2020-09-06 13:55:33 GMT 57.944221 -12.830475 37,000 121 564 0
2020-09-06 13:55:23 GMT 57.957863 -12.872131 37,000 121 564 0
2020-09-06 13:55:12 GMT 57.973690 -12.920563 37,000 121 564 0
2020-09-06 13:55:03 GMT 57.985374 -12.956451 37,000 121 564 0
2020-09-06 13:54:52 GMT 57.999527 -12.999847 37,000 121 564 0
2020-09-06 13:54:43 GMT 58.012840 -13.040863 37,000 121 563 0
2020-09-06 13:54:32 GMT 58.026665 -13.083435 37,000 121 563 0
2020-09-06 13:54:22 GMT 58.040222 -13.125295 37,000 121 563 0
2020-09-06 13:54:12 GMT 58.053589 -13.166760 37,000 121 564 0
2020-09-06 13:54:02 GMT 58.067276 -13.209110 37,000 121 564 0
2020-09-06 13:53:52 GMT 58.081421 -13.253144 37,000 121 564 0
2020-09-06 13:53:42 GMT 58.094650 -13.294254 37,000 121 564 0
2020-09-06 13:53:32 GMT 58.108414 -13.337036 37,000 121 563 0
2020-09-06 13:53:22 GMT 58.122238 -13.380341 37,000 121 563 0
2020-09-06 13:53:11 GMT 58.136108 -13.423645 37,000 121 563 0
2020-09-06 13:53:01 GMT 58.150311 -13.468231 37,000 121 563 0
2020-09-06 13:52:52 GMT 58.162411 -13.506134 37,000 121 563 0
2020-09-06 13:52:41 GMT 58.176983 -13.552094 37,000 121 563 0
2020-09-06 13:52:32 GMT 58.189598 -13.591644 37,000 120 563 0
2020-09-06 13:52:21 GMT 58.203609 -13.636047 37,000 120 564 0
2020-09-06 13:52:11 GMT 58.216599 -13.676971 37,000 120 564 0
2020-09-06 13:52:01 GMT 58.230331 -13.720551 37,000 120 563 0
2020-09-06 13:51:51 GMT 58.243927 -13.763654 37,000 120 563 0
2020-09-06 13:51:41 GMT 58.256882 -13.804676 37,000 120 563 0
2020-09-06 13:51:31 GMT 58.270180 -13.846985 37,000 120 563 0
2020-09-06 13:51:21 GMT 58.283821 -13.890656 37,000 120 563 0
We lost coverage of the aircraft here for a total of 91 minutes
2020-09-06 12:20:30 GMT 62.183334 -41.366669 37,000 104 530
2020-09-06 12:19:31 GMT 62.216667 -41.650002 37,000 104 520
2020-09-06 12:18:30 GMT 62.250000 -41.983334 37,000 104 520
2020-09-06 12:17:30 GMT 62.299999 -42.299999 37,000 103 520
2020-09-06 12:16:30 GMT 62.333332 -42.583332 37,000 102 530
2020-09-06 12:15:30 GMT 62.366669 -42.900002 37,000 103 520
2020-09-06 12:14:31 GMT 62.400002 -43.183334 37,000 102 520
2020-09-06 12:13:31 GMT 62.433334 -43.516666 37,000 103 520
2020-09-06 12:12:30 GMT 62.466667 -43.799999 37,000 102 520
2020-09-06 12:11:30 GMT 62.500000 -44.116669 37,000 100 520
2020-09-06 12:10:30 GMT 62.533333 -44.416668 37,000 100 520
2020-09-06 12:09:30 GMT 62.566666 -44.733334 37,000 100 520
2020-09-06 12:08:31 GMT 62.583332 -45.033333 37,000 102 520
2020-09-06 12:07:30 GMT 62.616669 -45.349998 37,000 102 520
2020-09-06 12:06:30 GMT 62.650002 -45.650002 37,000 102 520
2020-09-06 12:05:30 GMT 62.683334 -45.966667 37,000 100 520
2020-09-06 12:04:30 GMT 62.716667 -46.266666 37,000 98 520
2020-09-06 12:03:30 GMT 62.750000 -46.599998 37,000 98 520
2020-09-06 12:02:31 GMT 62.766666 -46.883331 37,000 100 520
2020-09-06 12:01:30 GMT 62.783333 -47.216667 37,000 100 520
2020-09-06 12:00:30 GMT 62.816666 -47.516666 37,000 98 520
2020-09-06 11:59:30 GMT 62.849998 -47.849998 37,000 96 520
2020-09-06 11:58:30 GMT 62.866669 -48.133331 37,000 98 510
2020-09-06 11:57:30 GMT 62.883331 -48.433334 37,000 98 510
2020-09-06 11:56:30 GMT 62.900002 -48.766666 37,000 100 510
2020-09-06 11:55:30 GMT 62.933334 -49.066666 37,000 97 510
2020-09-06 11:54:30 GMT 62.950001 -49.400002 37,000 101 510
2020-09-06 11:53:30 GMT 62.983334 -49.700001 37,000 98 510
2020-09-06 11:52:39 GMT 62.983334 -49.833332 37,000 98 510
2020-09-06 11:51:29 GMT 63.033333 -50.299999 37,000 98 510
2020-09-06 11:50:30 GMT 63.049999 -50.633331 37,000 98 510
2020-09-06 11:49:30 GMT 63.066666 -50.933334 37,000 101 510
2020-09-06 11:48:40 GMT 63.083332 -51.049999 37,000 98 510
2020-09-06 11:47:30 GMT 63.116669 -51.533333 37,000 101 510
2020-09-06 11:46:30 GMT 63.150002 -51.833332 37,000 97 510
2020-09-06 11:45:29 GMT 63.166668 -52.166668 37,000 96 510
2020-09-06 11:44:40 GMT 63.183334 -52.266666 37,000 96 510
2020-09-06 11:43:40 GMT 63.200001 -52.599998 37,000 96 510
2020-09-06 11:42:30 GMT 63.216667 -53.083332 37,000 98 510
2020-09-06 11:41:30 GMT 63.250000 -53.416668 37,000 98 510
2020-09-06 11:40:29 GMT 63.266666 -53.733334 37,000 98 510
2020-09-06 11:39:29 GMT 63.283333 -54.033333 37,000 98 510
2020-09-06 11:38:40 GMT 63.299999 -54.166668 37,000 95 510
2020-09-06 11:37:39 GMT 63.316666 -54.450001 37,000 95 510
2020-09-06 11:36:39 GMT 63.333332 -54.783333 37,000 96 510
2020-09-06 11:35:30 GMT 63.349998 -55.283333 37,000 98 510
2020-09-06 11:34:29 GMT 63.366669 -55.599998 37,000 68 510
2020-09-06 11:33:40 GMT 63.383331 -55.700001 37,000 74 510
2020-09-06 11:32:40 GMT 63.400002 -56.033333 37,000 93 510
2020-09-06 11:31:24 GMT 63.266666 -56.166668 37,000 96 520
2020-09-06 11:30:24 GMT 63.283333 -56.500000 37,000 100 510
2020-09-06 11:29:29 GMT 63.433334 -57.166668 37,000 74 510
2020-09-06 11:28:23 GMT 63.316666 -57.133331 37,000 98 500
2020-09-06 11:27:23 GMT 63.366669 -57.433334 37,000 91 500
2020-09-06 11:26:24 GMT 63.366669 -57.716667 37,000 94 500
2020-09-06 11:25:24 GMT 63.383331 -58.049999 37,000 91 500
2020-09-06 11:24:24 GMT 63.383331 -58.333332 37,000 91 500
2020-09-06 11:23:23 GMT 63.400002 -58.650002 37,000 89 500
2020-09-06 11:22:23 GMT 63.400002 -58.966667 37,000 89 500
2020-09-06 11:21:23 GMT 63.400002 -59.299999 37,000 89 500
2020-09-06 11:20:24 GMT 63.400002 -59.599998 36,500 91 500
2020-09-06 11:19:24 GMT 63.400002 -59.933334 35,400 91 500
2020-09-06 11:18:23 GMT 63.400002 -60.216667 35,000 91 500
2020-09-06 11:17:23 GMT 63.416668 -60.533333 35,000 89 500
2020-09-06 11:16:23 GMT 63.416668 -60.849998 35,000 89 500
2020-09-06 11:15:24 GMT 63.416668 -61.166668 35,000 89 500
2020-09-06 11:14:24 GMT 63.416668 -61.450001 35,000 89 500
2020-09-06 11:13:24 GMT 63.416668 -61.783333 35,000 89 500
2020-09-06 11:12:23 GMT 63.416668 -62.083332 35,000 89 510
2020-09-06 11:11:23 GMT 63.416668 -62.416668 35,000 89 510
2020-09-06 11:10:23 GMT 63.416668 -62.716667 35,000 100 510
2020-09-06 11:09:24 GMT 63.416668 -63.016666 35,000 103 510
2020-09-06 11:08:24 GMT 63.416668 -63.333332 35,000 101 510
2020-09-06 11:07:29 GMT 63.533333 -64.066666 35,000 91 510
2020-09-06 11:06:39 GMT 63.549999 -64.216667 35,000 91 510
2020-09-06 11:05:29 GMT 63.549999 -64.683334 35,000 91 510
2020-09-06 11:04:29 GMT 63.549999 -65.000000 35,000 70 510
2020-09-06 11:03:30 GMT 63.566666 -65.316666 35,000 66 510
2020-09-06 11:02:29 GMT 63.566666 -65.666664 35,000 65 510
2020-09-06 11:01:23 GMT 63.466667 -65.533333 35,000 97 510
2020-09-06 11:00:23 GMT 63.466667 -65.849998 35,000 89 510
2020-09-06 10:59:23 GMT 63.466667 -66.166664 35,000 89 510
2020-09-06 10:58:29 GMT 63.549999 -66.916664 35,000 70 510
2020-09-06 10:57:24 GMT 63.466667 -66.800003 35,000 96 510
2020-09-06 10:56:23 GMT 63.466667 -67.166664 35,000 97 510
2020-09-06 10:55:23 GMT 63.466667 -67.449997 35,000 87 510
2020-09-06 10:54:29 GMT 63.549999 -68.199997 35,000 66 510
2020-09-06 10:53:29 GMT 63.549999 -68.516670 35,000 67 510
2020-09-06 10:52:23 GMT 63.450001 -68.416664 35,000 87 510
2020-09-06 10:51:24 GMT 63.450001 -68.733330 35,000 95 510
2020-09-06 10:50:23 GMT 63.450001 -69.066666 35,000 82 510
2020-09-06 10:49:23 GMT 63.433334 -69.366669 35,000 80 510
2020-09-06 10:48:29 GMT 63.516666 -70.099998 35,000 50 510
2020-09-06 10:47:23 GMT 63.400002 -70.016670 35,000 75 500
2020-09-06 10:46:23 GMT 63.366669 -70.283333 35,000 74 500
2020-09-06 10:45:23 GMT 63.333332 -70.599998 35,000 75 500
2020-09-06 10:44:23 GMT 63.299999 -70.916664 35,000 74 500
2020-09-06 10:43:23 GMT 63.250000 -71.216667 35,000 75 500
2020-09-06 10:42:23 GMT 63.233334 -71.500000 35,000 73 500
2020-09-06 10:41:23 GMT 63.183334 -71.849998 35,000 73 500
2020-09-06 10:40:22 GMT 63.150002 -72.133331 35,000 73 500
2020-09-06 10:39:23 GMT 63.116669 -72.400002 35,000 73 500
2020-09-06 10:38:23 GMT 63.066666 -72.750000 35,000 75 500
2020-09-06 10:37:23 GMT 63.033333 -73.033333 35,000 73 500
2020-09-06 10:36:23 GMT 63.000000 -73.283333 35,000 73 500
2020-09-06 10:35:23 GMT 62.966667 -73.599998 35,000 69 500
2020-09-06 10:34:22 GMT 62.916668 -73.916664 35,000 70 500
2020-09-06 10:33:23 GMT 62.883331 -74.166664 35,000 72 490
2020-09-06 10:32:23 GMT 62.816666 -74.500000 35,000 72 490
2020-09-06 10:31:23 GMT 62.783333 -74.783333 35,000 71 490
2020-09-06 10:30:23 GMT 62.750000 -75.099998 35,000 70 490
2020-09-06 10:29:22 GMT 62.700001 -75.349998 35,000 70 490
2020-09-06 10:28:22 GMT 62.650002 -75.666664 35,000 72 490
2020-09-06 10:27:23 GMT 62.616669 -75.916664 35,000 70 490
2020-09-06 10:26:23 GMT 62.566666 -76.199997 35,000 70 490
2020-09-06 10:25:23 GMT 62.533333 -76.500000 35,000 70 490
2020-09-06 10:24:23 GMT 62.483334 -76.750000 35,000 68 490
2020-09-06 10:23:22 GMT 62.433334 -77.050003 35,000 70 490
2020-09-06 10:22:23 GMT 62.400002 -77.333336 35,000 66 490
2020-09-06 10:21:23 GMT 62.333332 -77.599998 35,000 68 480
2020-09-06 10:20:23 GMT 62.299999 -77.883331 35,000 68 480
2020-09-06 10:19:23 GMT 62.233334 -78.183334 35,000 70 480
2020-09-06 10:18:22 GMT 62.183334 -78.433334 35,000 69 480
2020-09-06 10:17:22 GMT 62.150002 -78.699997 35,000 68 480
2020-09-06 10:16:23 GMT 62.099998 -79.000000 35,000 67 480
2020-09-06 10:15:23 GMT 62.049999 -79.216667 35,000 68 480
2020-09-06 10:14:23 GMT 62.000000 -79.516670 35,000 65 480
2020-09-06 10:13:22 GMT 61.950001 -79.766670 35,000 67 480
2020-09-06 10:12:22 GMT 61.900002 -80.033333 35,000 64 480
2020-09-06 10:11:22 GMT 61.833332 -80.300003 35,000 68 480
2020-09-06 10:10:23 GMT 61.799999 -80.566666 35,000 62 480
2020-09-06 10:09:23 GMT 61.733334 -80.800003 35,000 68 480
2020-09-06 10:08:23 GMT 61.683334 -81.099998 35,000 67 480
2020-09-06 10:07:22 GMT 61.616669 -81.333336 35,000 67 480
2020-09-06 10:06:22 GMT 61.583332 -81.599998 35,000 65 480
2020-09-06 10:05:22 GMT 61.533333 -81.866669 35,000 62 480
2020-09-06 10:04:23 GMT 61.466667 -82.099998 35,000 65 480
2020-09-06 10:03:23 GMT 61.416668 -82.366669 35,000 63 480
2020-09-06 10:02:22 GMT 61.349998 -82.616669 35,000 65 480
2020-09-06 10:01:22 GMT 61.299999 -82.883331 35,000 63 480
2020-09-06 10:00:22 GMT 61.233334 -83.133331 35,000 64 480
2020-09-06 09:59:22 GMT 61.183334 -83.400002 35,000 61 480
2020-09-06 09:58:23 GMT 61.133331 -83.599998 35,000 63 480
2020-09-06 09:57:23 GMT 61.066666 -83.883331 35,000 64 480
2020-09-06 09:56:22 GMT 61.000000 -84.116669 35,000 64 480
2020-09-06 09:55:22 GMT 60.950001 -84.366669 35,000 64 480
2020-09-06 09:54:22 GMT 60.900002 -84.616669 35,000 62 490
2020-09-06 09:53:22 GMT 60.833332 -84.849998 35,000 63 490
2020-09-06 09:52:23 GMT 60.783333 -85.099998 35,000 60 490
2020-09-06 09:51:22 GMT 60.716667 -85.333336 35,000 60 490
2020-09-06 09:50:22 GMT 60.650002 -85.599998 35,000 62 490
2020-09-06 09:49:22 GMT 60.583332 -85.816666 35,000 61 490
2020-09-06 09:48:22 GMT 60.516666 -86.066666 35,000 63 490
2020-09-06 09:47:22 GMT 60.466667 -86.316666 35,000 59 490
2020-09-06 09:46:23 GMT 60.383331 -86.566666 35,000 60 490
2020-09-06 09:45:22 GMT 60.333332 -86.816666 33,900 60 490
2020-09-06 09:44:22 GMT 60.250000 -87.083336 33,000 60 490
2020-09-06 09:43:22 GMT 60.183334 -87.300003 33,000 60 490
2020-09-06 09:42:22 GMT 60.133331 -87.533333 33,000 58 490
2020-09-06 09:41:23 GMT 60.066666 -87.750000 33,000 61 500
2020-09-06 09:40:22 GMT 59.983334 -88.016670 33,000 60 500
2020-09-06 09:39:22 GMT 59.916668 -88.250000 33,000 60 500
2020-09-06 09:38:22 GMT 59.866669 -88.500000 33,000 58 500
2020-09-06 09:37:22 GMT 59.783333 -88.733330 33,000 58 500
2020-09-06 09:36:22 GMT 59.716667 -88.966667 33,000 58 500
2020-09-06 09:35:22 GMT 59.650002 -89.199997 33,000 58 500
2020-09-06 09:34:22 GMT 59.566666 -89.433334 33,000 62 500
2020-09-06 09:33:22 GMT 59.500000 -89.666664 33,000 63 500
2020-09-06 09:32:22 GMT 59.433334 -89.900002 33,000 66 510
2020-09-06 09:31:22 GMT 59.383331 -90.150002 33,000 64 510
2020-09-06 09:30:22 GMT 59.316666 -90.400002 33,000 64 510
2020-09-06 09:29:22 GMT 59.266666 -90.666664 33,000 61 510
2020-09-06 09:28:22 GMT 59.200001 -90.900002 33,000 64 510
2020-09-06 09:27:22 GMT 59.133331 -91.150002 33,000 62 510
2020-09-06 09:26:22 GMT 59.066666 -91.383331 33,000 64 520
2020-09-06 09:25:22 GMT 59.016666 -91.650002 33,000 62 520
2020-09-06 09:24:21 GMT 58.933334 -91.916664 33,000 63 520
2020-09-06 09:23:22 GMT 58.883331 -92.133331 33,000 62 520
2020-09-06 09:22:22 GMT 58.816666 -92.400002 33,000 60 520
2020-09-06 09:21:22 GMT 58.750000 -92.650002 33,000 60 520
2020-09-06 09:20:22 GMT 58.683334 -92.883331 33,000 62 520
2020-09-06 09:19:22 GMT 58.616669 -93.099998 33,000 63 520
2020-09-06 09:18:21 GMT 58.549999 -93.349998 33,000 62 520
2020-09-06 09:17:22 GMT 58.483334 -93.616669 33,000 61 520
2020-09-06 09:16:22 GMT 58.416668 -93.866669 33,000 59 520
2020-09-06 09:15:22 GMT 58.349998 -94.083336 33,000 59 530
2020-09-06 09:14:22 GMT 58.283333 -94.333336 33,000 59 530
2020-09-06 09:13:21 GMT 58.200001 -94.583336 33,000 60 530
2020-09-06 09:12:21 GMT 58.133331 -94.800003 33,000 61 530
2020-09-06 09:11:22 GMT 58.066666 -95.050003 33,000 58 530
2020-09-06 09:10:22 GMT 57.983334 -95.316666 33,000 59 530
2020-09-06 09:09:22 GMT 57.916668 -95.550003 33,000 59 530
2020-09-06 09:08:21 GMT 57.833332 -95.766670 33,000 59 530
2020-09-06 09:07:21 GMT 57.766666 -96.016670 33,000 57 530
2020-09-06 09:06:22 GMT 57.700001 -96.250000 33,000 57 530
2020-09-06 09:05:22 GMT 57.616669 -96.466667 33,000 60 530
2020-09-06 09:04:22 GMT 57.533333 -96.716667 33,000 59 530
2020-09-06 09:03:22 GMT 57.466667 -96.949997 33,000 59 530
2020-09-06 09:02:21 GMT 57.400002 -97.183334 33,000 58 530
2020-09-06 09:01:21 GMT 57.316666 -97.400002 33,000 58 530
2020-09-06 09:00:22 GMT 57.250000 -97.633331 33,000 58 530
2020-09-06 08:59:22 GMT 57.166668 -97.883331 33,000 56 530
2020-09-06 08:58:22 GMT 57.083332 -98.116669 33,000 57 540
2020-09-06 08:57:21 GMT 57.016666 -98.349998 33,000 55 540
2020-09-06 08:56:21 GMT 56.933334 -98.550003 33,000 58 540
2020-09-06 08:55:21 GMT 56.849998 -98.800003 33,000 57 540
2020-09-06 08:54:22 GMT 56.766666 -99.016670 33,000 58 540
2020-09-06 08:53:22 GMT 56.700001 -99.250000 33,000 56 540
2020-09-06 08:52:22 GMT 56.616669 -99.483330 33,000 59 540
2020-09-06 08:51:21 GMT 56.533333 -99.716667 33,000 58 540
2020-09-06 08:50:21 GMT 56.450001 -99.949997 33,000 61 530
2020-09-06 08:49:21 GMT 56.383331 -100.199997 33,000 59 530
2020-09-06 08:48:22 GMT 56.299999 -100.416664 33,000 63 530
2020-09-06 08:47:22 GMT 56.233334 -100.666664 33,000 61 530
2020-09-06 08:46:21 GMT 56.166668 -100.883331 33,000 63 530
2020-09-06 08:45:21 GMT 56.099998 -101.133331 33,000 62 530
2020-09-06 08:44:21 GMT 56.016666 -101.383331 33,000 64 540
2020-09-06 08:43:21 GMT 55.966667 -101.616669 33,000 59 540
2020-09-06 08:42:22 GMT 55.900002 -101.833336 33,000 60 540
2020-09-06 08:41:22 GMT 55.833332 -102.066666 33,000 60 540
2020-09-06 08:40:21 GMT 55.750000 -102.283333 33,000 60 540
We lost coverage of the aircraft here for a total of 7 minutes
2020-09-06 08:33:20 GMT 55.269379 -104.001266 33,000 59 540 0
2020-09-06 08:33:16 GMT 55.262486 -104.021965 33,000 59 540 0
2020-09-06 08:33:07 GMT 55.252525 -104.051765 33,000 59 540 64
2020-09-06 08:32:57 GMT 55.238792 -104.092880 33,000 59 541 0
2020-09-06 08:31:38 GMT 55.139191 -104.388054 33,000 59 543 -64
2020-09-06 08:31:31 GMT 55.131256 -104.411400 33,025 59 543 0
2020-09-06 08:31:11 GMT 55.104630 -104.489594 33,000 59 543 0
2020-09-06 08:31:04 GMT 55.095646 -104.515938 33,000 59 544 0
2020-09-06 08:31:01 GMT 55.090897 -104.529839 33,000 59 544 0
2020-09-06 08:30:50 GMT 55.078079 -104.567551 33,000 59 544 0
2020-09-06 08:30:41 GMT 55.065247 -104.605156 33,000 59 543 0
2020-09-06 08:30:33 GMT 55.055981 -104.632210 33,000 59 544 0
2020-09-06 08:30:21 GMT 55.041641 -104.673775 33,000 59 543 0
2020-09-06 08:30:12 GMT 55.028824 -104.710854 33,000 58 544 0
2020-09-06 08:30:05 GMT 55.019764 -104.737076 33,000 58 545 0
2020-09-06 08:29:59 GMT 55.011105 -104.762215 33,000 58 545 0
2020-09-06 08:29:47 GMT 54.995773 -104.806419 33,000 58 545 0
2020-09-06 08:29:37 GMT 54.983505 -104.842125 33,000 59 545 0
2020-09-06 08:29:26 GMT 54.970650 -104.879234 33,000 59 545 -64
2020-09-06 08:29:15 GMT 54.956406 -104.920486 33,000 58 545 0
2020-09-06 08:29:06 GMT 54.942627 -104.960152 33,000 58 546 0
2020-09-06 08:28:58 GMT 54.934021 -104.984863 33,000 58 546 -64
2020-09-06 08:28:54 GMT 54.927635 -105.003242 33,000 58 546 0
2020-09-06 08:28:49 GMT 54.921387 -105.021217 33,000 58 546 0
2020-09-06 08:28:45 GMT 54.914886 -105.039963 33,000 58 546 0
2020-09-06 08:28:33 GMT 54.901009 -105.079735 33,000 58 547 0
2020-09-06 08:28:28 GMT 54.893421 -105.101372 33,000 58 547 0
2020-09-06 08:28:22 GMT 54.885681 -105.123489 33,000 58 547 0
2020-09-06 08:28:16 GMT 54.879089 -105.142227 33,000 58 547 64
2020-09-06 08:28:12 GMT 54.872799 -105.160217 33,000 58 547 64
2020-09-06 08:28:06 GMT 54.866089 -105.179306 33,000 58 547 64
2020-09-06 08:28:03 GMT 54.860184 -105.196114 33,000 58 547 0
2020-09-06 08:27:57 GMT 54.852585 -105.217842 33,000 58 547 0
2020-09-06 08:27:51 GMT 54.845379 -105.238373 33,000 58 547 0
2020-09-06 08:27:42 GMT 54.831985 -105.276489 33,000 58 547 0
2020-09-06 08:27:36 GMT 54.825363 -105.295135 33,000 58 547 0
2020-09-06 08:27:30 GMT 54.817337 -105.317932 33,000 58 547 0
2020-09-06 08:27:25 GMT 54.811798 -105.333603 33,000 58 547 0
2020-09-06 08:27:14 GMT 54.797802 -105.373116 33,000 58 547 0
2020-09-06 08:27:09 GMT 54.789890 -105.395508 33,000 58 548 0
2020-09-06 08:27:05 GMT 54.784489 -105.410820 33,000 58 548 0
2020-09-06 08:27:00 GMT 54.776459 -105.433609 33,000 58 548 0
2020-09-06 08:26:54 GMT 54.770897 -105.449356 33,000 58 548 0
2020-09-06 08:26:48 GMT 54.762863 -105.472061 33,000 58 548 64
2020-09-06 08:26:44 GMT 54.756233 -105.490723 33,000 58 548 0
2020-09-06 08:26:37 GMT 54.748550 -105.512360 33,000 58 548 0
2020-09-06 08:26:33 GMT 54.743225 -105.527313 33,000 58 549 0
2020-09-06 08:26:28 GMT 54.733654 -105.554146 33,000 58 549 -64
2020-09-06 08:26:22 GMT 54.729279 -105.566460 33,000 58 549 0
2020-09-06 08:26:13 GMT 54.713882 -105.609711 33,000 58 548 64
2020-09-06 08:26:07 GMT 54.706696 -105.629745 33,000 58 549 0
2020-09-06 08:26:00 GMT 54.699371 -105.650185 33,000 58 549 0
2020-09-06 08:25:56 GMT 54.693008 -105.668037 33,000 58 547 0
2020-09-06 08:25:50 GMT 54.685520 -105.688812 33,000 58 547 0
2020-09-06 08:25:45 GMT 54.677444 -105.711502 33,000 58 547 0
2020-09-06 08:25:39 GMT 54.669830 -105.732674 33,000 58 547 0
2020-09-06 08:25:35 GMT 54.664810 -105.746719 33,000 58 547 0
2020-09-06 08:25:28 GMT 54.656982 -105.768623 33,000 58 546 0
2020-09-06 08:25:21 GMT 54.646179 -105.798584 33,000 58 547 0
2020-09-06 08:25:18 GMT 54.643017 -105.807495 33,000 58 547 0
2020-09-06 08:25:11 GMT 54.634094 -105.832268 33,000 58 547 0
2020-09-06 08:25:08 GMT 54.629005 -105.846283 33,000 58 547 0
2020-09-06 08:25:01 GMT 54.619415 -105.872917 33,000 58 547 0
2020-09-06 08:24:56 GMT 54.614620 -105.886230 33,000 58 547 0
2020-09-06 08:24:47 GMT 54.599670 -105.927673 33,000 58 548 0
2020-09-06 08:24:43 GMT 54.594322 -105.942413 33,000 58 548 0
2020-09-06 08:24:34 GMT 54.585758 -105.966049 33,000 58 548 0
2020-09-06 08:24:31 GMT 54.580124 -105.981529 33,000 58 548 0
2020-09-06 08:24:25 GMT 54.571980 -106.004082 33,000 58 548 0
2020-09-06 08:24:22 GMT 54.566483 -106.019196 33,000 57 547 0
2020-09-06 08:24:14 GMT 54.558060 -106.042450 33,000 57 547 0
2020-09-06 08:24:08 GMT 54.550140 -106.064194 33,000 57 547 0
2020-09-06 08:24:03 GMT 54.544144 -106.080750 33,000 57 547 0
2020-09-06 08:24:00 GMT 54.538506 -106.096222 33,000 57 546 0
2020-09-06 08:23:53 GMT 54.529011 -106.122269 33,000 57 546 0
2020-09-06 08:23:50 GMT 54.523750 -106.136589 33,000 57 546 0
2020-09-06 08:23:39 GMT 54.509583 -106.175507 33,000 57 546 0
2020-09-06 08:23:33 GMT 54.502029 -106.196114 33,000 57 546 0
2020-09-06 08:23:29 GMT 54.495865 -106.212906 33,000 57 546 0
2020-09-06 08:23:22 GMT 54.487976 -106.234566 33,000 57 546 0
2020-09-06 08:23:17 GMT 54.481018 -106.253624 33,000 57 546 0
2020-09-06 08:23:12 GMT 54.474152 -106.272285 33,000 57 546 0
2020-09-06 08:23:08 GMT 54.467979 -106.289146 33,000 57 546 0
2020-09-06 08:23:01 GMT 54.459927 -106.311119 33,000 57 546 0
2020-09-06 08:22:56 GMT 54.453369 -106.328995 33,000 57 546 0
2020-09-06 08:22:50 GMT 54.446091 -106.348785 33,000 57 545 0
2020-09-06 08:22:46 GMT 54.438995 -106.368095 33,000 57 545 0
2020-09-06 08:22:40 GMT 54.431992 -106.387077 33,000 57 545 0
2020-09-06 08:22:35 GMT 54.425571 -106.404587 33,000 57 544 0
2020-09-06 08:22:29 GMT 54.418167 -106.424561 33,000 57 544 0
2020-09-06 08:22:25 GMT 54.410534 -106.445366 33,000 57 544 0
2020-09-06 08:22:20 GMT 54.404343 -106.462044 33,000 57 543 0
2020-09-06 08:22:14 GMT 54.397110 -106.481674 33,000 57 543 0
2020-09-06 08:22:09 GMT 54.390381 -106.499847 33,000 57 543 0
2020-09-06 08:22:05 GMT 54.382874 -106.520203 33,000 57 543 0
2020-09-06 08:21:59 GMT 54.376690 -106.536919 33,000 57 544 0
2020-09-06 08:21:53 GMT 54.368042 -106.560112 33,000 57 544 0
2020-09-06 08:21:49 GMT 54.362000 -106.576431 33,000 57 544 0
2020-09-06 08:21:43 GMT 54.354580 -106.596344 33,000 57 544 0
2020-09-06 08:21:38 GMT 54.348404 -106.613022 33,000 57 544 0
2020-09-06 08:21:32 GMT 54.339638 -106.636627 33,000 57 544 0
2020-09-06 08:21:28 GMT 54.334095 -106.651443 33,000 57 544 0
2020-09-06 08:21:21 GMT 54.325207 -106.675331 33,000 57 543 -64
2020-09-06 08:21:12 GMT 54.311192 -106.712952 33,000 57 543 0
2020-09-06 08:21:07 GMT 54.306210 -106.726265 33,000 57 543 0
2020-09-06 08:21:00 GMT 54.296906 -106.751160 33,000 57 542 0
2020-09-06 08:20:56 GMT 54.292061 -106.764137 33,000 57 542 64
2020-09-06 08:20:51 GMT 54.283539 -106.786865 33,000 57 542 0
2020-09-06 08:20:45 GMT 54.277863 -106.802017 33,000 57 542 0
2020-09-06 08:20:39 GMT 54.268845 -106.826111 33,000 57 541 0
2020-09-06 08:20:36 GMT 54.263718 -106.839767 33,000 57 541 0
2020-09-06 08:20:29 GMT 54.254562 -106.864250 33,000 57 541 0
2020-09-06 08:20:25 GMT 54.248348 -106.880737 33,000 57 541 0
2020-09-06 08:20:19 GMT 54.241470 -106.899094 33,000 57 541 0
2020-09-06 08:20:13 GMT 54.232567 -106.922745 33,000 57 542 0
2020-09-06 08:20:09 GMT 54.227165 -106.937119 33,000 57 541 0
2020-09-06 08:20:02 GMT 54.216522 -106.965401 33,000 57 541 0
2020-09-06 08:19:57 GMT 54.212456 -106.976135 33,000 57 541 0
2020-09-06 08:19:48 GMT 54.197838 -107.014832 33,000 57 541 0
2020-09-06 08:19:40 GMT 54.188622 -107.039146 33,000 57 541 0
2020-09-06 08:19:36 GMT 54.183334 -107.053139 33,000 57 541 0
2020-09-06 08:19:29 GMT 54.174408 -107.076759 33,000 57 540 0
2020-09-06 08:19:25 GMT 54.168976 -107.091011 33,000 57 540 0
2020-09-06 08:19:16 GMT 54.154358 -107.129570 33,000 57 540 64
2020-09-06 08:19:09 GMT 54.145981 -107.151756 33,000 57 540 0
2020-09-06 08:19:04 GMT 54.140808 -107.165276 33,000 57 540 0
2020-09-06 08:18:58 GMT 54.132156 -107.188110 33,000 57 540 0
2020-09-06 08:18:55 GMT 54.126572 -107.202705 33,000 57 540 0
2020-09-06 08:18:48 GMT 54.117767 -107.225838 33,000 57 540 0
2020-09-06 08:18:44 GMT 54.112473 -107.239670 33,000 56 539 0
2020-09-06 08:18:37 GMT 54.103943 -107.262024 33,000 56 539 -64
2020-09-06 08:18:34 GMT 54.097843 -107.278023 33,000 56 539 -64
2020-09-06 08:18:26 GMT 54.089699 -107.299347 33,000 56 539 -64
2020-09-06 08:18:22 GMT 54.083553 -107.315262 33,000 56 539 -64
2020-09-06 08:18:17 GMT 54.075806 -107.335487 33,000 56 539 0
2020-09-06 08:18:13 GMT 54.069580 -107.351807 33,000 56 539 0
2020-09-06 08:18:05 GMT 54.059784 -107.377388 33,000 56 539 0
2020-09-06 08:18:02 GMT 54.055714 -107.388046 33,000 56 539 0
2020-09-06 08:17:55 GMT 54.046169 -107.412842 33,000 56 539 0
2020-09-06 08:17:52 GMT 54.040726 -107.426979 33,000 56 539 0
2020-09-06 08:17:43 GMT 54.031460 -107.451057 33,000 56 539 64
2020-09-06 08:17:40 GMT 54.026432 -107.464226 33,000 56 539 0
2020-09-06 08:17:33 GMT 54.017303 -107.487961 33,000 56 539 64
2020-09-06 08:17:30 GMT 54.011864 -107.502106 33,000 56 540 0
2020-09-06 08:17:23 GMT 54.002838 -107.525391 33,000 56 540 0
2020-09-06 08:17:19 GMT 53.997105 -107.540321 33,000 56 540 0
2020-09-06 08:17:13 GMT 53.989334 -107.560471 33,000 56 540 0
2020-09-06 08:17:10 GMT 53.983604 -107.575294 33,000 56 540 0
2020-09-06 08:17:03 GMT 53.975235 -107.596878 33,000 56 540 0
2020-09-06 08:16:58 GMT 53.968552 -107.614220 33,000 56 540 0
2020-09-06 08:16:52 GMT 53.960587 -107.634705 33,000 56 540 0
2020-09-06 08:16:48 GMT 53.954727 -107.649925 33,000 56 540 0
2020-09-06 08:16:42 GMT 53.946083 -107.672234 33,000 56 540 0
2020-09-06 08:16:38 GMT 53.940857 -107.685631 33,000 56 540 0
2020-09-06 08:16:31 GMT 53.931976 -107.708672 33,000 56 540 0
2020-09-06 08:16:27 GMT 53.925926 -107.724182 33,000 56 540 0
2020-09-06 08:16:17 GMT 53.911377 -107.761597 33,000 56 540 0
2020-09-06 08:16:11 GMT 53.903961 -107.780586 33,000 56 540 0
2020-09-06 08:16:05 GMT 53.896412 -107.800034 33,000 56 540 0
2020-09-06 08:16:00 GMT 53.889130 -107.818649 33,000 56 540 0
2020-09-06 08:15:56 GMT 53.882820 -107.834846 33,000 56 539 0
2020-09-06 08:15:49 GMT 53.874985 -107.854904 33,000 56 539 0
2020-09-06 08:15:44 GMT 53.867706 -107.873497 33,000 56 539 0
2020-09-06 08:15:39 GMT 53.860840 -107.891075 33,000 56 539 0
2020-09-06 08:15:35 GMT 53.854111 -107.908264 33,000 56 539 0
2020-09-06 08:15:28 GMT 53.846283 -107.928276 33,000 56 539 0
2020-09-06 08:15:23 GMT 53.839005 -107.946877 33,000 56 538 0
2020-09-06 08:15:19 GMT 53.832413 -107.963669 33,000 56 538 64
2020-09-06 08:15:14 GMT 53.824581 -107.983650 33,000 56 538 0
2020-09-06 08:15:08 GMT 53.817879 -108.000778 33,000 56 538 0
2020-09-06 08:15:02 GMT 53.809479 -108.022133 33,000 56 538 0
2020-09-06 08:14:57 GMT 53.804005 -108.036079 33,000 56 538 0
2020-09-06 08:14:53 GMT 53.795609 -108.057365 33,000 56 536 0
2020-09-06 08:14:47 GMT 53.789612 -108.072670 33,000 56 536 0
2020-09-06 08:14:41 GMT 53.781235 -108.093933 33,000 56 536 0
2020-09-06 08:14:37 GMT 53.775471 -108.108536 33,000 56 536 0
2020-09-06 08:14:32 GMT 53.766953 -108.130028 33,000 56 536 0
2020-09-06 08:14:27 GMT 53.761047 -108.145020 33,000 56 535 0
2020-09-06 08:14:20 GMT 53.751541 -108.168884 33,000 56 535 0
2020-09-06 08:14:16 GMT 53.746902 -108.180725 33,000 56 535 0
2020-09-06 08:14:10 GMT 53.737717 -108.203857 33,000 56 534 0
2020-09-06 08:14:06 GMT 53.732922 -108.215981 33,000 56 534 0
2020-09-06 08:14:00 GMT 53.723190 -108.240524 33,000 56 534 0
2020-09-06 08:13:56 GMT 53.718536 -108.252251 33,000 56 533 0
2020-09-06 08:13:49 GMT 53.709091 -108.275993 33,000 56 533 -64
2020-09-06 08:13:45 GMT 53.704010 -108.288780 33,000 56 533 0
2020-09-06 08:13:39 GMT 53.694305 -108.313187 33,000 56 533 0
2020-09-06 08:13:34 GMT 53.690186 -108.323547 33,000 56 532 0
2020-09-06 08:13:27 GMT 53.680038 -108.348946 33,000 56 532 0
2020-09-06 08:13:24 GMT 53.675800 -108.359612 33,000 56 532 0
2020-09-06 08:13:18 GMT 53.666260 -108.383598 33,000 56 531 0
2020-09-06 08:13:14 GMT 53.661575 -108.395271 33,000 56 531 0
2020-09-06 08:13:04 GMT 53.646973 -108.431839 33,000 56 530 0
2020-09-06 08:12:57 GMT 53.637405 -108.455772 33,000 56 530 0
2020-09-06 08:12:53 GMT 53.633148 -108.466370 33,000 56 530 0
2020-09-06 08:12:46 GMT 53.623058 -108.491608 33,000 56 529 0
2020-09-06 08:12:43 GMT 53.617191 -108.506226 33,000 56 529 0
2020-09-06 08:12:36 GMT 53.608566 -108.527733 33,000 56 529 0
2020-09-06 08:12:31 GMT 53.603210 -108.541000 33,000 56 529 0
2020-09-06 08:12:24 GMT 53.594055 -108.563759 33,000 55 528 0
2020-09-06 08:12:21 GMT 53.588196 -108.578354 33,000 55 528 0
2020-09-06 08:12:14 GMT 53.579018 -108.601067 33,000 55 527 0
2020-09-06 08:12:09 GMT 53.572502 -108.617386 33,000 55 527 0
2020-09-06 08:12:03 GMT 53.565102 -108.635719 33,000 55 527 0
2020-09-06 08:11:59 GMT 53.558258 -108.652588 33,000 55 527 0
2020-09-06 08:11:54 GMT 53.550762 -108.671265 33,000 55 527 0
2020-09-06 08:11:48 GMT 53.544754 -108.686096 33,000 55 526 0
2020-09-06 08:11:42 GMT 53.535866 -108.708099 33,000 55 526 0
2020-09-06 08:11:37 GMT 53.530140 -108.722321 33,000 55 526 0
2020-09-06 08:11:28 GMT 53.514313 -108.761429 33,000 55 526 0
2020-09-06 08:11:22 GMT 53.507172 -108.778931 33,000 55 526 0
2020-09-06 08:11:15 GMT 53.499527 -108.797768 33,000 55 526 0
2020-09-06 08:11:11 GMT 53.492844 -108.814323 33,000 55 526 0
2020-09-06 08:11:05 GMT 53.485867 -108.831451 33,000 55 526 0
2020-09-06 08:11:01 GMT 53.478928 -108.848618 33,000 55 526 0
2020-09-06 08:10:54 GMT 53.471390 -108.867081 33,000 55 526 0
2020-09-06 08:10:50 GMT 53.464409 -108.884209 33,000 55 526 0
2020-09-06 08:10:45 GMT 53.455124 -108.907082 33,000 55 526 0
2020-09-06 08:10:40 GMT 53.449951 -108.919868 33,000 55 526 0
2020-09-06 08:10:33 GMT 53.439548 -108.945358 33,000 55 525 0
2020-09-06 08:10:28 GMT 53.435440 -108.955421 33,000 55 525 0
2020-09-06 08:10:19 GMT 53.421486 -108.989624 33,000 55 525 0
2020-09-06 08:10:10 GMT 53.410641 -109.016045 33,000 55 525 0
2020-09-06 08:10:07 GMT 53.406693 -109.025810 33,000 55 525 0
2020-09-06 08:10:01 GMT 53.396858 -109.049889 33,000 55 525 0
2020-09-06 08:09:58 GMT 53.392456 -109.060570 33,000 55 525 0
2020-09-06 08:09:49 GMT 53.382614 -109.084587 33,000 55 525 0
2020-09-06 08:09:46 GMT 53.377682 -109.096664 33,000 55 525 0
2020-09-06 08:09:40 GMT 53.368607 -109.118645 33,000 55 525 0
2020-09-06 08:09:37 GMT 53.363022 -109.132378 33,000 55 525 0
2020-09-06 08:09:29 GMT 53.353958 -109.154350 33,000 55 524 0
2020-09-06 08:09:25 GMT 53.348602 -109.167374 33,000 55 524 0
2020-09-06 08:09:15 GMT 53.333267 -109.204651 33,000 55 524 0
2020-09-06 08:09:08 GMT 53.325729 -109.222923 33,000 55 523 0
2020-09-06 08:09:05 GMT 53.319672 -109.237534 33,000 55 523 0
2020-09-06 08:08:57 GMT 53.311203 -109.258095 33,000 55 523 0
2020-09-06 08:08:54 GMT 53.305161 -109.272690 33,000 55 522 64
2020-09-06 08:08:48 GMT 53.296772 -109.292877 33,000 55 523 64
2020-09-06 08:08:43 GMT 53.291016 -109.306824 33,000 55 523 0
2020-09-06 08:08:37 GMT 53.282902 -109.326408 33,000 55 523 0
2020-09-06 08:08:32 GMT 53.276058 -109.342964 33,000 55 523 0
2020-09-06 08:08:27 GMT 53.268234 -109.361870 33,000 55 523 0
2020-09-06 08:08:22 GMT 53.261627 -109.377785 33,000 55 523 0
2020-09-06 08:08:16 GMT 53.254028 -109.396049 33,000 55 523 0
2020-09-06 08:08:12 GMT 53.247845 -109.410904 33,000 55 524 0
2020-09-06 08:08:05 GMT 53.239559 -109.430779 33,000 55 523 -64
2020-09-06 08:08:02 GMT 53.233646 -109.445076 33,000 55 524 0
2020-09-06 08:07:56 GMT 53.225784 -109.463928 33,000 55 524 0
2020-09-06 08:07:51 GMT 53.219284 -109.479469 33,000 55 525 0
2020-09-06 08:07:45 GMT 53.211117 -109.499039 33,000 55 525 0
2020-09-06 08:07:41 GMT 53.204227 -109.515594 33,000 55 525 0
2020-09-06 08:07:34 GMT 53.196453 -109.534180 33,000 55 525 0
2020-09-06 08:07:29 GMT 53.189377 -109.551140 33,000 55 525 0
2020-09-06 08:07:24 GMT 53.182068 -109.568687 33,000 55 525 0
2020-09-06 08:07:20 GMT 53.174435 -109.586929 33,000 55 525 0
2020-09-06 08:07:14 GMT 53.168148 -109.601791 33,000 55 525 0
2020-09-06 08:07:08 GMT 53.159817 -109.621666 33,000 55 525 0
2020-09-06 08:07:04 GMT 53.153580 -109.636528 33,000 54 526 0
2020-09-06 08:06:59 GMT 53.146034 -109.654457 33,000 54 526 0
2020-09-06 08:06:53 GMT 53.139221 -109.670631 33,000 54 526 0
2020-09-06 08:06:47 GMT 53.130844 -109.690483 33,000 54 526 0
2020-09-06 08:06:42 GMT 53.124435 -109.705673 33,000 54 526 0
2020-09-06 08:06:37 GMT 53.115776 -109.726273 33,000 54 527 0
2020-09-06 08:06:32 GMT 53.110062 -109.739845 33,000 54 527 0
2020-09-06 08:06:27 GMT 53.101273 -109.760635 33,000 54 527 0
2020-09-06 08:06:21 GMT 53.095249 -109.774902 33,000 54 527 0
2020-09-06 08:06:16 GMT 53.086311 -109.796104 33,000 54 527 0
2020-09-06 08:06:12 GMT 53.080864 -109.808975 33,000 54 527 0
2020-09-06 08:06:06 GMT 53.071880 -109.830162 33,000 54 529 0
2020-09-06 08:06:01 GMT 53.066391 -109.843140 33,000 54 529 0
2020-09-06 08:05:55 GMT 53.057030 -109.865318 33,000 54 529 0
2020-09-06 08:05:50 GMT 53.051697 -109.877930 33,000 54 529 0
2020-09-06 08:05:45 GMT 53.042133 -109.900475 33,000 54 530 0
2020-09-06 08:05:40 GMT 53.036819 -109.913177 33,000 55 530 0
2020-09-06 08:05:33 GMT 53.027470 -109.935555 33,000 55 531 0
2020-09-06 08:05:30 GMT 53.022766 -109.947052 33,000 55 532 -64
2020-09-06 08:05:24 GMT 53.012897 -109.971420 33,000 56 533 -64
2020-09-06 08:05:20 GMT 52.998779 -110.006943 33,000 57 536 64
2020-09-06 08:05:12 GMT 52.998779 -110.006943 33,000 56 535 64
2020-09-06 08:05:08 GMT 52.994064 -110.018997 33,000 57 537 128
2020-09-06 08:05:03 GMT 52.984909 -110.042877 33,000 57 537 -64
2020-09-06 08:04:58 GMT 52.980789 -110.053711 33,000 58 538 -128
2020-09-06 08:04:51 GMT 52.971279 -110.079323 33,000 58 539 64
2020-09-06 08:04:48 GMT 52.966995 -110.090935 33,000 58 540 64
2020-09-06 08:04:42 GMT 52.957443 -110.117111 33,000 58 541 0
2020-09-06 08:04:38 GMT 52.953960 -110.126717 33,000 58 541 -128
2020-09-06 08:04:32 GMT 52.945679 -110.149460 33,000 58 542 -128
2020-09-06 08:04:28 GMT 52.940369 -110.163956 33,025 58 542 0
2020-09-06 08:04:20 GMT 52.924496 -110.207703 33,000 58 543 0
2020-09-06 08:04:16 GMT 52.924496 -110.207703 33,000 58 543 0
2020-09-06 08:04:10 GMT 52.916061 -110.230789 33,000 58 544 64
2020-09-06 08:04:07 GMT 52.912949 -110.239326 33,000 58 544 64
2020-09-06 08:04:00 GMT 52.905441 -110.259933 33,000 58 543 0
2020-09-06 08:03:56 GMT 52.899445 -110.276260 33,000 58 543 0
2020-09-06 08:03:49 GMT 52.889099 -110.304718 33,000 58 543 0
2020-09-06 08:03:46 GMT 52.885849 -110.313568 33,000 58 543 0
2020-09-06 08:03:38 GMT 52.875961 -110.340500 33,000 58 543 0
2020-09-06 08:03:35 GMT 52.872028 -110.351151 33,000 58 543 0
2020-09-06 08:03:28 GMT 52.861881 -110.378777 33,000 58 543 0
2020-09-06 08:03:25 GMT 52.857330 -110.391159 33,000 58 543 0
2020-09-06 08:03:18 GMT 52.850571 -110.409615 33,000 58 542 0
2020-09-06 08:03:15 GMT 52.844833 -110.425186 33,000 58 542 0
2020-09-06 08:03:11 GMT 52.841446 -110.434334 33,000 58 542 0
2020-09-06 08:03:07 GMT 52.834183 -110.454185 33,000 58 542 0
2020-09-06 08:03:01 GMT 52.828445 -110.469666 33,000 58 542 0
2020-09-06 08:02:58 GMT 52.823753 -110.482361 33,000 58 542 0
2020-09-06 08:02:55 GMT 52.819839 -110.493011 33,000 58 542 0
2020-09-06 08:02:52 GMT 52.814491 -110.507469 33,000 58 542 0
2020-09-06 08:02:46 GMT 52.807091 -110.527565 33,000 58 542 0
2020-09-06 08:02:41 GMT 52.802528 -110.539879 33,000 58 541 64
2020-09-06 08:02:36 GMT 52.796288 -110.556755 33,000 58 541 0
2020-09-06 08:02:32 GMT 52.789261 -110.575745 33,000 58 541 0
2020-09-06 08:02:27 GMT 52.783115 -110.592224 33,000 58 540 0
2020-09-06 08:02:24 GMT 52.778687 -110.604172 33,000 58 540 0
2020-09-06 08:02:21 GMT 52.775806 -110.611923 33,000 58 540 0
2020-09-06 08:02:16 GMT 52.769165 -110.629807 33,000 58 540 0
2020-09-06 08:02:13 GMT 52.765503 -110.639648 33,000 58 540 0
2020-09-06 08:02:10 GMT 52.762253 -110.648422 33,000 58 540 0
2020-09-06 08:02:06 GMT 52.755604 -110.666306 33,000 58 540 0
2020-09-06 08:02:00 GMT 52.748978 -110.684204 33,000 58 540 0
2020-09-06 08:01:53 GMT 52.737633 -110.714645 33,000 58 540 0
2020-09-06 08:01:50 GMT 52.735165 -110.721313 33,000 58 540 0
2020-09-06 08:01:44 GMT 52.727966 -110.740585 33,000 58 540 0
2020-09-06 08:01:40 GMT 52.721851 -110.757019 33,000 58 540 0
2020-09-06 08:01:32 GMT 52.710632 -110.787071 33,000 58 540 0
2020-09-06 08:01:28 GMT 52.705948 -110.799713 33,000 58 540 0
2020-09-06 08:01:21 GMT 52.696930 -110.823822 33,000 58 540 0
2020-09-06 08:01:18 GMT 52.692478 -110.835648 33,000 58 540 0
2020-09-06 08:01:14 GMT 52.687031 -110.850327 33,000 58 539 0
2020-09-06 08:01:09 GMT 52.677582 -110.875435 33,000 58 539 0
2020-09-06 08:01:03 GMT 52.673813 -110.885559 33,000 58 539 0
2020-09-06 08:01:00 GMT 52.669373 -110.897369 33,000 58 539 0
2020-09-06 08:00:56 GMT 52.664291 -110.910950 33,000 58 539 64
2020-09-06 08:00:53 GMT 52.660076 -110.922127 33,000 58 539 64
2020-09-06 08:00:48 GMT 52.654072 -110.938133 33,000 58 539 64
2020-09-06 08:00:44 GMT 52.650146 -110.948639 33,000 58 539 0
2020-09-06 08:00:41 GMT 52.645973 -110.959793 33,000 58 539 0
2020-09-06 08:00:38 GMT 52.640339 -110.974709 33,000 58 538 0
2020-09-06 08:00:35 GMT 52.637035 -110.983414 33,000 58 538 0
2020-09-06 08:00:31 GMT 52.631680 -110.997696 33,000 58 538 0
2020-09-06 08:00:27 GMT 52.627762 -111.008072 33,000 58 538 0
2020-09-06 08:00:24 GMT 52.623302 -111.019905 33,000 58 538 0
2020-09-06 08:00:20 GMT 52.618607 -111.032410 33,000 58 538 0
2020-09-06 08:00:17 GMT 52.613106 -111.046982 33,000 58 538 0
2020-09-06 08:00:11 GMT 52.605240 -111.067856 33,000 58 538 0
2020-09-06 08:00:08 GMT 52.600754 -111.079636 33,000 58 538 -64
2020-09-06 08:00:04 GMT 52.595673 -111.093140 33,000 58 538 -64
2020-09-06 08:00:00 GMT 52.591320 -111.104576 33,000 58 538 0
2020-09-06 07:59:56 GMT 52.582397 -111.128159 33,000 58 538 0
2020-09-06 07:59:53 GMT 52.582397 -111.128159 33,000 58 538 0
2020-09-06 07:59:50 GMT 52.577682 -111.140671 33,000 58 539 0
2020-09-06 07:59:47 GMT 52.573353 -111.152054 33,000 58 539 0
2020-09-06 07:59:43 GMT 52.568741 -111.164223 33,000 58 539 0
2020-09-06 07:59:38 GMT 52.563202 -111.178818 33,000 58 539 0
2020-09-06 07:59:35 GMT 52.558731 -111.190567 33,000 58 539 0
2020-09-06 07:59:32 GMT 52.554932 -111.200638 33,000 58 539 0
2020-09-06 07:59:29 GMT 52.550079 -111.213455 33,000 58 539 0
2020-09-06 07:59:24 GMT 52.545044 -111.226578 33,000 58 539 0
2020-09-06 07:59:21 GMT 52.541088 -111.236961 33,000 58 539 0
2020-09-06 07:59:18 GMT 52.535969 -111.250465 33,000 58 539 0
2020-09-06 07:59:12 GMT 52.527420 -111.273041 33,000 58 539 0
2020-09-06 07:59:07 GMT 52.522144 -111.286873 33,000 57 539 0
2020-09-06 07:59:01 GMT 52.513824 -111.308670 33,000 57 539 0
2020-09-06 07:58:57 GMT 52.508698 -111.322174 33,000 57 539 0
2020-09-06 07:58:54 GMT 52.504082 -111.334274 33,000 57 539 0
2020-09-06 07:58:51 GMT 52.500366 -111.343918 33,000 57 539 0
2020-09-06 07:58:46 GMT 52.494583 -111.359146 33,000 57 539 0
2020-09-06 07:58:43 GMT 52.490067 -111.370926 33,000 57 539 0
2020-09-06 07:58:40 GMT 52.486267 -111.380920 33,000 57 539 0
2020-09-06 07:58:37 GMT 52.480820 -111.395111 33,000 57 539 0
2020-09-06 07:58:33 GMT 52.476055 -111.407570 33,000 57 539 0
2020-09-06 07:58:29 GMT 52.472626 -111.416473 33,000 57 539 0
2020-09-06 07:58:23 GMT 52.463104 -111.441345 33,000 57 538 0
2020-09-06 07:58:20 GMT 52.458878 -111.452377 33,000 57 538 0
2020-09-06 07:58:16 GMT 52.453339 -111.466896 33,000 57 538 0
2020-09-06 07:58:12 GMT 52.447147 -111.483055 33,000 57 537 0
2020-09-06 07:58:08 GMT 52.443192 -111.493378 33,000 57 537 0
2020-09-06 07:58:05 GMT 52.439850 -111.501923 33,000 57 537 0
2020-09-06 07:58:01 GMT 52.434723 -111.515350 33,000 57 537 -64
2020-09-06 07:57:58 GMT 52.429691 -111.528336 33,000 57 536 0
2020-09-06 07:57:55 GMT 52.425220 -111.540031 33,000 57 536 0
2020-09-06 07:57:51 GMT 52.419113 -111.555786 33,000 57 536 0
2020-09-06 07:57:47 GMT 52.416378 -111.563026 33,000 57 536 0
2020-09-06 07:57:44 GMT 52.412018 -111.574326 33,000 57 536 0
2020-09-06 07:57:40 GMT 52.406181 -111.589394 33,000 57 536 64
2020-09-06 07:57:37 GMT 52.402084 -111.599983 33,000 57 536 0
2020-09-06 07:57:34 GMT 52.398270 -111.609871 33,000 57 536 0
2020-09-06 07:57:30 GMT 52.392307 -111.625328 33,000 57 535 0
2020-09-06 07:57:26 GMT 52.388626 -111.634903 33,000 57 535 0
2020-09-06 07:57:23 GMT 52.384552 -111.645508 33,000 57 535 0
2020-09-06 07:57:20 GMT 52.380432 -111.656113 33,000 57 536 0
2020-09-06 07:57:13 GMT 52.370384 -111.682068 33,000 57 535 -64
2020-09-06 07:57:10 GMT 52.366562 -111.691971 33,000 57 535 0
2020-09-06 07:57:06 GMT 52.361118 -111.705925 33,000 57 535 0
2020-09-06 07:57:01 GMT 52.356125 -111.718903 33,000 57 536 0
2020-09-06 07:56:57 GMT 52.349762 -111.735306 33,000 57 536 64
2020-09-06 07:56:52 GMT 52.343262 -111.752014 33,000 57 536 64
2020-09-06 07:56:48 GMT 52.337723 -111.766281 33,000 57 536 0
2020-09-06 07:56:45 GMT 52.333748 -111.776550 33,000 57 536 0
2020-09-06 07:56:41 GMT 52.329231 -111.788162 33,000 57 535 0
2020-09-06 07:56:37 GMT 52.321548 -111.807861 33,000 57 535 -64
2020-09-06 07:56:28 GMT 52.311905 -111.832733 33,000 57 535 0
2020-09-06 07:56:25 GMT 52.308060 -111.842651 33,000 57 535 0
2020-09-06 07:56:21 GMT 52.301468 -111.859665 33,000 57 535 0
2020-09-06 07:56:17 GMT 52.292034 -111.883743 33,000 57 534 0
2020-09-06 07:56:10 GMT 52.287937 -111.894341 33,000 57 534 0
2020-09-06 07:56:05 GMT 52.280502 -111.913300 33,000 57 534 0
2020-09-06 07:56:00 GMT 52.273602 -111.930984 33,000 57 534 0
2020-09-06 07:55:54 GMT 52.265533 -111.951675 33,000 57 534 0
2020-09-06 07:55:51 GMT 52.262894 -111.958450 33,000 57 534 0
2020-09-06 07:55:47 GMT 52.256516 -111.974716 33,000 57 533 0
2020-09-06 07:55:42 GMT 52.250153 -111.990967 33,000 57 533 64
2020-09-06 07:55:38 GMT 52.244877 -112.004440 33,000 57 533 0
2020-09-06 07:55:35 GMT 52.240356 -112.015991 33,000 57 533 0
2020-09-06 07:55:31 GMT 52.235733 -112.027817 33,000 57 533 0
2020-09-06 07:55:28 GMT 52.232262 -112.036613 33,000 57 532 0
2020-09-06 07:55:24 GMT 52.221268 -112.064590 33,000 57 532 0
2020-09-06 07:55:16 GMT 52.214951 -112.080765 33,000 57 532 0
2020-09-06 07:55:13 GMT 52.210556 -112.091904 33,000 57 532 -64
2020-09-06 07:55:10 GMT 52.208038 -112.098312 33,000 57 532 0
2020-09-06 07:55:05 GMT 52.201958 -112.113831 33,000 57 532 0
2020-09-06 07:55:01 GMT 52.196789 -112.126938 33,000 57 532 0
2020-09-06 07:54:58 GMT 52.193344 -112.135727 33,000 57 531 0
2020-09-06 07:54:55 GMT 52.187668 -112.150162 33,000 57 531 0
2020-09-06 07:54:52 GMT 52.183136 -112.161560 33,000 57 531 64
2020-09-06 07:54:44 GMT 52.174118 -112.184372 33,000 57 531 0
2020-09-06 07:54:41 GMT 52.170273 -112.194138 33,000 57 531 -64
2020-09-06 07:54:36 GMT 52.163132 -112.212219 33,000 57 531 0
2020-09-06 07:54:31 GMT 52.154289 -112.234680 33,000 57 530 0
2020-09-06 07:54:24 GMT 52.146469 -112.254410 33,000 57 529 0
2020-09-06 07:54:20 GMT 52.141438 -112.267166 33,000 57 530 0
2020-09-06 07:54:14 GMT 52.135117 -112.283173 33,000 57 529 0
2020-09-06 07:54:11 GMT 52.129803 -112.296593 33,000 57 529 0
2020-09-06 07:54:03 GMT 52.119373 -112.322960 33,000 57 529 0
2020-09-06 07:54:00 GMT 52.115788 -112.331909 33,000 57 528 0
2020-09-06 07:53:54 GMT 52.107597 -112.352547 33,000 57 528 0
2020-09-06 07:53:50 GMT 52.101639 -112.367538 33,000 57 528 0
2020-09-06 07:53:42 GMT 52.091812 -112.392174 33,000 57 528 0
2020-09-06 07:53:39 GMT 52.087997 -112.401833 33,000 57 528 0
2020-09-06 07:53:32 GMT 52.077522 -112.428040 33,000 57 527 0
2020-09-06 07:53:29 GMT 52.073986 -112.437065 33,000 57 527 0
2020-09-06 07:53:23 GMT 52.066303 -112.456291 33,000 57 527 0
2020-09-06 07:53:18 GMT 52.059952 -112.472229 33,000 57 527 0
2020-09-06 07:53:11 GMT 52.050709 -112.495369 33,000 57 526 0
2020-09-06 07:53:07 GMT 52.046192 -112.506592 33,000 57 526 0
2020-09-06 07:53:00 GMT 52.036697 -112.530449 33,000 57 525 0
2020-09-06 07:52:57 GMT 52.032715 -112.540359 33,000 57 525 0
2020-09-06 07:52:49 GMT 52.022682 -112.565369 33,000 56 524 0
2020-09-06 07:52:46 GMT 52.018753 -112.575302 33,000 56 524 0
2020-09-06 07:52:40 GMT 52.009003 -112.599640 33,000 56 524 0
2020-09-06 07:52:36 GMT 52.004482 -112.610802 33,000 56 524 0
2020-09-06 07:52:29 GMT 51.995544 -112.633171 33,000 56 524 0
2020-09-06 07:52:25 GMT 51.990517 -112.645729 33,000 56 523 0
2020-09-06 07:52:19 GMT 51.982864 -112.664719 33,000 56 523 0
2020-09-06 07:52:16 GMT 51.977325 -112.678452 33,000 56 523 0
2020-09-06 07:52:09 GMT 51.967987 -112.701759 33,000 56 523 0
2020-09-06 07:52:04 GMT 51.963379 -112.713211 33,000 56 522 0
2020-09-06 07:51:58 GMT 51.954529 -112.735138 33,000 56 522 0
2020-09-06 07:51:55 GMT 51.949677 -112.747192 33,000 56 522 0
2020-09-06 07:51:48 GMT 51.940430 -112.770081 33,000 56 521 0
2020-09-06 07:51:44 GMT 51.936081 -112.780838 33,000 56 521 0
2020-09-06 07:51:37 GMT 51.926743 -112.804031 33,000 56 521 64
2020-09-06 07:51:34 GMT 51.922119 -112.815399 33,000 56 522 0
2020-09-06 07:51:27 GMT 51.913567 -112.836571 33,000 56 521 0
2020-09-06 07:51:23 GMT 51.908295 -112.849579 33,000 56 521 -64
2020-09-06 07:51:17 GMT 51.899460 -112.871414 33,000 56 521 0
2020-09-06 07:51:13 GMT 51.894196 -112.884445 33,000 56 520 0
2020-09-06 07:51:06 GMT 51.885727 -112.905197 33,000 56 521 0
2020-09-06 07:51:02 GMT 51.880978 -112.916946 33,000 56 520 0
2020-09-06 07:50:56 GMT 51.872414 -112.938004 33,000 56 520 0
2020-09-06 07:50:52 GMT 51.866867 -112.951630 33,000 56 520 0
2020-09-06 07:50:45 GMT 51.858948 -112.971077 33,000 56 519 0
2020-09-06 07:50:41 GMT 51.853188 -112.985306 33,000 56 519 0
2020-09-06 07:50:35 GMT 51.845123 -113.005074 33,000 56 519 0
2020-09-06 07:50:31 GMT 51.838943 -113.020248 33,000 56 519 64
2020-09-06 07:50:25 GMT 51.831161 -113.039291 33,000 56 518 0
2020-09-06 07:50:20 GMT 51.825581 -113.052902 33,000 56 518 -64
2020-09-06 07:50:14 GMT 51.817291 -113.073219 33,000 56 519 0
2020-09-06 07:50:10 GMT 51.811382 -113.087769 33,000 56 519 64
2020-09-06 07:50:06 GMT 51.807541 -113.097122 33,000 56 518 64
2020-09-06 07:50:03 GMT 51.803329 -113.107452 33,000 56 518 64
2020-09-06 07:49:59 GMT 51.797928 -113.120651 33,000 56 518 0
2020-09-06 07:49:53 GMT 51.789734 -113.140625 33,000 56 518 0
2020-09-06 07:49:49 GMT 51.783783 -113.155098 33,000 56 518 0
2020-09-06 07:49:43 GMT 51.776413 -113.173134 33,000 56 518 0
2020-09-06 07:49:38 GMT 51.770092 -113.188629 33,000 56 518 0
2020-09-06 07:49:33 GMT 51.762409 -113.207245 33,000 56 518 0
2020-09-06 07:49:28 GMT 51.755905 -113.223022 33,000 56 518 0
2020-09-06 07:49:22 GMT 51.748627 -113.240685 33,000 56 518 -64
2020-09-06 07:49:17 GMT 51.742161 -113.256454 33,000 56 518 0
2020-09-06 07:49:12 GMT 51.734619 -113.274757 33,000 56 518 0
2020-09-06 07:49:07 GMT 51.728943 -113.288643 33,000 56 518 0
2020-09-06 07:49:00 GMT 51.720329 -113.309479 33,000 56 518 0
2020-09-06 07:48:54 GMT 51.711483 -113.330994 33,000 56 518 0
2020-09-06 07:48:51 GMT 51.706970 -113.341942 33,000 56 518 0
2020-09-06 07:48:43 GMT 51.695435 -113.369850 33,000 56 518 0
2020-09-06 07:48:40 GMT 51.692768 -113.376236 33,000 56 519 0
2020-09-06 07:48:36 GMT 51.686920 -113.390411 33,000 56 519 0
2020-09-06 07:48:30 GMT 51.679081 -113.409271 33,000 56 519 0
2020-09-06 07:48:22 GMT 51.669662 -113.432053 33,000 56 519 0
2020-09-06 07:48:18 GMT 51.664764 -113.443932 33,000 56 519 0
2020-09-06 07:48:15 GMT 51.659157 -113.457413 33,000 56 519 0
2020-09-06 07:48:09 GMT 51.651478 -113.475952 33,000 56 519 0
2020-09-06 07:48:01 GMT 51.641888 -113.499069 33,000 56 519 0
2020-09-06 07:47:57 GMT 51.637093 -113.510590 33,000 56 518 0
2020-09-06 07:47:52 GMT 51.628059 -113.532333 33,000 56 518 0
2020-09-06 07:47:47 GMT 51.623840 -113.542511 33,000 56 518 0
2020-09-06 07:47:40 GMT 51.614227 -113.565521 33,000 56 517 0
2020-09-06 07:47:36 GMT 51.609329 -113.577332 33,000 56 518 0
2020-09-06 07:47:31 GMT 51.600540 -113.598335 33,000 56 518 0
2020-09-06 07:47:27 GMT 51.595734 -113.609772 33,000 56 517 0
2020-09-06 07:47:21 GMT 51.589096 -113.625717 33,000 56 517 0
2020-09-06 07:47:17 GMT 51.581650 -113.643570 33,000 56 517 0
2020-09-06 07:47:12 GMT 51.575783 -113.657532 33,000 56 517 0
2020-09-06 07:47:06 GMT 51.567947 -113.676277 33,000 56 516 0
2020-09-06 07:46:59 GMT 51.557953 -113.700180 33,000 56 516 0
2020-09-06 07:46:55 GMT 51.553162 -113.711617 33,000 56 516 0
2020-09-06 07:46:49 GMT 51.545338 -113.730316 33,000 56 516 0
2020-09-06 07:46:45 GMT 51.540253 -113.742416 33,000 56 517 -64
2020-09-06 07:46:40 GMT 51.533752 -113.758011 33,000 56 517 -64
2020-09-06 07:46:35 GMT 51.526016 -113.776421 33,000 56 517 0
2020-09-06 07:46:30 GMT 51.519745 -113.791336 33,000 56 517 0
2020-09-06 07:46:26 GMT 51.514435 -113.804031 33,000 56 517 0
2020-09-06 07:46:23 GMT 51.512009 -113.809746 33,000 56 517 64
2020-09-06 07:46:18 GMT 51.502121 -113.833282 33,000 56 517 0
2020-09-06 07:46:14 GMT 51.498413 -113.842163 33,000 56 517 0
2020-09-06 07:46:09 GMT 51.491592 -113.858299 33,000 55 517 -64
2020-09-06 07:46:05 GMT 51.487568 -113.867798 33,000 55 517 -64
2020-09-06 07:46:02 GMT 51.483936 -113.876419 33,000 55 517 0
2020-09-06 07:45:56 GMT 51.474197 -113.899498 33,000 55 517 0
2020-09-06 07:45:53 GMT 51.470436 -113.908386 33,000 55 517 0
2020-09-06 07:45:48 GMT 51.463760 -113.924217 33,000 55 516 0
2020-09-06 07:45:45 GMT 51.459774 -113.933716 33,000 55 516 0
2020-09-06 07:45:42 GMT 51.456253 -113.941956 33,000 55 516 0
2020-09-06 07:45:37 GMT 51.449707 -113.957474 33,000 55 516 0
2020-09-06 07:45:34 GMT 51.441971 -113.975807 33,000 55 516 0
2020-09-06 07:45:26 GMT 51.432728 -113.997650 33,000 55 516 0
2020-09-06 07:45:21 GMT 51.428074 -114.008713 33,000 55 516 0
2020-09-06 07:45:16 GMT 51.421787 -114.023514 33,000 55 516 0
2020-09-06 07:45:12 GMT 51.416157 -114.036789 33,000 55 516 0
2020-09-06 07:45:09 GMT 51.412674 -114.044991 33,000 55 516 0
2020-09-06 07:45:05 GMT 51.405167 -114.062660 33,000 55 516 0
2020-09-06 07:44:59 GMT 51.398792 -114.077835 33,000 55 516 0
2020-09-06 07:44:54 GMT 51.390739 -114.096756 33,000 55 516 0
2020-09-06 07:44:49 GMT 51.385391 -114.109352 33,000 55 516 0
2020-09-06 07:44:43 GMT 51.377750 -114.127274 33,000 55 515 64
2020-09-06 07:44:40 GMT 51.372257 -114.140167 33,000 55 516 64
2020-09-06 07:44:34 GMT 51.363281 -114.161240 33,000 55 515 0
2020-09-06 07:44:29 GMT 51.358337 -114.172890 33,000 55 515 0
2020-09-06 07:44:23 GMT 51.350281 -114.191750 33,000 55 515 -64
2020-09-06 07:44:19 GMT 51.344280 -114.205856 33,000 55 515 -64
2020-09-06 07:44:14 GMT 51.337555 -114.221588 33,000 55 515 -64
2020-09-06 07:44:11 GMT 51.333572 -114.230957 33,000 55 515 0
2020-09-06 07:44:08 GMT 51.329941 -114.239426 33,000 55 515 64
2020-09-06 07:44:01 GMT 51.321095 -114.260101 33,000 55 514 0
2020-09-06 07:43:58 GMT 51.316395 -114.271088 33,000 55 515 0
2020-09-06 07:43:52 GMT 51.307037 -114.293060 33,000 55 515 0
2020-09-06 07:43:46 GMT 51.301682 -114.305573 33,000 55 514 0
2020-09-06 07:43:40 GMT 51.293674 -114.324341 33,000 55 515 0
2020-09-06 07:43:37 GMT 51.288025 -114.337463 33,000 55 514 -64
2020-09-06 07:43:30 GMT 51.279804 -114.356537 33,000 55 514 -64
2020-09-06 07:43:26 GMT 51.273659 -114.370880 33,000 55 514 64
2020-09-06 07:43:19 GMT 51.263184 -114.395294 33,000 55 514 0
2020-09-06 07:43:16 GMT 51.259972 -114.402771 33,000 55 514 0
2020-09-06 07:43:09 GMT 51.251770 -114.421791 33,000 55 514 -64
2020-09-06 07:43:05 GMT 51.245728 -114.435806 33,000 55 514 0
2020-09-06 07:43:00 GMT 51.238045 -114.453583 33,000 55 514 64
2020-09-06 07:42:57 GMT 51.236046 -114.458237 33,000 55 514 0
2020-09-06 07:42:54 GMT 51.231342 -114.469147 33,000 55 514 64
2020-09-06 07:42:50 GMT 51.225151 -114.483490 33,000 55 514 -64
2020-09-06 07:42:47 GMT 51.220867 -114.493484 33,000 55 514 -128
2020-09-06 07:42:43 GMT 51.216679 -114.503098 33,000 55 513 -64
2020-09-06 07:42:39 GMT 51.211044 -114.516220 33,000 55 513 0
2020-09-06 07:42:36 GMT 51.207001 -114.525490 33,000 55 513 0
2020-09-06 07:42:33 GMT 51.203659 -114.533287 33,000 55 513 0
2020-09-06 07:42:27 GMT 51.194000 -114.555634 33,000 55 513 0
2020-09-06 07:42:24 GMT 51.189285 -114.566544 33,000 55 513 0
2020-09-06 07:42:18 GMT 51.182415 -114.582367 33,000 55 513 0
2020-09-06 07:42:15 GMT 51.179577 -114.588852 33,000 55 513 -64
2020-09-06 07:42:12 GMT 51.175003 -114.599426 33,000 55 513 -64
2020-09-06 07:42:08 GMT 51.168274 -114.614944 33,000 55 513 0
2020-09-06 07:42:03 GMT 51.161560 -114.630432 33,000 55 513 64
2020-09-06 07:41:55 GMT 51.151062 -114.654579 33,000 55 513 0
2020-09-06 07:41:52 GMT 51.147400 -114.662895 33,000 55 513 64
2020-09-06 07:41:44 GMT 51.137421 -114.685837 33,000 55 513 -64
2020-09-06 07:41:41 GMT 51.132324 -114.697571 33,000 55 512 -128
2020-09-06 07:41:35 GMT 51.124100 -114.716415 33,000 55 512 0
2020-09-06 07:41:30 GMT 51.118835 -114.728439 33,000 55 512 0
2020-09-06 07:41:24 GMT 51.110504 -114.747665 33,000 55 512 64
2020-09-06 07:41:21 GMT 51.104721 -114.760895 33,000 55 512 64
2020-09-06 07:41:16 GMT 51.098110 -114.776077 33,000 55 512 64
2020-09-06 07:41:10 GMT 51.091187 -114.791763 33,000 55 512 0
2020-09-06 07:41:04 GMT 51.081631 -114.813690 33,000 55 512 0
2020-09-06 07:41:00 GMT 51.076218 -114.826057 33,000 55 513 0
2020-09-06 07:40:55 GMT 51.070038 -114.840317 33,000 55 513 -64
2020-09-06 07:40:51 GMT 51.066643 -114.848022 33,000 55 513 -64
2020-09-06 07:40:48 GMT 51.061382 -114.860077 33,000 55 513 -64
2020-09-06 07:40:42 GMT 51.053970 -114.877052 33,000 55 513 -64
2020-09-06 07:40:37 GMT 51.046669 -114.893723 33,000 55 513 0
2020-09-06 07:40:32 GMT 51.039875 -114.909134 33,000 55 513 0
2020-09-06 07:40:28 GMT 51.034054 -114.922485 33,000 55 514 0
2020-09-06 07:40:21 GMT 51.025909 -114.941414 33,000 55 514 0
2020-09-06 07:40:17 GMT 51.019547 -114.956406 33,000 56 514 0
2020-09-06 07:40:12 GMT 51.012455 -114.973373 33,000 56 515 -64
2020-09-06 07:40:08 GMT 51.006866 -114.986954 33,000 57 516 0
2020-09-06 07:40:00 GMT 50.998352 -115.007927 33,000 57 516 64
2020-09-06 07:39:53 GMT 50.988808 -115.031891 33,000 57 516 64
2020-09-06 07:39:50 GMT 50.985764 -115.039551 33,000 58 518 0
2020-09-06 07:39:41 GMT 50.972763 -115.073547 33,000 59 517 0
2020-09-06 07:39:35 GMT 50.967018 -115.088806 33,000 59 517 -128
2020-09-06 07:39:29 GMT 50.959854 -115.108063 33,000 59 517 -64
2020-09-06 07:39:20 GMT 50.947701 -115.140610 33,025 59 516 128
2020-09-06 07:39:14 GMT 50.940437 -115.160141 33,025 59 516 64
2020-09-06 07:39:09 GMT 50.935364 -115.173836 33,000 59 516 192
2020-09-06 07:39:04 GMT 50.928242 -115.192947 32,975 59 516 128
2020-09-06 07:38:59 GMT 50.922749 -115.207596 32,975 59 516 64
2020-09-06 07:38:48 GMT 50.902451 -115.261871 33,000 59 518 0
2020-09-06 07:38:38 GMT 50.897331 -115.275574 33,000 59 518 0
2020-09-06 07:38:28 GMT 50.884415 -115.309975 33,000 59 518 0
2020-09-06 07:38:16 GMT 50.870842 -115.346146 33,000 59 518 -64
2020-09-06 07:38:11 GMT 50.864883 -115.362015 33,000 59 518 -64
2020-09-06 07:38:06 GMT 50.858643 -115.378639 33,000 59 517 -128
2020-09-06 07:37:56 GMT 50.846169 -115.411758 33,000 59 517 0
2020-09-06 07:37:44 GMT 50.831738 -115.450058 33,000 59 517 0
2020-09-06 07:37:35 GMT 50.820511 -115.479897 33,000 59 517 0
2020-09-06 07:37:24 GMT 50.807190 -115.515228 33,025 59 517 0
2020-09-06 07:37:15 GMT 50.795055 -115.547256 33,000 59 517 128
2020-09-06 07:37:03 GMT 50.780960 -115.584335 32,975 59 516 -64
2020-09-06 07:36:58 GMT 50.775925 -115.597626 33,000 59 516 -128
2020-09-06 07:36:53 GMT 50.767593 -115.619522 33,000 59 516 -64
2020-09-06 07:36:49 GMT 50.762981 -115.631790 33,000 59 516 64
2020-09-06 07:36:42 GMT 50.755783 -115.650848 33,000 59 516 64
2020-09-06 07:36:35 GMT 50.747406 -115.672745 33,000 59 516 64
2020-09-06 07:36:32 GMT 50.742638 -115.685349 32,975 59 516 64
2020-09-06 07:36:28 GMT 50.736866 -115.700455 33,000 59 516 0
2020-09-06 07:36:22 GMT 50.730606 -115.716919 33,000 59 516 0
2020-09-06 07:36:17 GMT 50.724838 -115.731987 33,000 59 516 0
2020-09-06 07:36:13 GMT 50.719574 -115.745865 33,000 58 515 -64
2020-09-06 07:36:05 GMT 50.710236 -115.770287 33,000 58 515 -64
2020-09-06 07:35:59 GMT 50.702370 -115.790863 33,000 58 515 -64
2020-09-06 07:35:56 GMT 50.698700 -115.800499 33,000 58 515 0
2020-09-06 07:35:51 GMT 50.693665 -115.813637 33,000 58 515 0
2020-09-06 07:35:45 GMT 50.685471 -115.835114 33,000 58 515 0
2020-09-06 07:35:42 GMT 50.680435 -115.848305 33,000 58 515 -64
2020-09-06 07:35:35 GMT 50.673321 -115.866928 33,000 58 515 -64
2020-09-06 07:35:31 GMT 50.668030 -115.880684 33,000 58 515 -64
2020-09-06 07:35:24 GMT 50.660053 -115.901527 33,000 58 515 0
2020-09-06 07:35:21 GMT 50.655724 -115.912743 33,000 58 515 64
2020-09-06 07:35:15 GMT 50.647625 -115.933899 33,000 58 515 64
2020-09-06 07:35:08 GMT 50.639011 -115.956314 33,000 58 514 0
2020-09-06 07:34:57 GMT 50.626720 -115.988312 33,000 58 514 0
2020-09-06 07:34:50 GMT 50.616989 -116.013527 33,000 58 514 0
2020-09-06 07:34:39 GMT 50.604424 -116.045982 33,000 58 514 64
2020-09-06 07:34:28 GMT 50.591492 -116.079521 33,000 58 514 0
2020-09-06 07:34:18 GMT 50.578812 -116.112335 33,000 58 513 -128
2020-09-06 07:34:07 GMT 50.565647 -116.146347 33,000 58 515 0
2020-09-06 07:33:58 GMT 50.553040 -116.178902 33,000 58 515 -64
2020-09-06 07:33:47 GMT 50.540417 -116.211372 33,000 58 515 0
2020-09-06 07:33:37 GMT 50.527519 -116.244484 33,000 58 516 128
2020-09-06 07:33:26 GMT 50.514484 -116.278038 32,975 58 516 0
2020-09-06 07:33:16 GMT 50.501770 -116.310593 33,000 58 516 -64
2020-09-06 07:33:04 GMT 50.480530 -116.365089 33,000 58 516 -256
2020-09-06 07:32:55 GMT 50.475521 -116.377800 33,025 58 515 -128
2020-09-06 07:32:44 GMT 50.462345 -116.411575 33,000 58 517 128
2020-09-06 07:32:35 GMT 50.436768 -116.476982 33,000 58 517 64
2020-09-06 07:32:24 GMT 50.436768 -116.476982 33,000 58 518 64
2020-09-06 07:32:14 GMT 50.423473 -116.510826 33,000 58 518 64
2020-09-06 07:32:03 GMT 50.410625 -116.543411 33,000 58 519 -64
2020-09-06 07:31:53 GMT 50.397675 -116.576286 33,000 58 519 0
2020-09-06 07:31:43 GMT 50.384216 -116.610474 33,000 58 519 64
2020-09-06 07:31:31 GMT 50.370895 -116.644302 33,000 58 518 -64
2020-09-06 07:31:21 GMT 50.358025 -116.676811 33,000 58 518 -64
2020-09-06 07:31:11 GMT 50.345215 -116.709206 33,025 58 517 -64
2020-09-06 07:30:59 GMT 50.323948 -116.762840 33,000 58 517 64
2020-09-06 07:30:51 GMT 50.319077 -116.775200 33,000 58 517 -128
2020-09-06 07:30:39 GMT 50.305847 -116.808449 33,000 58 517 64
2020-09-06 07:30:28 GMT 50.285168 -116.860458 33,000 58 518 0
2020-09-06 07:30:19 GMT 50.280235 -116.872856 33,000 58 518 0
2020-09-06 07:30:09 GMT 50.266872 -116.906410 33,000 58 518 0
2020-09-06 07:29:59 GMT 50.253845 -116.939125 33,000 58 518 64
2020-09-06 07:29:48 GMT 50.240292 -116.972992 33,000 58 518 0
2020-09-06 07:29:38 GMT 50.227489 -117.004990 33,000 58 517 0
2020-09-06 07:29:27 GMT 50.213943 -117.038841 33,000 58 517 0
2020-09-06 07:29:16 GMT 50.200653 -117.071976 33,000 58 517 0
2020-09-06 07:29:07 GMT 50.187607 -117.104431 33,000 57 516 0
2020-09-06 07:28:56 GMT 50.174702 -117.136528 33,000 57 515 0
2020-09-06 07:28:45 GMT 50.161526 -117.169189 33,000 57 515 0
2020-09-06 07:28:36 GMT 50.148605 -117.201210 33,000 57 514 0
2020-09-06 07:28:24 GMT 50.134945 -117.235031 33,000 57 514 0
2020-09-06 07:28:15 GMT 50.121910 -117.267326 33,000 57 514 -64
2020-09-06 07:28:04 GMT 50.109154 -117.298874 33,000 57 514 64
2020-09-06 07:27:53 GMT 50.095825 -117.331673 33,000 57 514 128
2020-09-06 07:27:44 GMT 50.082275 -117.365067 33,000 57 514 -128
2020-09-06 07:27:31 GMT 50.067722 -117.400940 33,000 57 514 128
2020-09-06 07:27:22 GMT 50.056274 -117.428955 33,000 57 514 -128
2020-09-06 07:27:12 GMT 50.043098 -117.461365 33,000 57 514 192
2020-09-06 07:27:01 GMT 50.029877 -117.493805 33,000 57 513 -128
2020-09-06 07:26:46 GMT 50.008896 -117.545113 33,000 57 513 128
2020-09-06 07:26:41 GMT 50.003433 -117.558464 33,000 57 513 -64
2020-09-06 07:26:19 GMT 49.976257 -117.624908 32,975 57 513 64
2020-09-06 07:26:10 GMT 49.963165 -117.656853 33,000 57 514 -128
2020-09-06 07:25:58 GMT 49.949387 -117.690392 33,000 57 513 0
2020-09-06 07:25:47 GMT 49.933979 -117.727859 33,000 57 513 0
2020-09-06 07:25:38 GMT 49.922470 -117.755798 33,000 57 514 0
2020-09-06 07:25:33 GMT 49.917252 -117.768448 33,000 57 514 0
2020-09-06 07:25:27 GMT 49.908829 -117.788902 33,000 57 514 0
2020-09-06 07:25:24 GMT 49.905121 -117.797943 33,000 57 514 0
2020-09-06 07:25:14 GMT 49.892826 -117.827629 33,000 57 514 0
2020-09-06 07:25:03 GMT 49.879028 -117.861038 33,000 57 514 0
2020-09-06 07:24:53 GMT 49.865845 -117.892914 33,000 57 514 0
2020-09-06 07:24:43 GMT 49.852524 -117.925079 33,000 57 514 0
2020-09-06 07:24:33 GMT 49.839066 -117.957535 33,000 57 514 0
2020-09-06 07:24:22 GMT 49.825562 -117.989983 33,000 57 514 0
2020-09-06 07:24:12 GMT 49.812332 -118.021790 33,000 57 513 0
2020-09-06 07:24:01 GMT 49.798462 -118.055107 33,000 57 513 64
2020-09-06 07:23:51 GMT 49.785618 -118.085953 33,000 57 514 0
2020-09-06 07:23:39 GMT 49.771603 -118.119507 33,000 57 514 0
2020-09-06 07:23:34 GMT 49.762985 -118.140175 33,000 57 512 0
2020-09-06 07:23:30 GMT 49.758087 -118.151817 33,000 57 512 0
2020-09-06 07:23:19 GMT 49.744858 -118.183472 33,000 57 512 -64
2020-09-06 07:23:13 GMT 49.735714 -118.205246 33,000 57 512 -64
2020-09-06 07:23:09 GMT 49.731243 -118.216011 33,025 57 512 0
2020-09-06 07:22:58 GMT 49.718021 -118.247482 33,000 57 512 0
2020-09-06 07:22:47 GMT 49.704666 -118.279312 33,000 57 511 0
2020-09-06 07:22:36 GMT 49.690651 -118.312584 33,000 57 512 0
2020-09-06 07:22:26 GMT 49.676743 -118.345596 33,000 56 511 0
2020-09-06 07:22:16 GMT 49.664017 -118.375877 33,000 56 511 -64
2020-09-06 07:22:06 GMT 49.651016 -118.406670 33,000 56 511 0
2020-09-06 07:21:56 GMT 49.637192 -118.439339 33,000 56 511 0
2020-09-06 07:21:45 GMT 49.623661 -118.471291 33,000 56 510 0
2020-09-06 07:21:35 GMT 49.610275 -118.502945 33,000 56 510 0
2020-09-06 07:21:23 GMT 49.596725 -118.534889 33,000 56 510 0
2020-09-06 07:21:14 GMT 49.583176 -118.566765 33,000 56 510 0
2020-09-06 07:21:02 GMT 49.569397 -118.599144 33,000 56 510 0
2020-09-06 07:20:53 GMT 49.556534 -118.629410 33,000 56 509 0
2020-09-06 07:20:42 GMT 49.542847 -118.661453 33,000 56 509 0
2020-09-06 07:20:32 GMT 49.529572 -118.692604 33,000 56 509 0
2020-09-06 07:20:24 GMT 49.518356 -118.718842 33,000 56 509 0
2020-09-06 07:20:20 GMT 49.515381 -118.725777 33,000 56 509 0
2020-09-06 07:20:14 GMT 49.506767 -118.746025 33,000 56 508 0
2020-09-06 07:20:10 GMT 49.502487 -118.755974 33,000 56 508 0
2020-09-06 07:20:04 GMT 49.493362 -118.777390 33,000 56 508 0
2020-09-06 07:20:00 GMT 49.488289 -118.789154 33,000 56 508 0
2020-09-06 07:19:55 GMT 49.482101 -118.803619 33,000 56 508 0
2020-09-06 07:19:49 GMT 49.475254 -118.819588 33,000 56 508 0
2020-09-06 07:19:46 GMT 49.469948 -118.831909 33,000 56 508 0
2020-09-06 07:19:39 GMT 49.461823 -118.850891 33,000 56 508 0
2020-09-06 07:19:35 GMT 49.456539 -118.863235 33,000 56 508 0
2020-09-06 07:19:28 GMT 49.448254 -118.882462 33,000 56 508 0
2020-09-06 07:19:24 GMT 49.441132 -118.899017 33,000 56 508 0
2020-09-06 07:19:19 GMT 49.434380 -118.914680 33,000 56 508 0
2020-09-06 07:19:07 GMT 49.420788 -118.946228 33,000 56 508 -64
2020-09-06 07:19:01 GMT 49.412781 -118.964806 33,000 56 508 0
2020-09-06 07:18:58 GMT 49.407707 -118.976517 33,000 56 508 0
2020-09-06 07:18:46 GMT 49.393570 -119.009262 33,000 56 508 0
2020-09-06 07:18:41 GMT 49.384781 -119.029678 33,000 56 508 0
2020-09-06 07:18:37 GMT 49.380333 -119.039825 33,000 56 508 0
2020-09-06 07:18:32 GMT 49.374374 -119.053635 33,000 56 508 0
2020-09-06 07:18:26 GMT 49.366699 -119.071304 33,000 56 508 0
2020-09-06 07:18:23 GMT 49.362827 -119.080307 33,000 56 508 -64
2020-09-06 07:18:16 GMT 49.353191 -119.102493 33,000 56 508 0
2020-09-06 07:18:04 GMT 49.339188 -119.134827 33,000 56 507 0
2020-09-06 07:17:55 GMT 49.325821 -119.165604 33,000 56 508 0
2020-09-06 07:17:49 GMT 49.318001 -119.183517 33,000 56 508 0
2020-09-06 07:17:40 GMT 49.307968 -119.206520 33,000 56 508 0
2020-09-06 07:17:34 GMT 49.299007 -119.227104 33,000 56 507 0
2020-09-06 07:17:28 GMT 49.290672 -119.246254 33,000 56 507 0
2020-09-06 07:17:18 GMT 49.277126 -119.277191 33,000 56 507 64
2020-09-06 07:17:07 GMT 49.257854 -119.321281 33,000 56 507 0
2020-09-06 07:17:02 GMT 49.257854 -119.321281 33,000 56 508 0
2020-09-06 07:16:57 GMT 49.248459 -119.342720 33,000 56 508 0
2020-09-06 07:16:48 GMT 49.238163 -119.366165 33,000 56 507 -64
2020-09-06 07:16:40 GMT 49.229965 -119.384903 33,000 56 508 0
2020-09-06 07:16:37 GMT 49.224747 -119.396805 33,000 56 508 64
2020-09-06 07:16:29 GMT 49.215446 -119.417915 33,000 56 508 0
2020-09-06 07:16:21 GMT 49.202782 -119.446754 33,000 56 507 -64
2020-09-06 07:16:09 GMT 49.189377 -119.477257 33,000 56 506 0
2020-09-06 07:16:00 GMT 49.176041 -119.507515 33,000 56 507 64
2020-09-06 07:15:49 GMT 49.162354 -119.538643 33,000 56 507 0
2020-09-06 07:15:39 GMT 49.148876 -119.569199 33,000 56 507 0
2020-09-06 07:15:34 GMT 49.143009 -119.582497 33,000 56 507 0
2020-09-06 07:15:27 GMT 49.134628 -119.601433 33,000 56 507 0
2020-09-06 07:15:23 GMT 49.128532 -119.615379 33,000 56 507 0
2020-09-06 07:15:18 GMT 49.121223 -119.632004 33,000 56 507 0
2020-09-06 07:15:14 GMT 49.115311 -119.645302 33,000 56 506 -64
2020-09-06 07:15:07 GMT 49.107513 -119.663086 33,000 56 507 -64
2020-09-06 07:15:00 GMT 49.097351 -119.686188 33,000 55 505 0
2020-09-06 07:14:57 GMT 49.093826 -119.694214 33,000 56 506 0
2020-09-06 07:14:51 GMT 49.085037 -119.714355 33,025 56 505 0
2020-09-06 07:14:45 GMT 49.077602 -119.731171 33,025 55 505 0
2020-09-06 07:14:41 GMT 49.073959 -119.739426 33,025 55 504 0
2020-09-06 07:14:34 GMT 49.064392 -119.760910 33,000 55 504 0
2020-09-06 07:14:24 GMT 49.050156 -119.792953 33,000 55 505 0
2020-09-06 07:14:17 GMT 49.041664 -119.812050 33,000 55 504 -64
2020-09-06 07:14:12 GMT 49.036331 -119.824081 33,025 55 504 -64
2020-09-06 07:14:08 GMT 49.030308 -119.837563 32,225 55 506 0
2020-09-06 07:14:05 GMT 49.025700 -119.847900 33,025 55 506 64
2020-09-06 07:14:02 GMT 49.023056 -119.853798 33,025 55 507 64
2020-09-06 07:13:59 GMT 49.017151 -119.867035 33,000 55 507 576
2020-09-06 07:13:55 GMT 49.012299 -119.877953 32,950 55 507 960
2020-09-06 07:13:51 GMT 49.003490 -119.897705 32,800 55 507 1280
2020-09-06 07:13:47 GMT 49.003490 -119.897705 32,825 55 507 1280
2020-09-06 07:13:44 GMT 48.998062 -119.909782 32,725 55 507 1344
2020-09-06 07:13:41 GMT 48.994926 -119.916855 32,700 55 507 1344
2020-09-06 07:13:37 GMT 48.987946 -119.932465 32,550 55 508 1600
2020-09-06 07:13:32 GMT 48.982403 -119.944824 32,450 55 508 1600
2020-09-06 07:13:26 GMT 48.973526 -119.964645 32,225 55 509 1216
2020-09-06 07:13:22 GMT 48.969322 -119.974098 32,225 55 509 1088
2020-09-06 07:13:18 GMT 48.962402 -119.989433 32,125 55 509 1216
2020-09-06 07:13:13 GMT 48.952984 -120.010452 32,025 55 509 1472
2020-09-06 07:13:10 GMT 48.952984 -120.010452 31,950 55 510 1600
2020-09-06 07:13:05 GMT 48.946327 -120.025200 31,825 55 510 1536
2020-09-06 07:13:01 GMT 48.940880 -120.037346 31,700 55 511 1536
2020-09-06 07:12:56 GMT 48.936226 -120.047752 31,625 55 511 1536
2020-09-06 07:12:51 GMT 48.929008 -120.063728 31,475 55 512 1664
2020-09-06 07:12:44 GMT 48.918182 -120.087753 31,200 55 514 1664
2020-09-06 07:12:41 GMT 48.914841 -120.095215 31,200 55 514 1664
2020-09-06 07:12:35 GMT 48.907364 -120.111862 31,025 55 515 1728
2020-09-06 07:12:31 GMT 48.901566 -120.124725 30,900 55 515 1664
2020-09-06 07:12:21 GMT 48.888138 -120.154579 30,500 55 517 1792
2020-09-06 07:12:10 GMT 48.873520 -120.186890 30,175 55 520 1984
2020-09-06 07:12:05 GMT 48.866581 -120.202209 30,100 55 520 1920
2020-09-06 07:12:00 GMT 48.859497 -120.217896 29,900 55 522 1984
2020-09-06 07:11:57 GMT 48.855690 -120.226280 29,850 55 522 1984
2020-09-06 07:11:52 GMT 48.849125 -120.240738 29,675 55 522 1920
2020-09-06 07:11:47 GMT 48.843109 -120.254021 29,550 55 523 1856
2020-09-06 07:11:43 GMT 48.834641 -120.272758 29,375 55 523 1664
2020-09-06 07:11:38 GMT 48.830109 -120.282761 29,275 55 524 1472
2020-09-06 07:11:35 GMT 48.825989 -120.291840 29,275 55 524 1472
2020-09-06 07:11:32 GMT 48.821472 -120.301811 29,125 55 524 1472
2020-09-06 07:11:29 GMT 48.816910 -120.311783 29,000 55 524 1664
2020-09-06 07:11:26 GMT 48.812805 -120.320854 28,950 55 525 1728
2020-09-06 07:11:17 GMT 48.801956 -120.344734 28,725 55 525 1856
2020-09-06 07:11:14 GMT 48.797928 -120.353531 28,625 55 526 1984
2020-09-06 07:11:08 GMT 48.788269 -120.374733 28,325 55 528 1920
2020-09-06 07:11:05 GMT 48.783020 -120.386307 28,250 55 528 1728
2020-09-06 07:10:57 GMT 48.773849 -120.406326 28,075 55 528 1792
2020-09-06 07:10:53 GMT 48.768169 -120.418831 28,000 55 528 1920
2020-09-06 07:10:47 GMT 48.758194 -120.440720 27,725 55 529 1664
2020-09-06 07:10:44 GMT 48.754436 -120.448967 27,650 55 529 1472
2020-09-06 07:10:39 GMT 48.748573 -120.461761 27,550 55 532 1600
2020-09-06 07:10:36 GMT 48.744095 -120.471497 27,475 55 529 1664
2020-09-06 07:10:32 GMT 48.738693 -120.483398 27,375 55 530 1856
2020-09-06 07:10:26 GMT 48.729218 -120.504173 27,125 55 532 1856
2020-09-06 07:10:23 GMT 48.725143 -120.513046 27,025 55 532 1792
2020-09-06 07:10:20 GMT 48.720966 -120.522263 26,950 55 532 1664
2020-09-06 07:10:17 GMT 48.718323 -120.528046 26,875 55 532 1664
2020-09-06 07:10:14 GMT 48.713974 -120.537552 26,800 55 533 1920
2020-09-06 07:10:11 GMT 48.708958 -120.548569 26,675 55 533 2304
2020-09-06 07:10:07 GMT 48.702766 -120.562088 26,500 55 535 2112
2020-09-06 07:10:02 GMT 48.695755 -120.577415 26,350 55 535 1664
2020-09-06 07:09:58 GMT 48.691498 -120.586662 26,250 55 535 1600
2020-09-06 07:09:55 GMT 48.685867 -120.598892 26,150 55 535 1536
2020-09-06 07:09:49 GMT 48.677673 -120.616714 26,000 55 536 1600
2020-09-06 07:09:43 GMT 48.670784 -120.631836 25,875 55 536 1728
2020-09-06 07:09:39 GMT 48.662430 -120.649956 25,650 55 536 1664
2020-09-06 07:09:33 GMT 48.655235 -120.665665 25,575 55 536 1280
2020-09-06 07:09:27 GMT 48.647186 -120.683197 25,475 55 536 960
2020-09-06 07:09:24 GMT 48.644073 -120.689957 25,400 55 535 896
2020-09-06 07:09:21 GMT 48.639679 -120.699463 25,400 55 535 896
2020-09-06 07:09:18 GMT 48.633495 -120.712929 25,300 55 533 1088
2020-09-06 07:09:12 GMT 48.625347 -120.730637 25,175 55 533 1472
2020-09-06 07:09:06 GMT 48.618576 -120.745308 25,000 55 533 1152
2020-09-06 07:09:00 GMT 48.610428 -120.763054 24,975 55 533 1024
2020-09-06 07:08:57 GMT 48.604259 -120.776466 24,875 55 532 1024
2020-09-06 07:08:51 GMT 48.595963 -120.794395 24,775 55 530 1280
2020-09-06 07:08:45 GMT 48.586441 -120.814957 24,600 55 530 1600
2020-09-06 07:08:41 GMT 48.582802 -120.822868 24,525 55 530 1472
2020-09-06 07:08:33 GMT 48.570648 -120.849174 24,375 55 527 960
2020-09-06 07:08:30 GMT 48.568275 -120.854309 24,350 55 527 896
2020-09-06 07:08:23 GMT 48.558105 -120.876228 24,225 55 526 1216
2020-09-06 07:08:20 GMT 48.553101 -120.887047 24,150 55 525 1280
2020-09-06 07:08:14 GMT 48.544765 -120.905045 24,025 55 525 1280
2020-09-06 07:08:10 GMT 48.539227 -120.916969 23,950 55 524 1024
2020-09-06 07:08:06 GMT 48.532562 -120.931305 23,775 55 522 1024
2020-09-06 07:08:03 GMT 48.528305 -120.940529 23,800 54 521 1088
2020-09-06 07:08:00 GMT 48.524277 -120.949188 23,750 54 521 1152
2020-09-06 07:07:57 GMT 48.521393 -120.955391 23,700 55 520 1216
2020-09-06 07:07:52 GMT 48.515717 -120.967575 23,625 55 519 1280
2020-09-06 07:07:48 GMT 48.510365 -120.979057 23,550 54 519 1216
2020-09-06 07:07:45 GMT 48.503895 -120.993011 23,450 54 517 1152
2020-09-06 07:07:38 GMT 48.495377 -121.011223 23,375 54 516 1152
2020-09-06 07:07:34 GMT 48.488953 -121.025032 23,225 54 515 1280
2020-09-06 07:07:29 GMT 48.480759 -121.042664 23,100 54 515 1472
2020-09-06 07:07:26 GMT 48.477314 -121.049965 23,025 54 515 1536
2020-09-06 07:07:23 GMT 48.473915 -121.057335 21,400 54 506 1024
2020-09-06 07:07:19 GMT 48.469528 -121.066727 22,875 55 514 1664
2020-09-06 07:07:15 GMT 48.464218 -121.078140 22,825 55 514 1600
2020-09-06 07:07:12 GMT 48.459854 -121.087479 22,650 54 513 1344
2020-09-06 07:07:08 GMT 48.453323 -121.101517 22,575 54 513 1344
2020-09-06 07:07:03 GMT 48.445797 -121.117546 22,450 54 512 1536
2020-09-06 07:06:57 GMT 48.434921 -121.140816 22,225 54 512 1728
2020-09-06 07:06:50 GMT 48.430016 -121.151299 22,125 54 508 1472
2020-09-06 07:06:47 GMT 48.424850 -121.162300 22,050 54 511 1280
2020-09-06 07:06:44 GMT 48.422009 -121.168427 22,000 54 511 1088
2020-09-06 07:06:39 GMT 48.414780 -121.183777 21,900 54 508 1472
2020-09-06 07:06:36 GMT 48.405342 -121.203995 21,750 54 508 1536
2020-09-06 07:06:26 GMT 48.396561 -121.222725 21,575 54 507 1536
2020-09-06 07:06:20 GMT 48.389648 -121.237373 21,450 54 506 1152
2020-09-06 07:06:16 GMT 48.383045 -121.251480 21,400 54 504 960
2020-09-06 07:06:13 GMT 48.379414 -121.259209 21,325 54 504 1024
2020-09-06 07:06:08 GMT 48.372162 -121.274628 21,225 54 503 1216
2020-09-06 07:06:04 GMT 48.366657 -121.286247 21,100 54 502 1664
2020-09-06 07:06:01 GMT 48.364285 -121.291374 21,050 54 502 1728
2020-09-06 07:05:58 GMT 48.359985 -121.300468 20,900 54 502 1600
2020-09-06 07:05:55 GMT 48.356094 -121.308708 20,850 54 501 1408
2020-09-06 07:05:52 GMT 48.350601 -121.320328 20,800 54 500 1024
2020-09-06 07:05:48 GMT 48.345016 -121.332230 20,750 54 498 768
2020-09-06 07:05:44 GMT 48.340496 -121.341827 20,700 54 497 960
2020-09-06 07:05:41 GMT 48.336639 -121.349983 20,650 54 496 1280
2020-09-06 07:05:36 GMT 48.330505 -121.362938 20,575 54 496 1728
2020-09-06 07:05:33 GMT 48.326157 -121.372162 20,425 54 496 1920
2020-09-06 07:05:30 GMT 48.321762 -121.381393 20,300 54 495 1856
2020-09-06 07:05:27 GMT 48.316498 -121.392654 20,200 54 495 1600
2020-09-06 07:05:23 GMT 48.312515 -121.401108 20,125 54 495 1536
2020-09-06 07:05:20 GMT 48.309631 -121.407234 20,025 54 494 1472
2020-09-06 07:05:17 GMT 48.304642 -121.417870 19,975 54 494 1472
2020-09-06 07:05:13 GMT 48.299206 -121.429352 19,875 54 493 1600
2020-09-06 07:05:10 GMT 48.295395 -121.437447 19,775 54 493 1728
2020-09-06 07:05:04 GMT 48.286217 -121.456963 19,575 54 492 1728
2020-09-06 07:05:00 GMT 48.281609 -121.466652 19,475 54 492 1664
2020-09-06 07:04:55 GMT 48.276344 -121.477783 19,250 54 491 1408
2020-09-06 07:04:52 GMT 48.271866 -121.487236 19,300 54 490 1280
2020-09-06 07:04:48 GMT 48.266739 -121.498016 19,225 54 488 1216
2020-09-06 07:04:44 GMT 48.260101 -121.512115 19,000 54 487 1344
2020-09-06 07:04:39 GMT 48.253906 -121.524979 19,000 54 486 1472
2020-09-06 07:04:36 GMT 48.250809 -121.531609 18,925 54 486 1600
2020-09-06 07:04:33 GMT 48.247284 -121.539001 18,825 54 486 1600
2020-09-06 07:04:29 GMT 48.242203 -121.549637 18,825 54 486 1600
2020-09-06 07:04:26 GMT 48.238777 -121.556786 18,625 54 484 1664
2020-09-06 07:04:23 GMT 48.234375 -121.566048 18,575 54 484 1728
2020-09-06 07:04:20 GMT 48.229328 -121.576729 18,500 54 484 1728
2020-09-06 07:04:16 GMT 48.225037 -121.585762 18,400 54 483 1792
2020-09-06 07:04:12 GMT 48.220112 -121.596100 18,075 54 483 1792
2020-09-06 07:04:09 GMT 48.216064 -121.604568 18,200 54 483 1792
2020-09-06 07:04:05 GMT 48.211174 -121.614891 18,075 54 482 1600
2020-09-06 07:04:02 GMT 48.208286 -121.620895 18,050 54 482 1472
2020-09-06 07:03:59 GMT 48.202469 -121.633087 17,925 54 481 1344
2020-09-06 07:03:53 GMT 48.195099 -121.648514 17,750 54 479 1600
2020-09-06 07:03:50 GMT 48.191116 -121.656891 17,700 54 478 1728
2020-09-06 07:03:47 GMT 48.188416 -121.662529 17,650 54 478 1728
2020-09-06 07:03:44 GMT 48.184067 -121.671753 17,550 54 478 1728
2020-09-06 07:03:41 GMT 48.179077 -121.682243 17,425 54 477 1408
2020-09-06 07:03:38 GMT 48.174820 -121.691048 17,350 54 477 1408
2020-09-06 07:03:32 GMT 48.168274 -121.704712 17,225 54 475 1600
2020-09-06 07:03:29 GMT 48.164204 -121.713264 17,125 54 475 1984
2020-09-06 07:03:26 GMT 48.161736 -121.718323 17,075 54 474 2048
2020-09-06 07:03:21 GMT 48.148590 -121.745819 16,800 54 471 1408
2020-09-06 07:03:17 GMT 48.148590 -121.745819 16,775 54 473 1408
2020-09-06 07:03:10 GMT 48.139950 -121.763870 16,425 54 470 1920
2020-09-06 07:03:06 GMT 48.135635 -121.772804 16,525 54 470 1728
2020-09-06 07:03:02 GMT 48.129288 -121.786057 16,350 54 470 1792
2020-09-06 07:02:59 GMT 48.126167 -121.792603 16,325 54 470 1728
2020-09-06 07:02:56 GMT 48.122360 -121.800545 16,200 54 468 1344
2020-09-06 07:02:53 GMT 48.119560 -121.806335 16,125 54 466 1152
2020-09-06 07:02:50 GMT 48.113926 -121.818092 16,075 54 465 1280
2020-09-06 07:02:47 GMT 48.110641 -121.824852 16,025 54 465 1408
2020-09-06 07:02:44 GMT 48.106617 -121.833237 15,925 54 464 1728
2020-09-06 07:02:39 GMT 48.100517 -121.845985 15,775 54 463 1600
2020-09-06 07:02:36 GMT 48.098007 -121.851151 15,700 54 462 1280
2020-09-06 07:02:33 GMT 48.093723 -121.859932 15,675 54 462 1216
2020-09-06 07:02:29 GMT 48.087765 -121.872322 15,575 54 459 1216
2020-09-06 07:02:26 GMT 48.082176 -121.883942 15,475 54 457 1408
2020-09-06 07:02:18 GMT 48.074310 -121.900352 15,300 54 457 1792
2020-09-06 07:02:15 GMT 48.071594 -121.905945 15,225 54 455 1728
2020-09-06 07:02:12 GMT 48.068390 -121.912605 15,150 54 455 1664
2020-09-06 07:02:08 GMT 48.063744 -121.922256 15,075 54 454 1344
2020-09-06 07:02:05 GMT 48.052338 -121.945847 14,950 54 452 1408
2020-09-06 07:02:01 GMT 48.052338 -121.945847 14,850 54 450 1792
2020-09-06 07:01:57 GMT 48.048798 -121.953102 14,775 54 450 1792
2020-09-06 07:01:54 GMT 48.044540 -121.961906 14,700 54 450 1792
2020-09-06 07:01:51 GMT 48.040977 -121.969231 14,575 54 449 1600
2020-09-06 07:01:48 GMT 48.038418 -121.974442 14,525 54 448 1408
2020-09-06 07:01:44 GMT 48.032639 -121.986488 14,425 54 446 1344
2020-09-06 07:01:40 GMT 48.028427 -121.995209 14,325 54 444 1728
2020-09-06 07:01:36 GMT 48.023243 -122.005920 14,150 54 444 2112
2020-09-06 07:01:33 GMT 48.019867 -122.012856 14,150 54 444 2112
2020-09-06 07:01:29 GMT 48.015427 -122.021988 13,900 54 443 1984
2020-09-06 07:01:26 GMT 48.013046 -122.027000 13,900 54 443 1984
2020-09-06 07:01:23 GMT 48.008625 -122.036133 13,725 54 442 1600
2020-09-06 07:01:20 GMT 48.005859 -122.041832 13,725 54 442 1600
2020-09-06 07:01:15 GMT 47.995636 -122.063034 13,525 54 439 1664
2020-09-06 07:01:09 GMT 47.992702 -122.069160 13,400 54 438 1792
2020-09-06 07:01:05 GMT 47.986313 -122.082413 13,200 54 437 1856
2020-09-06 07:01:02 GMT 47.981949 -122.091484 13,125 54 436 1920
2020-09-06 07:00:57 GMT 47.977707 -122.100266 12,975 54 435 1984
2020-09-06 07:00:54 GMT 47.973942 -122.108040 12,900 54 435 1984
2020-09-06 07:00:51 GMT 47.970428 -122.115372 12,800 54 434 2048
2020-09-06 07:00:43 GMT 47.960861 -122.135284 12,525 54 432 1856
2020-09-06 07:00:40 GMT 47.958023 -122.141068 12,475 54 432 1792
2020-09-06 07:00:37 GMT 47.953857 -122.149773 12,350 54 431 1600
2020-09-06 07:00:31 GMT 47.943871 -122.170364 12,175 54 427 1344
2020-09-06 07:00:28 GMT 47.943871 -122.170364 12,150 54 427 1344
2020-09-06 07:00:25 GMT 47.939819 -122.178741 12,075 54 425 1216
2020-09-06 07:00:22 GMT 47.936600 -122.185410 12,025 54 423 1024
2020-09-06 07:00:18 GMT 47.931812 -122.195297 11,975 54 419 832
2020-09-06 07:00:10 GMT 47.922688 -122.214241 11,850 54 412 768
2020-09-06 07:00:07 GMT 47.920212 -122.219330 11,825 54 412 768
2020-09-06 07:00:02 GMT 47.913986 -122.232170 11,750 54 407 832
2020-09-06 06:59:58 GMT 47.908813 -122.242813 11,675 54 403 896
2020-09-06 06:59:55 GMT 47.901306 -122.258263 11,600 54 401 960
2020-09-06 06:59:50 GMT 47.901306 -122.258263 11,600 54 400 960
2020-09-06 06:59:47 GMT 47.897095 -122.266914 11,500 53 395 1024
2020-09-06 06:59:41 GMT 47.890640 -122.280029 11,400 53 391 1024
2020-09-06 06:59:37 GMT 47.886703 -122.288063 11,350 53 388 1088
2020-09-06 06:59:34 GMT 47.879257 -122.303329 11,225 54 379 1216
2020-09-06 06:59:30 GMT 47.879257 -122.303329 11,225 54 382 1152
2020-09-06 06:59:26 GMT 47.875484 -122.311211 11,125 54 380 1152
2020-09-06 06:59:23 GMT 47.872833 -122.316765 11,025 47 367 896
2020-09-06 06:59:18 GMT 47.868736 -122.325157 11,025 52 375 1088
2020-09-06 06:59:14 GMT 47.863663 -122.334595 10,950 48 369 896
2020-09-06 06:59:10 GMT 47.857750 -122.344383 10,875 45 364 896
2020-09-06 06:59:07 GMT 47.855392 -122.348007 10,850 44 362 832
2020-09-06 06:59:04 GMT 47.850906 -122.354324 10,800 41 357 768
2020-09-06 06:59:01 GMT 47.848434 -122.357552 10,775 39 355 768
2020-09-06 06:58:57 GMT 47.842434 -122.364738 10,700 35 348 768
2020-09-06 06:58:54 GMT 47.834007 -122.373466 10,650 32 344 896
2020-09-06 06:58:51 GMT 47.834007 -122.373466 10,450 30 335 1024
2020-09-06 06:58:48 GMT 47.830765 -122.376434 10,575 30 340 1088
2020-09-06 06:58:45 GMT 47.827377 -122.379387 10,525 30 338 1024
2020-09-06 06:58:42 GMT 47.824265 -122.382133 10,500 30 335 1024
2020-09-06 06:58:39 GMT 47.817764 -122.387833 10,400 30 331 1024
2020-09-06 06:58:36 GMT 47.815620 -122.389664 10,350 30 329 960
2020-09-06 06:58:33 GMT 47.810898 -122.393806 10,300 30 325 896
2020-09-06 06:58:30 GMT 47.806496 -122.397697 10,275 30 318 896
2020-09-06 06:58:27 GMT 47.802723 -122.400932 10,225 30 321 896
2020-09-06 06:58:24 GMT 47.799698 -122.403610 10,200 30 318 896
2020-09-06 06:58:21 GMT 47.796112 -122.406715 10,150 30 316 832
2020-09-06 06:58:18 GMT 47.790714 -122.411362 10,075 30 311 1088
2020-09-06 06:58:15 GMT 47.781311 -122.419456 9,925 30 307 2048
2020-09-06 06:58:10 GMT 47.781311 -122.419456 9,850 30 307 2176
2020-09-06 06:58:07 GMT 47.777390 -122.422852 9,725 30 305 2176
2020-09-06 06:58:04 GMT 47.774700 -122.425163 9,675 30 305 2048
2020-09-06 06:58:01 GMT 47.770752 -122.428482 9,550 29 304 2048
2020-09-06 06:57:57 GMT 47.765247 -122.433189 9,400 30 304 2112
2020-09-06 06:57:54 GMT 47.761524 -122.436432 9,150 24 301 2176
2020-09-06 06:57:49 GMT 47.754501 -122.442558 9,050 29 302 2368
2020-09-06 06:57:45 GMT 47.749748 -122.446503 8,900 26 301 2176
2020-09-06 06:57:42 GMT 47.748367 -122.447502 8,875 25 301 2176
2020-09-06 06:57:39 GMT 47.739441 -122.453201 8,650 20 298 2432
2020-09-06 06:57:36 GMT 47.739441 -122.453201 8,600 19 297 2496
2020-09-06 06:57:33 GMT 47.735641 -122.455055 8,475 16 298 2496
2020-09-06 06:57:30 GMT 47.731129 -122.456856 8,325 13 296 2368
2020-09-06 06:57:25 GMT 47.725914 -122.458473 8,175 6 294 2048
2020-09-06 06:57:22 GMT 47.721722 -122.459244 8,075 4 293 2048
2020-09-06 06:57:19 GMT 47.715866 -122.459793 7,900 1 293 2176
2020-09-06 06:57:16 GMT 47.712479 -122.459793 7,825 0 292 2176
2020-09-06 06:57:12 GMT 47.707336 -122.459671 7,700 359 291 1984
2020-09-06 06:57:07 GMT 47.701035 -122.459450 7,450 359 288 2432
2020-09-06 06:57:04 GMT 47.697563 -122.459320 7,425 359 288 2496
2020-09-06 06:57:01 GMT 47.693024 -122.459175 7,300 359 288 2752
2020-09-06 06:56:57 GMT 47.687027 -122.458900 7,100 359 288 2752
2020-09-06 06:56:54 GMT 47.682480 -122.458755 6,925 0 288 2432
2020-09-06 06:56:51 GMT 47.679688 -122.458687 6,875 0 288 2240
2020-09-06 06:56:47 GMT 47.674751 -122.458611 6,750 0 287 1920
2020-09-06 06:56:44 GMT 47.669724 -122.458488 6,625 358 285 1728
2020-09-06 06:56:41 GMT 47.665257 -122.458122 6,575 357 283 1664
2020-09-06 06:56:35 GMT 47.659576 -122.456924 6,425 350 280 1984
2020-09-06 06:56:32 GMT 47.654343 -122.454987 6,225 343 279 2368
2020-09-06 06:56:27 GMT 47.648529 -122.451828 5,950 331 277 2432
2020-09-06 06:56:23 GMT 47.643982 -122.448257 5,875 325 278 2176
2020-09-06 06:56:20 GMT 47.640720 -122.444878 5,675 321 278 1920
2020-09-06 06:56:17 GMT 47.636486 -122.438965 5,650 308 278 1664
2020-09-06 06:56:14 GMT 47.636162 -122.438400 5,650 308 278 1664
2020-09-06 06:56:11 GMT 47.633011 -122.432190 5,500 303 277 1536
2020-09-06 06:56:04 GMT 47.633110 -122.408730 4,900 314 230 1152
2020-09-06 06:56:01 GMT 47.630981 -122.405212 4,900 314 230 1152
2020-09-06 06:55:58 GMT 47.628849 -122.401703 4,900 314 230 1152
2020-09-06 06:55:55 GMT 47.626709 -122.398193 4,900 314 230 1152
2020-09-06 06:55:52 GMT 47.624580 -122.394676 4,900 314 230 1152
2020-09-06 06:55:49 GMT 47.622440 -122.391159 4,900 314 230 1152
2020-09-06 06:55:46 GMT 47.620312 -122.387650 4,900 314 230 1152
2020-09-06 06:55:43 GMT 47.618172 -122.384140 4,900 314 230 1152
2020-09-06 06:55:40 GMT 47.613899 -122.377121 4,900 314 230 1152
2020-09-06 06:55:37 GMT 47.613899 -122.377121 4,900 314 230 1152
2020-09-06 06:55:34 GMT 47.611771 -122.373611 4,900 314 230 640
2020-09-06 06:55:31 GMT 47.609879 -122.369263 4,800 319 226 640
2020-09-06 06:55:28 GMT 47.607769 -122.365517 4,600 322 224 640
2020-09-06 06:55:25 GMT 47.605350 -122.362617 4,600 322 224 640
2020-09-06 06:55:22 GMT 47.603298 -122.359100 4,600 325 228 640
2020-09-06 06:55:19 GMT 47.600700 -122.355942 4,500 326 224 640
2020-09-06 06:55:16 GMT 47.598099 -122.353416 4,500 326 224 640
2020-09-06 06:55:13 GMT 47.595612 -122.350861 4,400 326 226 640
2020-09-06 06:55:10 GMT 47.592850 -122.348442 4,200 324 223 640
2020-09-06 06:55:07 GMT 47.590302 -122.345848 4,200 324 223 640
2020-09-06 06:55:04 GMT 47.587830 -122.343887 4,100 322 230 640
2020-09-06 06:55:01 GMT 47.585098 -122.341888 4,100 322 230 640
2020-09-06 06:54:58 GMT 47.580009 -122.336319 4,000 318 223 640
2020-09-06 06:54:55 GMT 47.580009 -122.336319 4,000 318 223 640
2020-09-06 06:54:52 GMT 47.577702 -122.333282 4,000 318 223 640
2020-09-06 06:54:49 GMT 47.575100 -122.330528 3,900 318 211 640
2020-09-06 06:54:46 GMT 47.572979 -122.327721 3,800 322 207 -320
2020-09-06 06:54:43 GMT 47.570801 -122.324959 3,800 322 207 -320
2020-09-06 06:54:40 GMT 47.568619 -122.321732 3,800 329 193 896
2020-09-06 06:54:37 GMT 47.566479 -122.318268 3,800 338 182 896
2020-09-06 06:54:34 GMT 47.564201 -122.316689 3,800 338 182 1792
2020-09-06 06:54:31 GMT 47.562038 -122.314163 3,700 347 179 1792
2020-09-06 06:54:28 GMT 47.559700 -122.310898 3,700 347 179 1792
2020-09-06 06:54:25 GMT 47.557270 -122.310654 3,600 357 174 1792
2020-09-06 06:54:22 GMT 47.554779 -122.310097 3,600 357 174 1792
2020-09-06 06:54:19 GMT 47.552422 -122.309822 3,600 357 174 1792
2020-09-06 06:54:16 GMT 47.549999 -122.309692 3,400 357 174 1792
2020-09-06 06:54:13 GMT 47.547649 -122.309593 3,400 357 178 1792
2020-09-06 06:54:10 GMT 47.545181 -122.309402 3,300 358 176 1792
2020-09-06 06:54:07 GMT 47.542709 -122.309250 3,300 358 171 1792
2020-09-06 06:54:04 GMT 47.540310 -122.309151 3,300 358 171 1792
2020-09-06 06:54:01 GMT 47.537941 -122.309052 3,300 358 171 1792
2020-09-06 06:53:58 GMT 47.533169 -122.308922 3,000 357 169 1792
2020-09-06 06:53:55 GMT 47.533169 -122.308922 3,000 357 170 1792
2020-09-06 06:53:52 GMT 47.530842 -122.308807 3,000 357 170 1792
2020-09-06 06:53:49 GMT 47.528488 -122.308632 3,000 357 170 1792
2020-09-06 06:53:46 GMT 47.526089 -122.308487 2,700 356 169 1792
2020-09-06 06:53:43 GMT 47.523781 -122.308327 2,700 356 172 1792
2020-09-06 06:53:40 GMT 47.521431 -122.308144 2,700 356 173 1792
2020-09-06 06:53:37 GMT 47.519051 -122.307892 2,500 356 174 1792
2020-09-06 06:53:34 GMT 47.516659 -122.307610 2,500 357 175 1056
2020-09-06 06:53:31 GMT 47.514221 -122.307388 2,300 357 175 1056
2020-09-06 06:53:28 GMT 47.509369 -122.307053 2,300 359 176 1056
2020-09-06 06:53:25 GMT 47.509369 -122.307053 2,100 359 177 1056
2020-09-06 06:53:22 GMT 47.506931 -122.306969 2,100 359 177 1056
2020-09-06 06:53:19 GMT 47.504478 -122.306923 2,100 0 175 1056
2020-09-06 06:53:16 GMT 47.502010 -122.306953 2,100 0 175 1056
2020-09-06 06:53:13 GMT 47.499550 -122.306969 1,975 0 174 1056
2020-09-06 06:53:10 GMT 47.497139 -122.306992 1,700 0 173 1056
2020-09-06 06:53:07 GMT 47.494751 -122.307030 1,700 0 174 1056
2020-09-06 06:53:04 GMT 47.492329 -122.307037 1,700 0 175 1056
2020-09-06 06:53:01 GMT 47.489910 -122.307083 1,700 359 172 1056
2020-09-06 06:52:58 GMT 47.487499 -122.307022 1,500 0 174 1056
2020-09-06 06:52:55 GMT 47.485119 -122.306999 1,400 0 174 1056
2020-09-06 06:52:52 GMT 47.482670 -122.307083 1,350 0 175 1056
2020-09-06 06:52:49 GMT 47.480301 -122.307083 1,200 2 178 1056
2020-09-06 06:52:46 GMT 47.477798 -122.307220 1,150 1 177 1056
2020-09-06 06:52:43 GMT 47.475349 -122.307320 1,075 1 170 1056
2020-09-06 06:52:40 GMT 47.470581 -122.307449 900 359 162 1056
2020-09-06 06:52:37 GMT 47.470581 -122.307449 900 1 164 1056
2020-09-06 06:52:34 GMT 47.468369 -122.307503 825 359 166 1056
2020-09-06 06:52:31 GMT 47.466061 -122.307480 725 358 165 128
2020-09-06 06:52:28 GMT 47.463871 -122.307388 450 0 175 128
2020-09-06 06:52:25 GMT 47.461491 -122.307411 450 0 164 128
2020-09-06 06:52:22 GMT 47.459190 -122.307426 400 2 168 128
2020-09-06 06:52:19 GMT 47.456848 -122.307510 225 2 176 128
2020-09-06 06:52:16 GMT 47.454472 -122.307701 150 1 173 128
2020-09-06 06:52:13 GMT 47.452122 -122.307762 100 1 174 128
2020-09-06 06:52:10 GMT 47.449760 -122.307869 100 0 164 -320
2020-09-06 06:52:07 GMT 47.447510 -122.307938 100 0 157 0
2020-09-06 06:52:04 GMT 47.445419 -122.307938 100 0 147 0
2020-09-06 06:52:01 GMT 47.443432 -122.307968 100 359 132 128
2020-09-06 06:51:58 GMT 47.441608 -122.307938 100 0 125 128
2020-09-06 06:51:55 GMT 47.439919 -122.307961 100 0 115 -320
2020-09-06 06:51:52 GMT 47.438381 -122.307968 0 0 100 0
2020-09-06 06:51:49 GMT 47.437038 -122.307968 0 0 87
2020-09-06 06:51:46 GMT 47.435780 -122.308006 0 0 77
2020-09-06 06:51:43 GMT 47.433910 -122.308029 0 0 59
2020-09-06 06:51:40 GMT 47.433910 -122.308029 0 1 50
2020-09-06 06:51:37 GMT 47.433231 -122.308060 0 2 40
2020-09-06 06:51:34 GMT 47.432751 -122.308083 0 0 17
2020-09-06 06:51:31 GMT 47.432522 -122.308083 0 359 13
2020-09-06 06:51:28 GMT 47.432331 -122.308083 0 352 9
2020-09-06 06:51:25 GMT 47.432209 -122.308052 0 358 6
2020-09-06 06:51:22 GMT 47.432110 -122.308090 0 0 6
2020-09-06 06:51:19 GMT 47.432060 -122.308067 0 11 9
2020-09-06 06:51:16 GMT 47.431911 -122.308067 0 7 3
2020-09-06 06:51:13 GMT 47.431889 -122.308189 0 337 6
2020-09-06 06:51:10 GMT 47.431759 -122.308067 0 31 7
2020-09-06 06:51:07 GMT 47.431671 -122.308098 0 25 7
2020-09-06 06:51:04 GMT 47.431591 -122.308159 0 338 11
2020-09-06 06:51:01 GMT 47.431450 -122.308151 0 295 8
2020-09-06 06:50:58 GMT 47.431381 -122.308006 0 293 9
2020-09-06 06:50:55 GMT 47.431320 -122.307930 0 276 7
2020-09-06 06:50:52 GMT 47.431309 -122.307671 0 278 8
2020-09-06 06:50:49 GMT 47.431290 -122.307510 0 255 1
2020-09-06 06:50:46 GMT 47.431301 -122.307320 0 252 8
2020-09-06 06:50:43 GMT 47.431381 -122.306992 0 245 12
2020-09-06 06:50:40 GMT 47.431381 -122.306992 0 243 15
2020-09-06 06:50:37 GMT 47.431461 -122.306686 0 235 10
2020-09-06 06:50:34 GMT 47.431580 -122.306519 0 210 14
2020-09-06 06:50:31 GMT 47.431740 -122.306396 0 222 14
2020-09-06 06:50:28 GMT 47.431889 -122.306129 0 212 12
2020-09-06 06:50:25 GMT 47.432018 -122.306007 0 208 12
2020-09-06 06:50:22 GMT 47.432159 -122.305878 0 205 12
2020-09-06 06:50:19 GMT 47.432308 -122.305771 0 186 7
2020-09-06 06:50:16 GMT 47.432419 -122.305717 0 191 11
2020-09-06 06:50:13 GMT 47.432571 -122.305672 0 182 10
2020-09-06 06:50:10 GMT 47.432659 -122.305634 0 181 15
2020-09-06 06:50:07 GMT 47.432861 -122.305580 0 177 14
2020-09-06 06:50:04 GMT 47.433380 -122.305649 0 181 19
2020-09-06 06:50:01 GMT 47.433380 -122.305649 0 178 21
2020-09-06 06:49:58 GMT 47.433670 -122.305656 0 182 18
2020-09-06 06:49:55 GMT 47.433910 -122.305603 0 177 20
2020-09-06 06:49:52 GMT 47.434181 -122.305634 0 179 17
2020-09-06 06:49:49 GMT 47.434429 -122.305634 0 181 18
2020-09-06 06:49:46 GMT 47.434681 -122.305634 0 181 13
2020-09-06 06:49:43 GMT 47.434841 -122.305618 0 181 11
2020-09-06 06:49:40 GMT 47.435120 -122.305611 0 182 14
2020-09-06 06:49:37 GMT 47.435490 -122.305573 0 172 14
2020-09-06 06:49:34 GMT 47.435490 -122.305573 0 160 13
2020-09-06 06:49:31 GMT 47.435661 -122.305618 0 149 13
2020-09-06 06:49:28 GMT 47.435822 -122.305794 0 148 12
2020-09-06 06:49:25 GMT 47.435982 -122.305901 0 141 9
2020-09-06 06:49:22 GMT 47.436089 -122.306030 0 144 13
2020-09-06 06:49:19 GMT 47.436249 -122.306198 0 150 11
2020-09-06 06:49:16 GMT 47.436352 -122.306290 0 164 10
2020-09-06 06:49:13 GMT 47.436481 -122.306358 0 179 10
2020-09-06 06:49:10 GMT 47.436600 -122.306358 0 177 12
2020-09-06 06:49:07 GMT 47.436760 -122.306389 0 184 15
2020-09-06 06:49:04 GMT 47.436920 -122.306358 0 180 17
2020-09-06 06:49:01 GMT 47.437149 -122.306358 0 175 17
2020-09-06 06:48:58 GMT 47.437389 -122.306358 0 178 22
2020-09-06 06:48:55 GMT 47.437672 -122.306412 0 181 24
2020-09-06 06:48:52 GMT 47.437969 -122.306351 0 177 26
2020-09-06 06:48:49 GMT 47.438332 -122.306389 0 179 29
2020-09-06 06:48:46 GMT 47.438728 -122.306374 0 182 29
2020-09-06 06:48:43 GMT 47.439129 -122.306328 0 181 27
2020-09-06 06:48:40 GMT 47.439529 -122.306313 0 179 27
2020-09-06 06:48:37 GMT 47.439892 -122.306343 0 182 28
2020-09-06 06:48:34 GMT 47.440281 -122.306290 0 175 25
2020-09-06 06:48:31 GMT 47.440609 -122.306374 0 175 25
2020-09-06 06:48:28 GMT 47.440960 -122.306351 0 179 25
2020-09-06 06:48:25 GMT 47.441319 -122.306374 0 186 22
2020-09-06 06:48:22 GMT 47.441608 -122.306351 0 183 26
2020-09-06 06:48:19 GMT 47.441959 -122.306297 0 177 24
2020-09-06 06:48:16 GMT 47.442280 -122.306313 0 177 22
2020-09-06 06:48:13 GMT 47.442581 -122.306328 0 184 19
2020-09-06 06:48:10 GMT 47.442848 -122.306328 0 179 19
2020-09-06 06:48:07 GMT 47.443119 -122.306328 0 174 19
2020-09-06 06:48:04 GMT 47.443378 -122.306358 0 178 20
2020-09-06 06:48:01 GMT 47.443668 -122.306374 0 179 18
2020-09-06 06:47:58 GMT 47.443878 -122.306374 0 181 17
2020-09-06 06:47:55 GMT 47.444111 -122.306343 0 177 17
2020-09-06 06:47:52 GMT 47.444351 -122.306328 0 172 16
2020-09-06 06:47:49 GMT 47.444592 -122.306450 0 181 15
2020-09-06 06:47:46 GMT 47.444759 -122.306381 0 181 15
2020-09-06 06:47:43 GMT 47.444950 -122.306381 0 187 11
2020-09-06 06:47:40 GMT 47.445099 -122.306351 0 183 12
2020-09-06 06:47:37 GMT 47.445251 -122.306358 0 183 11
2020-09-06 06:47:34 GMT 47.445389 -122.306343 0 180 13
2020-09-06 06:47:31 GMT 47.445679 -122.306320 0 178 2
2020-09-06 06:47:28 GMT 47.445679 -122.306320 0 177 8
2020-09-06 06:47:25 GMT 47.445801 -122.306313 0 174 10
2020-09-06 06:47:22 GMT 47.445938 -122.306343 0 180 12
2020-09-06 06:47:19 GMT 47.446178 -122.306320 0 179 20
2020-09-06 06:47:16 GMT 47.446461 -122.306297 0 178 22
2020-09-06 06:47:13 GMT 47.446751 -122.306297 0 178 25
2020-09-06 06:47:10 GMT 47.447121 -122.306328 0 180 27
2020-09-06 06:47:07 GMT 47.447498 -122.306351 0 184 26
2020-09-06 06:47:04 GMT 47.447861 -122.306313 0 181 25
2020-09-06 06:47:01 GMT 47.448219 -122.306267 0 178 25
2020-09-06 06:46:58 GMT 47.448551 -122.306313 0 181 25
2020-09-06 06:46:55 GMT 47.448891 -122.306290 0 180 23
2020-09-06 06:46:52 GMT 47.449211 -122.306297 0 182 23
2020-09-06 06:46:49 GMT 47.449532 -122.306259 0 177 22
2020-09-06 06:46:46 GMT 47.449829 -122.306313 0 181 22
2020-09-06 06:46:43 GMT 47.450401 -122.306297 0 180 19
2020-09-06 06:46:40 GMT 47.450401 -122.306297 0 180 20
2020-09-06 06:46:37 GMT 47.450691 -122.306297 0 181 20
2020-09-06 06:46:34 GMT 47.450939 -122.306259 0 176 17
2020-09-06 06:46:31 GMT 47.451180 -122.306290 0 177 17
2020-09-06 06:46:28 GMT 47.451408 -122.306282 0 179 18
2020-09-06 06:46:25 GMT 47.451679 -122.306267 0 180 17
2020-09-06 06:46:22 GMT 47.451859 -122.306259 0 176 13
2020-09-06 06:46:19 GMT 47.452061 -122.306290 0 182 13
2020-09-06 06:46:16 GMT 47.452221 -122.306252 0 179 11
2020-09-06 06:46:13 GMT 47.452370 -122.306252 0 184 11
2020-09-06 06:46:10 GMT 47.452518 -122.306236 0 176 8
2020-09-06 06:46:07 GMT 47.452599 -122.306267 0 180 10
2020-09-06 06:46:04 GMT 47.452789 -122.306259 0 178 15
2020-09-06 06:46:01 GMT 47.452999 -122.306259 0 181 19
2020-09-06 06:45:58 GMT 47.453251 -122.306229 0 180 20
2020-09-06 06:45:55 GMT 47.453522 -122.306229 0 176 24
2020-09-06 06:45:52 GMT 47.453869 -122.306229 0 179 25
2020-09-06 06:45:49 GMT 47.454208 -122.306259 0 183 28
2020-09-06 06:45:46 GMT 47.454590 -122.306229 0 182 24
2020-09-06 06:45:43 GMT 47.454948 -122.306198 0 181 22
2020-09-06 06:45:40 GMT 47.455238 -122.306198 0 177 24
2020-09-06 06:45:37 GMT 47.455582 -122.306221 0 179 24
2020-09-06 06:45:34 GMT 47.456181 -122.306213 0 177 22
2020-09-06 06:45:31 GMT 47.456181 -122.306213 0 182 21
2020-09-06 06:45:28 GMT 47.456490 -122.306213 0 180 21
2020-09-06 06:45:25 GMT 47.456772 -122.306213 0 184 19
2020-09-06 06:45:22 GMT 47.457081 -122.306152 0 174 19
2020-09-06 06:45:19 GMT 47.457352 -122.306213 0 176 18
2020-09-06 06:45:16 GMT 47.457588 -122.306213 0 181 20
2020-09-06 06:45:13 GMT 47.457851 -122.306190 0 179 18
2020-09-06 06:45:10 GMT 47.458092 -122.306190 0 179 18
2020-09-06 06:45:07 GMT 47.458328 -122.306213 0 178 18
2020-09-06 06:45:04 GMT 47.458580 -122.306183 0 182 18
2020-09-06 06:45:01 GMT 47.458881 -122.306099 0 173 12
2020-09-06 06:44:58 GMT 47.459030 -122.306198 0 184 15
2020-09-06 06:44:55 GMT 47.459450 -122.306152 0 182 14
2020-09-06 06:44:52 GMT 47.459450 -122.306152 0 176 15
2020-09-06 06:44:49 GMT 47.459759 -122.306198 0 184 6
2020-09-06 06:44:46 GMT 47.459850 -122.306198 0 184 13
2020-09-06 06:44:43 GMT 47.460049 -122.306183 0 185 12
2020-09-06 06:44:40 GMT 47.460232 -122.306137 0 179 14
2020-09-06 06:44:37 GMT 47.460430 -122.306137 0 171 11
2020-09-06 06:44:34 GMT 47.460571 -122.306168 0 178 13
2020-09-06 06:44:31 GMT 47.460758 -122.306183 0 187 11
2020-09-06 06:44:28 GMT 47.460918 -122.306168 0 183 10
2020-09-06 06:44:25 GMT 47.461071 -122.306152 0 171 12
2020-09-06 06:44:22 GMT 47.461239 -122.306168 0 173 11
2020-09-06 06:44:19 GMT 47.461361 -122.306236 0 183 9
2020-09-06 06:44:16 GMT 47.461571 -122.306198 0 198 7
2020-09-06 06:44:13 GMT 47.461681 -122.306168 0 237 9
2020-09-06 06:44:10 GMT 47.461788 -122.306038 0 247 9
2020-09-06 06:44:07 GMT 47.461861 -122.305893 0 268 11
2020-09-06 06:44:04 GMT 47.461880 -122.305489 0 269 8
2020-09-06 06:44:01 GMT 47.461880 -122.305489 0 273 12
2020-09-06 06:43:58 GMT 47.461849 -122.305252 0 265 11
2020-09-06 06:43:55 GMT 47.461891 -122.305038 0 280 9
2020-09-06 06:43:52 GMT 47.461849 -122.304817 0 266 9
2020-09-06 06:43:49 GMT 47.461849 -122.304649 0 261 6
2020-09-06 06:43:46 GMT 47.461880 -122.304489 0 283 9
2020-09-06 06:43:43 GMT 47.461842 -122.304352 0 272 7
2020-09-06 06:43:40 GMT 47.461842 -122.304192 0 274 9
2020-09-06 06:43:37 GMT 47.461800 -122.303902 0 276 6
2020-09-06 06:43:34 GMT 47.461830 -122.303726 0 271 4
2020-09-06 06:43:31 GMT 47.461830 -122.303711 0 274 4
2020-09-06 06:43:28 GMT 47.461842 -122.303307 0 270 6
2020-09-06 06:43:20 GMT 47.461842 -122.303017 0 270 5
2020-09-06 06:43:07 GMT 47.461834 -122.302658 0 272 4
2020-09-06 06:42:57 GMT 47.461834 -122.302460 0 272 0
2020-09-06 06:42:47 GMT 47.461823 -122.302322 0 272 0
2020-09-06 06:42:36 GMT 47.461823 -122.302269 0 272 0
2020-09-06 06:42:26 GMT 47.461823 -122.302254 0 272 0
2020-09-06 06:42:12 GMT 47.461823 -122.302254 0 272 0
2020-09-06 06:42:07 GMT 47.461819 -122.302261 0 272 0
2020-09-06 06:42:02 GMT 47.461823 -122.302254 0 272 0
2020-09-06 06:41:52 GMT 47.461819 -122.302261 0 272 0
2020-09-06 06:41:41 GMT 47.461823 -122.302254 0 272 0
2020-09-06 06:41:32 GMT 47.461819 -122.302261 0 272 0
2020-09-06 06:41:28 GMT 47.461823 -122.302254 0 272 0
2020-09-06 06:41:21 GMT 47.461819 -122.302261 0 272 0
2020-09-06 06:41:16 GMT 47.461823 -122.302254 0 272 0
2020-09-06 06:41:13 GMT 47.461819 -122.302261 0 272 0
2020-09-06 06:41:07 GMT 47.461823 -122.302254 0 272 0
2020-09-06 06:41:01 GMT 47.461819 -122.302261 0 272 0
2020-09-06 06:40:56 GMT 47.461823 -122.302254 0 272 0
2020-09-06 06:40:47 GMT 47.461819 -122.302261 0 272 0
2020-09-06 06:40:41 GMT 47.461823 -122.302254 0 272 0
2020-09-06 06:40:32 GMT 47.461819 -122.302261 0 272 0
2020-09-06 06:40:20 GMT 47.461823 -122.302254 0 272 0
2020-09-06 06:40:11 GMT 47.461819 -122.302261 0 272 0
2020-09-06 06:40:01 GMT 47.461823 -122.302254 0 272 0
2020-09-06 06:39:50 GMT 47.461819 -122.302261 0 272 0
2020-09-06 06:39:45 GMT 47.461823 -122.302254 0 272 0
2020-09-06 06:39:36 GMT 47.461819 -122.302261 0 272 0
2020-09-06 06:39:12 GMT 47.461823 -122.302254 0 272 0
2020-09-06 06:39:01 GMT 47.461819 -122.302261 0 272 0
2020-09-06 06:38:55 GMT 47.461823 -122.302254 0 272 0
2020-09-06 06:38:46 GMT 47.461819 -122.302261 0 272 0
2020-09-06 06:38:30 GMT 47.461823 -122.302254 0 272 0
2020-09-06 06:38:26 GMT 47.461819 -122.302261 0 272 0
2020-09-06 06:38:15 GMT 47.461823 -122.302254 0 272 0
2020-09-06 06:37:59 GMT 47.461819 -122.302261 0 272 0
2020-09-06 06:37:46 GMT 47.461823 -122.302254 0 272 0
2020-09-06 06:37:40 GMT 47.461819 -122.302261 0 272 0
2020-09-06 06:37:30 GMT 47.461823 -122.302254 0 272 0
2020-09-06 06:37:21 GMT 47.461819 -122.302261 0 272 0
2020-09-06 06:37:10 GMT 47.461823 -122.302254 0 272 0
2020-09-06 06:37:00 GMT 47.461819 -122.302261 0 272 0
2020-09-06 06:36:56 GMT 47.461823 -122.302254 0 272 0
2020-09-06 06:36:29 GMT 47.461819 -122.302261 0 272 0
2020-09-06 06:36:26 GMT 47.461823 -122.302254 0 272 0
2020-09-06 06:36:13 GMT 47.461819 -122.302261 0 272 0
2020-09-06 06:36:08 GMT 47.461823 -122.302269 0 272 0
2020-09-06 06:36:01 GMT 47.461819 -122.302330 0 270 2
2020-09-06 06:35:57 GMT 47.461823 -122.302376 0 270 2
2020-09-06 06:35:52 GMT 47.461819 -122.302444 0 275 2
2020-09-06 06:35:47 GMT 47.461834 -122.302483 0 281 3
2020-09-06 06:35:39 GMT 47.461864 -122.302567 0 298 2
2020-09-06 06:35:36 GMT 47.461868 -122.302589 0 303 2
2020-09-06 06:35:30 GMT 47.461922 -122.302635 0 317 3
2020-09-06 06:35:26 GMT 47.461945 -122.302650 0 323 3
2020-09-06 06:35:20 GMT 47.462013 -122.302704 0 334 3
2020-09-06 06:35:16 GMT 47.462048 -122.302727 0 340 3
2020-09-06 06:35:09 GMT 47.462139 -122.302742 0 348 3
2020-09-06 06:35:05 GMT 47.462185 -122.302742 0 354 3
2020-09-06 06:35:01 GMT 47.462242 -122.302742 0 357 3
2020-09-06 06:34:57 GMT 47.462299 -122.302742 0 0 3
2020-09-06 06:34:51 GMT 47.462357 -122.302742 0 0 3
2020-09-06 06:34:48 GMT 47.462379 -122.302742 0 0 3
2020-09-06 06:34:41 GMT 47.462475 -122.302742 0 0 3
2020-09-06 06:34:38 GMT 47.462528 -122.302742 0 0 3
2020-09-06 06:34:35 GMT 47.462585 -122.302742 0 0 0
2020-09-06 06:34:22 GMT 47.462666 -122.302742 0 0 0
2020-09-06 06:34:12 GMT 47.462662 -122.302742 0 0 0
2020-09-06 06:33:51 GMT 47.462662 -122.302742 0 0 0

Making use of Plane Finder data

You are free to use the raw flight data, aircraft information and images provided in this report for your own purposes provided the data is correctly attributed to Plane Finder. We ask that you please credit Plane Finder and link to planefinder.net in close proximity to the content.

Optionally one of the following logos (no smaller then 150x24px) can be used and must link to planefinder.net

Embedding the Plane Finder map

You are welcome to embed the Plane Finder playback map on your website to offer visitors a more interactive experience. We suggest using the following HTML code:

<iframe src="//planefinder.net/data/report/CV7757-LX-VCC-7700-squawk-2020-09-06/map" width="800" height="600" seamless="seamless"></iframe>

Where our data comes from

Plane Finder has a global network of data feeds and antenna radars that receive data broadcast directly from aircraft. The primary technologies used are ADS-B and MLAT. We also show feeds from the FAA and a FLARM glider feed.

Click here to find out more about the Plane Finder network.

How we collect our data